Provisional Data: Portage Creek near Emporium, PA


Please select a monitoring station.
Please select start date.
Please select start date.

Toggle Unit: C/F Toggle Unit: C/F
Sample Time Temperature (C) Temperature (F) Specific Conductivity (mS/cm) pH   Turbidity (NTU+) DO (mg/L)
4/22/2022 12:00:00 AM 7.33 45.194 0.058 7.01 2.33 11.77
4/22/2022 12:15:00 AM 7.33 45.194 0.058 7.02 2.41 11.77
4/22/2022 12:30:00 AM 7.32 45.176 0.059 7.02 2.55 11.79
4/22/2022 12:45:00 AM 7.32 45.176 0.059 7.02 2.47 11.78
4/22/2022 1:00:00 AM 7.31 45.158 0.059 7.03 2.38 11.78
4/22/2022 1:15:00 AM 7.3 45.14 0.059 7.03 2.37 11.79
4/22/2022 1:30:00 AM 7.3 45.14 0.059 7.03 2.39 11.79
4/22/2022 1:45:00 AM 7.29 45.122 0.059 7.02 2.42 11.8
4/22/2022 2:00:00 AM 7.28 45.104 0.059 7.04 2.36 11.8
4/22/2022 2:15:00 AM 7.28 45.104 0.059 7.03 2.36 11.81
4/22/2022 2:30:00 AM 7.27 45.086 0.059 7.03 2.29 11.8
4/22/2022 2:45:00 AM 7.27 45.086 0.059 7.04 2.23 11.81
4/22/2022 3:00:00 AM 7.27 45.086 0.059 7.03 2.33 11.81
4/22/2022 3:15:00 AM 7.26 45.068 0.059 7.04 2.25 11.81
4/22/2022 3:30:00 AM 7.25 45.05 0.059 7.04 2.28 11.82
4/22/2022 3:45:00 AM 7.24 45.032 0.059 7.04 2.62 11.82
4/22/2022 4:00:00 AM 7.24 45.032 0.059 7.04 2.34 11.82
4/22/2022 4:15:00 AM 7.23 45.014 0.059 7.03 2.32 11.83
4/22/2022 4:30:00 AM 7.21 44.978 0.059 7.04 2.3 11.84
4/22/2022 4:45:00 AM 7.2 44.96 0.059 7.04 2.39 11.84
4/22/2022 5:00:00 AM 7.18 44.924 0.059 7.04 2.29 11.85
4/22/2022 5:15:00 AM 7.17 44.906 0.059 7.04 2.33 11.85
4/22/2022 5:30:00 AM 7.15 44.87 0.059 7.04 2.36 11.86
4/22/2022 5:45:00 AM 7.13 44.834 0.059 7.04 2.31 11.86
4/22/2022 6:00:00 AM 7.11 44.798 0.059 7.04 2.21 11.87
4/22/2022 6:15:00 AM 7.09 44.762 0.059 7.04 2.28 11.89
4/22/2022 6:30:00 AM 7.07 44.726 0.059 7.05 2.3 11.9
4/22/2022 6:45:00 AM 7.05 44.69 0.059 7.05 2.29 11.93
4/22/2022 7:00:00 AM 7.03 44.654 0.059 7.06 2.22 11.97
4/22/2022 7:15:00 AM 7.01 44.618 0.059 7.07 2.15 12.02
4/22/2022 7:30:00 AM 6.99 44.582 0.058 7.08 2.23 12.08
4/22/2022 7:45:00 AM 6.98 44.564 0.058 7.1 2.27 12.14
4/22/2022 8:00:00 AM 6.98 44.564 0.058 7.12 2.18 12.21
4/22/2022 8:15:00 AM 6.98 44.564 0.058 7.13 2.07 12.27
4/22/2022 8:30:00 AM 7 44.6 0.058 7.17 2.44 12.33
4/22/2022 8:45:00 AM 7.04 44.672 0.058 7.18 2.22 12.38
4/22/2022 9:00:00 AM 7.11 44.798 0.058 7.21 2.18 12.41
4/22/2022 9:15:00 AM 7.17 44.906 0.058 7.22 2.31 12.42
4/22/2022 9:30:00 AM 7.26 45.068 0.058 7.23 2.34 12.41
4/22/2022 9:45:00 AM 7.34 45.212 0.058 7.24 2.27 12.41
4/22/2022 10:00:00 AM 7.41 45.338 0.058 7.25 2.03 12.4
4/22/2022 10:15:00 AM 7.52 45.536 0.058 7.26 2.02 12.39
4/22/2022 10:30:00 AM 7.7 45.86 0.058 7.27 2.11 12.39
4/22/2022 10:45:00 AM 7.9 46.22 0.058 7.28 2.03 12.34
4/22/2022 11:00:00 AM 8.08 46.544 0.058 7.29 2.28 12.31
4/22/2022 11:15:00 AM 8.27 46.886 0.057 7.3 2 12.28
4/22/2022 11:30:00 AM 8.46 47.228 0.057 7.3 1.91 12.24
4/22/2022 11:45:00 AM 8.67 47.606 0.057 7.3 2.04 12.19
4/22/2022 12:00:00 PM 8.89 48.002 0.057 7.32 1.89 12.14
4/22/2022 12:15:00 PM 9.1 48.38 0.057 7.32 2.01 12.1
4/22/2022 12:30:00 PM 9.33 48.794 0.057 7.32 1.93 12.02
4/22/2022 12:45:00 PM 9.57 49.226 0.057 7.33 2.05 11.97
4/22/2022 1:00:00 PM 9.83 49.694 0.057 7.34 1.97 11.91
4/22/2022 1:15:00 PM 10.08 50.144 0.057 7.35 1.9 11.83
4/22/2022 1:30:00 PM 10.37 50.666 0.057 7.35 2.05 11.76
4/22/2022 1:45:00 PM 10.68 51.224 0.057 7.36 2.02 11.68
4/22/2022 2:00:00 PM 10.99 51.782 0.057 7.38 1.97 11.61
4/22/2022 2:15:00 PM 11.31 52.358 0.057 7.38 1.98 11.51
4/22/2022 2:30:00 PM 11.61 52.898 0.056 7.39 1.99 11.44
4/22/2022 2:45:00 PM 11.91 53.438 0.056 7.4 1.96 11.34
4/22/2022 3:00:00 PM 12.18 53.924 0.056 7.4 1.96 11.27
4/22/2022 3:15:00 PM 12.39 54.302 0.056 7.41 2.01 11.2
4/22/2022 3:30:00 PM 12.59 54.662 0.056 7.42 2.01 11.14
4/22/2022 3:45:00 PM 12.72 54.896 0.056 7.42 2.01 11.1
4/22/2022 4:00:00 PM 12.82 55.076 0.056 7.42 1.99 11.05
4/22/2022 4:15:00 PM 12.89 55.202 0.056 7.42 2.05 11.02
4/22/2022 4:30:00 PM 12.95 55.31 0.056 7.43 2.14 10.98
4/22/2022 4:45:00 PM 12.96 55.328 0.056 7.42 2.1 10.95
4/22/2022 5:00:00 PM 12.9 55.22 0.056 7.41 2.1 10.93
4/22/2022 5:15:00 PM 12.85 55.13 0.056 7.4 2.18 10.91
4/22/2022 5:30:00 PM 12.81 55.058 0.056 7.4 2.1 10.91
4/22/2022 5:45:00 PM 12.71 54.878 0.056 7.39 2.15 10.91
4/22/2022 6:00:00 PM 12.58 54.644 0.056 7.37 2.16 10.89
4/22/2022 6:15:00 PM 12.48 54.464 0.056 7.35 2.14 10.9
4/22/2022 6:30:00 PM 12.35 54.23 0.056 7.33 2.59 10.9
4/22/2022 6:45:00 PM 12.22 53.996 0.056 7.3 2.32 10.89
4/22/2022 7:00:00 PM 12.11 53.798 0.056 7.28 2.24 10.87
4/22/2022 7:15:00 PM 11.98 53.564 0.056 7.25 2.31 10.85
4/22/2022 7:30:00 PM 11.85 53.33 0.056 7.23 2.26 10.82
4/22/2022 7:45:00 PM 11.72 53.096 0.056 7.19 2.24 10.79
4/22/2022 8:00:00 PM 11.6 52.88 0.056 7.15 2.24 10.76
4/22/2022 8:15:00 PM 11.48 52.664 0.056 7.12 2.51 10.74
4/22/2022 8:30:00 PM 11.38 52.484 0.056 7.1 2.48 10.71
4/22/2022 8:45:00 PM 11.29 52.322 0.056 7.09 2.49 10.7
4/22/2022 9:00:00 PM 11.2 52.16 0.056 7.08 2.47 10.71
4/22/2022 9:15:00 PM 11.11 51.998 0.056 7.05 2.63 10.72
4/22/2022 9:30:00 PM 11.02 51.836 0.056 7.05 2.56 10.74
4/22/2022 9:45:00 PM 10.92 51.656 0.056 7.05 2.57 10.76
4/22/2022 10:00:00 PM 10.83 51.494 0.056 7.04 2.61 10.78
4/22/2022 10:15:00 PM 10.74 51.332 0.056 7.04 2.6 10.79
4/22/2022 10:30:00 PM 10.65 51.17 0.056 7.04 2.43 10.81
4/22/2022 10:45:00 PM 10.57 51.026 0.056 7.04 2.62 10.82
4/22/2022 11:00:00 PM 10.48 50.864 0.056 7.04 2.58 10.86
4/22/2022 11:15:00 PM 10.4 50.72 0.056 7.04 2.62 10.89
4/22/2022 11:30:00 PM 10.33 50.594 0.056 7.04 2.61 10.91
4/22/2022 11:45:00 PM 10.26 50.468 0.056 7.04 2.7 10.93
4/23/2022 12:00:00 AM 10.19 50.342 0.056 7.03 2.69 10.95
4/23/2022 12:15:00 AM 10.13 50.234 0.056 7.03 2.69 10.97
4/23/2022 12:30:00 AM 10.06 50.108 0.056 7.03 2.68 10.98
4/23/2022 12:45:00 AM 10 50 0.056 7.03 2.74 11
4/23/2022 1:00:00 AM 9.93 49.874 0.056 7.04 2.68 11.01
4/23/2022 1:15:00 AM 9.87 49.766 0.056 7.02 2.71 11.02
4/23/2022 1:30:00 AM 9.81 49.658 0.056 7.02 3.09 11.05
4/23/2022 1:45:00 AM 9.75 49.55 0.056 7.02 2.87 11.07
4/23/2022 2:00:00 AM 9.69 49.442 0.056 7.02 2.67 11.09
4/23/2022 2:15:00 AM 9.63 49.334 0.056 7.02 2.8 11.1
4/23/2022 2:30:00 AM 9.57 49.226 0.056 7.02 2.67 11.12
4/23/2022 2:45:00 AM 9.51 49.118 0.056 7.02 2.81 11.14
4/23/2022 3:00:00 AM 9.44 48.992 0.056 7.02 2.92 11.15
4/23/2022 3:15:00 AM 9.38 48.884 0.056 7.03 2.7 11.16
4/23/2022 3:30:00 AM 9.32 48.776 0.056 7.03 2.75 11.18
4/23/2022 3:45:00 AM 9.26 48.668 0.056 7.03 2.75 11.2
4/23/2022 4:00:00 AM 9.21 48.578 0.056 7.02 2.72 11.22
4/23/2022 4:15:00 AM 9.15 48.47 0.056 7.02 2.66 11.24
4/23/2022 4:30:00 AM 9.1 48.38 0.056 7.03 2.72 11.25
4/23/2022 4:45:00 AM 9.04 48.272 0.056 7.02 2.78 11.27
4/23/2022 5:00:00 AM 8.99 48.182 0.056 7.02 2.72 11.28
4/23/2022 5:15:00 AM 8.94 48.092 0.057 7.02 2.66 11.3
4/23/2022 5:30:00 AM 8.89 48.002 0.056 7.03 2.99 11.31
4/23/2022 5:45:00 AM 8.84 47.912 0.056 7.03 2.61 11.32
4/23/2022 6:00:00 AM 8.8 47.84 0.056 7.03 2.86 11.33
4/23/2022 6:15:00 AM 8.75 47.75 0.056 7.03 2.72 11.34
4/23/2022 6:30:00 AM 8.71 47.678 0.056 7.03 2.63 11.35
4/23/2022 6:45:00 AM 8.67 47.606 0.056 7.04 2.55 11.38
4/23/2022 7:00:00 AM 8.63 47.534 0.056 7.04 2.51 11.4
4/23/2022 7:15:00 AM 8.6 47.48 0.056 7.05 2.63 11.46
4/23/2022 7:30:00 AM 8.57 47.426 0.056 7.06 2.5 11.5
4/23/2022 7:45:00 AM 8.54 47.372 0.056 7.08 2.44 11.56
4/23/2022 8:00:00 AM 8.52 47.336 0.056 7.1 2.48 11.61
4/23/2022 8:15:00 AM 8.53 47.354 0.056 7.12 2.42 11.7
4/23/2022 8:30:00 AM 8.54 47.372 0.056 7.15 2.31 11.78
4/23/2022 8:45:00 AM 8.55 47.39 0.056 7.17 2.37 11.82
4/23/2022 9:00:00 AM 8.56 47.408 0.055 7.19 2.31 11.84
4/23/2022 9:15:00 AM 8.6 47.48 0.055 7.22 2.32 11.87
4/23/2022 9:30:00 AM 8.65 47.57 0.055 7.23 2.33 11.9
4/23/2022 9:45:00 AM 8.68 47.624 0.055 7.25 2.36 11.91
4/23/2022 10:00:00 AM 8.69 47.642 0.055 7.26 2.2 11.91
4/23/2022 10:15:00 AM 8.71 47.678 0.055 7.27 2.17 11.9
4/23/2022 10:30:00 AM 8.73 47.714 0.055 7.27 2.21 11.88
4/23/2022 10:45:00 AM 8.79 47.822 0.055 7.29 2.12 11.9
4/23/2022 11:00:00 AM 8.8 47.84 0.055 7.28 2.26 11.89
4/23/2022 11:15:00 AM 8.79 47.822 0.055 7.28 2.22 11.86
4/23/2022 11:30:00 AM 8.81 47.858 0.055 7.28 2.36 11.86
4/23/2022 11:45:00 AM 8.84 47.912 0.055 7.29 2.15 11.86
4/23/2022 12:00:00 PM 8.84 47.912 0.055 7.28 2.08 11.84
4/23/2022 12:15:00 PM 8.9 48.02 0.055 7.3 2.11 11.86
4/23/2022 12:30:00 PM 8.99 48.182 0.055 7.31 2.16 11.88
4/23/2022 12:45:00 PM 9.08 48.344 0.055 7.32 2.07 11.88
4/23/2022 1:00:00 PM 9.16 48.488 0.055 7.33 2.1 11.86
4/23/2022 1:15:00 PM 9.23 48.614 0.055 7.34 2.09 11.83
4/23/2022 1:30:00 PM 9.36 48.848 0.055 7.35 2.1 11.81
4/23/2022 1:45:00 PM 9.47 49.046 0.055 7.36 2.25 11.8
4/23/2022 2:00:00 PM 9.6 49.28 0.054 7.36 2.1 11.78
4/23/2022 2:15:00 PM 9.73 49.514 0.054 7.36 2.11 11.76
4/23/2022 2:30:00 PM 9.89 49.802 0.054 7.38 2.01 11.73
4/23/2022 2:45:00 PM 10.12 50.216 0.054 7.39 2.11 11.68
4/23/2022 3:00:00 PM 10.23 50.414 0.054 7.39 2.08 11.64
4/23/2022 3:15:00 PM 10.44 50.792 0.054 7.39 2.06 11.59
4/23/2022 3:30:00 PM 10.62 51.116 0.054 7.4 2.08 11.54
4/23/2022 3:45:00 PM 10.75 51.35 0.054 7.4 2.08 11.5
4/23/2022 4:00:00 PM 10.9 51.62 0.054 7.4 2.33 11.46
4/23/2022 4:15:00 PM 11.15 52.07 0.053 7.41 2.1 11.4
4/23/2022 4:30:00 PM 11.32 52.376 0.053 7.41 2.11 11.33
4/23/2022 4:45:00 PM 11.44 52.592 0.053 7.4 2.1 11.28
4/23/2022 5:00:00 PM 11.52 52.736 0.053 7.39 2.3 11.24
4/23/2022 5:15:00 PM 11.58 52.844 0.053 7.38 2.18 11.19
4/23/2022 5:30:00 PM 11.61 52.898 0.053 7.37 2.22 11.14
4/23/2022 5:45:00 PM 11.62 52.916 0.053 7.35 2.26 11.11
4/23/2022 6:00:00 PM 11.62 52.916 0.053 7.33 2.28 11.06
4/23/2022 6:15:00 PM 11.62 52.916 0.053 7.31 2.33 11.02
4/23/2022 6:30:00 PM 11.61 52.898 0.053 7.29 2.28 10.98
4/23/2022 6:45:00 PM 11.58 52.844 0.053 7.27 2.32 10.94
4/23/2022 7:00:00 PM 11.53 52.754 0.053 7.25 2.3 10.91
4/23/2022 7:15:00 PM 11.45 52.61 0.053 7.23 2.3 10.9
4/23/2022 7:30:00 PM 11.37 52.466 0.053 7.2 2.28 10.86
4/23/2022 7:45:00 PM 11.29 52.322 0.053 7.18 2.37 10.82
4/23/2022 8:00:00 PM 11.21 52.178 0.053 7.15 2.35 10.79
4/23/2022 8:15:00 PM 11.13 52.034 0.053 7.13 2.5 10.76
4/23/2022 8:30:00 PM 11.03 51.854 0.053 7.1 2.51 10.75
4/23/2022 8:45:00 PM 10.94 51.692 0.054 7.07 2.52 10.74
4/23/2022 9:00:00 PM 10.86 51.548 0.054 7.07 2.68 10.74
4/23/2022 9:15:00 PM 10.79 51.422 0.054 7.06 2.83 10.74
4/23/2022 9:30:00 PM 10.73 51.314 0.054 7.04 2.69 10.74
4/23/2022 9:45:00 PM 10.67 51.206 0.054 7.04 2.65 10.74
4/23/2022 10:00:00 PM 10.61 51.098 0.054 7.04 2.86 10.75
4/23/2022 10:15:00 PM 10.54 50.972 0.054 7.02 2.98 10.77
4/23/2022 10:30:00 PM 10.48 50.864 0.054 7.03 2.89 10.79
4/23/2022 10:45:00 PM 10.42 50.756 0.054 7.03 2.83 10.8
4/23/2022 11:00:00 PM 10.35 50.63 0.054 7.02 2.94 10.81
4/23/2022 11:15:00 PM 10.29 50.522 0.054 7.02 2.85 10.83
4/23/2022 11:30:00 PM 10.23 50.414 0.054 7.02 2.8 10.85
4/23/2022 11:45:00 PM 10.17 50.306 0.054 7.02 3.03 10.87
4/24/2022 12:00:00 AM 10.11 50.198 0.054 7.02 2.71 10.88
4/24/2022 12:15:00 AM 10.05 50.09 0.054 7.01 2.63 10.89
4/24/2022 12:30:00 AM 9.99 49.982 0.054 7.01 2.6 10.91
4/24/2022 12:45:00 AM 9.93 49.874 0.054 7.01 2.81 10.92
4/24/2022 1:00:00 AM 9.87 49.766 0.054 7.01 2.68 10.94
4/24/2022 1:15:00 AM 9.81 49.658 0.054 7.01 2.76 10.96
4/24/2022 1:30:00 AM 9.75 49.55 0.054 7.01 2.6 10.97
4/24/2022 1:45:00 AM 9.69 49.442 0.054 7.01 2.68 10.99
4/24/2022 2:00:00 AM 9.62 49.316 0.054 7.02 2.74 11.01
4/24/2022 2:15:00 AM 9.56 49.208 0.054 7.01 2.82 11.03
4/24/2022 2:30:00 AM 9.5 49.1 0.054 7.01 2.75 11.04
4/24/2022 2:45:00 AM 9.44 48.992 0.055 7.01 2.73 11.05
4/24/2022 3:00:00 AM 9.38 48.884 0.055 7.01 2.66 11.07
4/24/2022 3:15:00 AM 9.32 48.776 0.055 7.01 2.66 11.09
4/24/2022 3:30:00 AM 9.26 48.668 0.055 7 2.74 11.11
4/24/2022 3:45:00 AM 9.21 48.578 0.055 7.02 2.76 11.12
4/24/2022 4:00:00 AM 9.15 48.47 0.055 7.01 2.76 11.15
4/24/2022 4:15:00 AM 9.08 48.344 0.055 7.01 2.62 11.17
4/24/2022 4:30:00 AM 9.02 48.236 0.055 7.01 2.81 11.19
4/24/2022 4:45:00 AM 8.95 48.11 0.055 7 2.75 11.19
4/24/2022 5:00:00 AM 8.89 48.002 0.055 7 2.62 11.22
4/24/2022 5:15:00 AM 8.82 47.876 0.055 7 2.73 11.24
4/24/2022 5:30:00 AM 8.75 47.75 0.055 7 2.74 11.24
4/24/2022 5:45:00 AM 8.69 47.642 0.055 7 2.67 11.26
4/24/2022 6:00:00 AM 8.63 47.534 0.055 7 2.64 11.28
4/24/2022 6:15:00 AM 8.57 47.426 0.055 7 2.63 11.3
4/24/2022 6:30:00 AM 8.51 47.318 0.055 7 2.53 11.33
4/24/2022 6:45:00 AM 8.45 47.21 0.055 7.01 2.66 11.38
4/24/2022 7:00:00 AM 8.4 47.12 0.055 7.01 2.62 11.44
4/24/2022 7:15:00 AM 8.36 47.048 0.055 7.03 2.47 11.5
4/24/2022 7:30:00 AM 8.32 46.976 0.055 7.05 2.54 11.57
4/24/2022 7:45:00 AM 8.3 46.94 0.055 7.07 2.38 11.64
4/24/2022 8:00:00 AM 8.3 46.94 0.055 7.09 2.39 11.71
4/24/2022 8:15:00 AM 8.31 46.958 0.055 7.11 2.39 11.75
4/24/2022 8:30:00 AM 8.33 46.994 0.054 7.13 2.31 11.8
4/24/2022 8:45:00 AM 8.36 47.048 0.054 7.16 2.3 11.83
4/24/2022 9:00:00 AM 8.4 47.12 0.054 7.17 2.34 11.85
4/24/2022 9:15:00 AM 8.45 47.21 0.054 7.19 2.28 11.86
4/24/2022 9:30:00 AM 8.53 47.354 0.054 7.2 2.22 11.87
4/24/2022 9:45:00 AM 8.64 47.552 0.054 7.22 2.58 11.87
4/24/2022 10:00:00 AM 8.78 47.804 0.054 7.24 2.28 11.85
4/24/2022 10:15:00 AM 8.97 48.146 0.054 7.26 2.16 11.86
4/24/2022 10:30:00 AM 9.16 48.488 0.054 7.27 2.22 11.83
4/24/2022 10:45:00 AM 9.36 48.848 0.054 7.29 2.15 11.79
4/24/2022 11:00:00 AM 9.57 49.226 0.054 7.3 2.13 11.77
4/24/2022 11:15:00 AM 9.81 49.658 0.054 7.3 2.16 11.73
4/24/2022 11:30:00 AM 10.06 50.108 0.054 7.32 2.15 11.66
4/24/2022 11:45:00 AM 10.33 50.594 0.054 7.33 2.2 11.63
4/24/2022 12:00:00 PM 10.61 51.098 0.054 7.34 2.11 11.56
4/24/2022 12:15:00 PM 10.92 51.656 0.053 7.35 2.1 11.5
4/24/2022 12:30:00 PM 11.24 52.232 0.053 7.36 2.07 11.42
4/24/2022 12:45:00 PM 11.58 52.844 0.053 7.37 2.04 11.35
4/24/2022 1:00:00 PM 11.93 53.474 0.053 7.38 2 11.25
4/24/2022 1:15:00 PM 12.31 54.158 0.053 7.4 2.12 11.19
4/24/2022 1:30:00 PM 12.7 54.86 0.053 7.41 2.08 11.08
4/24/2022 1:45:00 PM 13.14 55.652 0.053 7.42 2.11 10.99
4/24/2022 2:00:00 PM 13.45 56.21 0.053 7.43 2.07 10.92
4/24/2022 2:15:00 PM 13.66 56.588 0.053 7.43 2.26 10.84
4/24/2022 2:30:00 PM 13.98 57.164 0.053 7.44 2.21 10.76
4/24/2022 2:45:00 PM 14.36 57.848 0.053 7.47 2.1 10.68
4/24/2022 3:00:00 PM 14.7 58.46 0.053 7.47 2.27 10.6
4/24/2022 3:15:00 PM 14.92 58.856 0.053 7.48 2.3 10.52
4/24/2022 3:30:00 PM 15.13 59.234 0.053 7.48 2.24 10.46
4/24/2022 3:45:00 PM 15.31 59.558 0.053 7.49 2.44 10.41
4/24/2022 4:00:00 PM 15.44 59.792 0.053 7.49 2.29 10.36
4/24/2022 4:15:00 PM 15.55 59.99 0.053 7.49 2.31 10.31
4/24/2022 4:30:00 PM 15.65 60.17 0.053 7.46 2.23 10.22
4/24/2022 4:45:00 PM 15.73 60.314 0.053 7.47 2.37 10.18
4/24/2022 5:00:00 PM 15.8 60.44 0.053 7.46 2.45 10.15
4/24/2022 5:15:00 PM 15.85 60.53 0.053 7.45 2.38 10.1
4/24/2022 5:30:00 PM 15.88 60.584 0.053 7.43 2.27 10.06
4/24/2022 5:45:00 PM 15.86 60.548 0.053 7.4 2.5 10
4/24/2022 6:00:00 PM 15.83 60.494 0.053 7.39 2.3 9.98
4/24/2022 6:15:00 PM 15.77 60.386 0.053 7.36 2.39 9.94
4/24/2022 6:30:00 PM 15.67 60.206 0.053 7.32 2.36 9.9
4/24/2022 6:45:00 PM 15.56 60.008 0.053 7.28 2.59 9.87
4/24/2022 7:00:00 PM 15.46 59.828 0.053 7.26 2.48 9.85
4/24/2022 7:15:00 PM 15.35 59.63 0.053 7.23 2.6 9.84
4/24/2022 7:30:00 PM 15.23 59.414 0.053 7.21 2.62 9.83
4/24/2022 7:45:00 PM 15.12 59.216 0.053 7.19 2.64 9.8
4/24/2022 8:00:00 PM 15.01 59.018 0.053 7.16 2.59 9.77
4/24/2022 8:15:00 PM 14.89 58.802 0.053 7.13 2.66 9.76
4/24/2022 8:30:00 PM 14.75 58.55 0.053 7.09 2.6 9.76
4/24/2022 8:45:00 PM 14.62 58.316 0.054 7.08 2.77 9.74
4/24/2022 9:00:00 PM 14.5 58.1 0.054 7.06 2.77 9.75
4/24/2022 9:15:00 PM 14.39 57.902 0.054 7.04 2.98 9.77
4/24/2022 9:30:00 PM 14.28 57.704 0.054 7.03 2.92 9.79
4/24/2022 9:45:00 PM 14.19 57.542 0.054 7.04 2.99 9.81
4/24/2022 10:00:00 PM 14.1 57.38 0.054 7.04 3.02 9.83
4/24/2022 10:15:00 PM 14.01 57.218 0.054 7.03 3.12 9.85
4/24/2022 10:30:00 PM 13.93 57.074 0.054 7.03 3.11 9.86
4/24/2022 10:45:00 PM 13.85 56.93 0.054 7.03 2.92 9.87
4/24/2022 11:00:00 PM 13.77 56.786 0.054 7.03 3.03 9.89
4/24/2022 11:15:00 PM 13.69 56.642 0.054 7.03 3.15 9.92
4/24/2022 11:30:00 PM 13.6 56.48 0.054 7.02 3.1 9.94
4/24/2022 11:45:00 PM 13.52 56.336 0.054 7.03 3.02 9.95
4/25/2022 12:00:00 AM 13.44 56.192 0.055 7.03 3.31 9.99
4/25/2022 12:15:00 AM 13.35 56.03 0.055 7.03 3.07 10.01
4/25/2022 12:30:00 AM 13.23 55.814 0.055 7.02 3.05 10.01
4/25/2022 12:45:00 AM 13.13 55.634 0.055 7 3.06 10.04
4/25/2022 1:00:00 AM 13.04 55.472 0.055 7.01 3.15 10.06
4/25/2022 1:15:00 AM 12.96 55.328 0.055 7.01 3.19 10.08
4/25/2022 1:30:00 AM 12.87 55.166 0.055 7 3.1 10.11
4/25/2022 1:45:00 AM 12.78 55.004 0.055 7 3.09 10.12
4/25/2022 2:00:00 AM 12.69 54.842 0.055 7 3.15 10.15
4/25/2022 2:15:00 AM 12.6 54.68 0.055 7.01 3.12 10.18
4/25/2022 2:30:00 AM 12.51 54.518 0.055 7 3.18 10.18
4/25/2022 2:45:00 AM 12.42 54.356 0.055 6.99 3.29 10.22
4/25/2022 3:00:00 AM 12.33 54.194 0.055 7.01 3.1 10.24
4/25/2022 3:15:00 AM 12.24 54.032 0.055 7 3.12 10.26
4/25/2022 3:30:00 AM 12.14 53.852 0.055 7 3.18 10.29
4/25/2022 3:45:00 AM 12.05 53.69 0.055 7.01 3.2 10.31
4/25/2022 4:00:00 AM 11.96 53.528 0.055 7 3.15 10.32
4/25/2022 4:15:00 AM 11.86 53.348 0.055 7 3.08 10.35
4/25/2022 4:30:00 AM 11.77 53.186 0.055 6.99 3.47 10.38
4/25/2022 4:45:00 AM 11.69 53.042 0.055 6.99 3.03 10.41
4/25/2022 5:00:00 AM 11.61 52.898 0.055 7.01 3.02 10.43
4/25/2022 5:15:00 AM 11.54 52.772 0.055 7 3.02 10.45
4/25/2022 5:30:00 AM 11.46 52.628 0.055 6.99 3.07 10.47
4/25/2022 5:45:00 AM 11.38 52.484 0.055 7 2.98 10.49
4/25/2022 6:00:00 AM 11.31 52.358 0.055 7 2.95 10.5
4/25/2022 6:15:00 AM 11.23 52.214 0.055 7 3.07 10.52
4/25/2022 6:30:00 AM 11.15 52.07 0.055 7 2.94 10.56
4/25/2022 6:45:00 AM 11.08 51.944 0.055 7 2.81 10.61
4/25/2022 7:00:00 AM 11.03 51.854 0.055 7.02 2.77 10.67
4/25/2022 7:15:00 AM 10.97 51.746 0.055 7.04 2.78 10.74
4/25/2022 7:30:00 AM 10.93 51.674 0.055 7.04 2.76 10.82
4/25/2022 7:45:00 AM 10.9 51.62 0.055 7.07 2.66 10.9
4/25/2022 8:00:00 AM 10.88 51.584 0.055 7.1 2.7 10.97
4/25/2022 8:15:00 AM 10.88 51.584 0.055 7.12 2.61 11.05
4/25/2022 8:30:00 AM 10.89 51.602 0.055 7.16 2.49 11.12
4/25/2022 8:45:00 AM 10.92 51.656 0.055 7.19 2.51 11.16
4/25/2022 9:00:00 AM 10.98 51.764 0.055 7.22 2.43 11.19
4/25/2022 9:15:00 AM 11.04 51.872 0.055 7.23 2.43 11.2
4/25/2022 9:30:00 AM 11.14 52.052 0.055 7.26 2.48 11.2
4/25/2022 9:45:00 AM 11.25 52.25 0.055 7.29 2.49 11.2
4/25/2022 10:00:00 AM 11.38 52.484 0.055 7.31 2.39 11.2
4/25/2022 10:15:00 AM 11.55 52.79 0.054 7.33 2.47 11.2
4/25/2022 10:30:00 AM 11.74 53.132 0.054 7.35 2.33 11.17
4/25/2022 10:45:00 AM 11.94 53.492 0.054 7.37 2.38 11.13
4/25/2022 11:00:00 AM 12.15 53.87 0.054 7.38 2.32 11.12
4/25/2022 11:15:00 AM 12.36 54.248 0.054 7.4 2.44 11.08
4/25/2022 11:30:00 AM 12.59 54.662 0.054 7.42 2.28 11.04
4/25/2022 11:45:00 AM 12.84 55.112 0.054 7.43 2.28 11.03
4/25/2022 12:00:00 PM 13.09 55.562 0.054 7.44 2.21 10.97
4/25/2022 12:15:00 PM 13.36 56.048 0.054 7.45 2.32 10.93
4/25/2022 12:30:00 PM 13.62 56.516 0.054 7.47 2.34 10.88
4/25/2022 12:45:00 PM 13.85 56.93 0.054 7.47 2.24 10.79
4/25/2022 1:00:00 PM 14.08 57.344 0.054 7.49 2.29 10.74
4/25/2022 1:15:00 PM 14.19 57.542 0.054 7.49 2.26 10.67
4/25/2022 1:30:00 PM 14.41 57.938 0.054 7.49 2.34 10.59
4/25/2022 1:45:00 PM 14.71 58.478 0.054 7.5 2.23 10.57
4/25/2022 2:00:00 PM 14.95 58.91 0.054 7.51 2.37 10.51
4/25/2022 2:15:00 PM 15.12 59.216 0.054 7.53 2.29 10.45
4/25/2022 2:30:00 PM 15.23 59.414 0.054 7.51 2.38 10.38
4/25/2022 2:45:00 PM 15.35 59.63 0.054 7.52 2.38 10.34
4/25/2022 3:00:00 PM 15.59 60.062 0.054 7.53 2.41 10.3
4/25/2022 3:15:00 PM 15.77 60.386 0.054 7.54 2.41 10.27
4/25/2022 3:30:00 PM 16.02 60.836 0.054 7.55 2.35 10.23
4/25/2022 3:45:00 PM 16.24 61.232 0.054 7.57 2.4 10.19
4/25/2022 4:00:00 PM 16.36 61.448 0.054 7.54 2.32 10.11
4/25/2022 4:15:00 PM 16.42 61.556 0.053 7.52 2.38 10.04
4/25/2022 4:30:00 PM 16.54 61.772 0.053 7.55 2.33 10.01
4/25/2022 4:45:00 PM 16.6 61.88 0.053 7.52 2.34 9.97
4/25/2022 5:00:00 PM 16.6 61.88 0.053 7.51 2.48 9.95
4/25/2022 5:15:00 PM 16.57 61.826 0.053 7.5 2.46 9.93
4/25/2022 5:30:00 PM 16.52 61.736 0.053 7.5 2.43 9.92
4/25/2022 5:45:00 PM 16.45 61.61 0.053 7.5 2.49 9.92
4/25/2022 6:00:00 PM 16.34 61.412 0.053 7.46 2.51 9.91
4/25/2022 6:15:00 PM 16.24 61.232 0.053 7.43 2.69 9.89
4/25/2022 6:30:00 PM 16.15 61.07 0.053 7.41 2.61 9.88
4/25/2022 6:45:00 PM 16.05 60.89 0.054 7.37 2.55 9.86
4/25/2022 7:00:00 PM 15.93 60.674 0.054 7.33 2.52 9.81
4/25/2022 7:15:00 PM 15.8 60.44 0.054 7.28 2.5 9.73
4/25/2022 7:30:00 PM 15.69 60.242 0.054 7.25 2.54 9.69
4/25/2022 7:45:00 PM 15.59 60.062 0.054 7.21 2.58 9.66
4/25/2022 8:00:00 PM 15.51 59.918 0.054 7.18 2.65 9.63
4/25/2022 8:15:00 PM 15.42 59.756 0.054 7.16 2.56 9.6
4/25/2022 8:30:00 PM 15.32 59.576 0.054 7.15 2.63 9.59
4/25/2022 8:45:00 PM 15.23 59.414 0.054 7.13 2.89 9.57
4/25/2022 9:00:00 PM 15.13 59.234 0.055 7.1 2.75 9.58
4/25/2022 9:15:00 PM 15.04 59.072 0.055 7.1 2.82 9.6
4/25/2022 9:30:00 PM 14.95 58.91 0.055 7.09 2.95 9.63
4/25/2022 9:45:00 PM 14.85 58.73 0.055 7.09 2.9 9.64
4/25/2022 10:00:00 PM 14.74 58.532 0.055 7.08 3.1 9.66
4/25/2022 10:15:00 PM 14.65 58.37 0.055 7.1 2.83 9.68
4/25/2022 10:30:00 PM 14.56 58.208 0.055 7.09 2.98 9.68
4/25/2022 10:45:00 PM 14.48 58.064 0.055 7.08 2.93 9.71
4/25/2022 11:00:00 PM 14.41 57.938 0.055 7.08 2.96 9.74
4/25/2022 11:15:00 PM 14.34 57.812 0.055 7.08 3.21 9.76
4/25/2022 11:30:00 PM 14.26 57.668 0.055 7.08 2.97 9.78
4/25/2022 11:45:00 PM 14.19 57.542 0.055 7.07 3.05 9.8
4/26/2022 12:00:00 AM 14.13 57.434 0.055 7.06 3.24 9.82
4/26/2022 12:15:00 AM 14.06 57.308 0.055 7.07 3.16 9.83
4/26/2022 12:30:00 AM 14 57.2 0.055 7.07 3.04 9.84
4/26/2022 12:45:00 AM 13.94 57.092 0.055 7.07 3.14 9.84
4/26/2022 1:00:00 AM 13.88 56.984 0.055 7.07 3.26 9.85
4/26/2022 1:15:00 AM 13.82 56.876 0.055 7.06 3.21 9.87
4/26/2022 1:30:00 AM 13.76 56.768 0.055 7.06 3.08 9.89
4/26/2022 1:45:00 AM 13.7 56.66 0.055 7.07 3.06 9.9
4/26/2022 2:00:00 AM 13.63 56.534 0.055 7.06 3.03 9.92
4/26/2022 2:15:00 AM 13.57 56.426 0.055 7.05 3.2 9.94
4/26/2022 2:30:00 AM 13.51 56.318 0.055 7.07 3.1 9.95
4/26/2022 2:45:00 AM 13.45 56.21 0.055 7.06 3.09 9.96
4/26/2022 3:00:00 AM 13.39 56.102 0.055 7.06 3.12 9.98
4/26/2022 3:15:00 AM 13.33 55.994 0.055 7.05 3.19 9.99
4/26/2022 3:30:00 AM 13.27 55.886 0.056 7.05 3.2 10
4/26/2022 3:45:00 AM 13.21 55.778 0.056 7.05 3.3 10.01
4/26/2022 4:00:00 AM 13.16 55.688 0.056 7.05 3.1 10.01
4/26/2022 4:15:00 AM 13.1 55.58 0.056 7.04 3.21 10.04
4/26/2022 4:30:00 AM 13.04 55.472 0.056 7.05 3.21 10.06
4/26/2022 4:45:00 AM 12.98 55.364 0.056 7.05 3.22 10.08
4/26/2022 5:00:00 AM 12.92 55.256 0.056 7.05 3.24 10.1
4/26/2022 5:15:00 AM 12.86 55.148 0.056 7.05 3.25 10.12
4/26/2022 5:30:00 AM 12.8 55.04 0.056 7.05 3.2 10.13
4/26/2022 5:45:00 AM 12.73 54.914 0.056 7.06 3.38 10.14
4/26/2022 6:00:00 AM 12.67 54.806 0.056 7.06 3.14 10.17
4/26/2022 6:15:00 AM 12.6 54.68 0.056 7.05 3.24 10.17
4/26/2022 6:30:00 AM 12.54 54.572 0.056 7.06 3.06 10.2
4/26/2022 6:45:00 AM 12.48 54.464 0.056 7.07 3.08 10.23
4/26/2022 7:00:00 AM 12.42 54.356 0.056 7.08 2.95 10.27
4/26/2022 7:15:00 AM 12.37 54.266 0.056 7.09 3.01 10.33
4/26/2022 7:30:00 AM 12.32 54.176 0.056 7.11 3.03 10.4
4/26/2022 7:45:00 AM 12.28 54.104 0.056 7.12 2.89 10.47
4/26/2022 8:00:00 AM 12.24 54.032 0.056 7.15 2.86 10.53
4/26/2022 8:15:00 AM 12.21 53.978 0.056 7.17 2.86 10.59
4/26/2022 8:30:00 AM 12.18 53.924 0.056 7.19 2.77 10.64
4/26/2022 8:45:00 AM 12.16 53.888 0.056 7.21 2.8 10.69
4/26/2022 9:00:00 AM 12.14 53.852 0.056 7.23 2.72 10.74
4/26/2022 9:15:00 AM 12.14 53.852 0.056 7.26 2.61 10.81
4/26/2022 9:30:00 AM 12.14 53.852 0.056 7.29 2.65 10.84
4/26/2022 9:45:00 AM 12.15 53.87 0.056 7.31 2.53 10.87
4/26/2022 10:00:00 AM 12.15 53.87 0.056 7.33 2.56 10.9
4/26/2022 10:15:00 AM 12.17 53.906 0.056 7.36 2.7 10.93
4/26/2022 10:30:00 AM 12.16 53.888 0.056 7.37 2.53 10.94
4/26/2022 10:45:00 AM 12.17 53.906 0.056 7.39 2.52 10.95
4/26/2022 11:00:00 AM 12.18 53.924 0.056 7.39 2.67 10.96
4/26/2022 11:15:00 AM 12.22 53.996 0.056 7.42 2.48 10.99
4/26/2022 11:30:00 AM 12.24 54.032 0.056 7.44 2.48 11
4/26/2022 11:45:00 AM 12.28 54.104 0.056 7.45 2.52 11.01
4/26/2022 12:00:00 PM 12.32 54.176 0.056 7.47 2.49 11.01
4/26/2022 12:15:00 PM 12.35 54.23 0.056 7.48 2.42 11
4/26/2022 12:30:00 PM 12.36 54.248 0.056 7.49 2.45 10.99
4/26/2022 12:45:00 PM 12.35 54.23 0.056 7.48 2.49 10.98
4/26/2022 1:00:00 PM 12.32 54.176 0.056 7.46 2.48 10.96
4/26/2022 1:15:00 PM 12.31 54.158 0.056 7.47 2.38 10.93
4/26/2022 1:30:00 PM 12.33 54.194 0.056 7.47 2.4 10.95
4/26/2022 1:45:00 PM 12.32 54.176 0.056 7.45 2.31 10.9
4/26/2022 2:00:00 PM 12.34 54.212 0.056 7.46 2.4 10.92
4/26/2022 2:15:00 PM 12.34 54.212 0.056 7.47 2.43 10.93
4/26/2022 2:30:00 PM 12.35 54.23 0.056 7.48 2.36 10.92
4/26/2022 2:45:00 PM 12.31 54.158 0.056 7.45 2.37 10.88
4/26/2022 3:00:00 PM 12.32 54.176 0.056 7.45 2.37 10.9
4/26/2022 3:15:00 PM 12.3 54.14 0.056 7.47 2.36 10.9
4/26/2022 3:30:00 PM 12.29 54.122 0.056 7.47 2.33 10.92
4/26/2022 3:45:00 PM 12.25 54.05 0.056 7.46 2.3 10.9
4/26/2022 4:00:00 PM 12.22 53.996 0.055 7.45 2.38 10.89
4/26/2022 4:15:00 PM 12.22 53.996 0.055 7.46 2.39 10.93
4/26/2022 4:30:00 PM 12.2 53.96 0.055 7.47 2.34 10.93
4/26/2022 4:45:00 PM 12.2 53.96 0.055 7.49 2.48 10.96
4/26/2022 5:00:00 PM 12.24 54.032 0.055 7.5 2.32 10.96
4/26/2022 5:15:00 PM 12.2 53.96 0.055 7.48 2.44 10.94
4/26/2022 5:30:00 PM 12.17 53.906 0.055 7.47 2.44 10.91
4/26/2022 5:45:00 PM 12.13 53.834 0.055 7.46 2.37 10.92
4/26/2022 6:00:00 PM 12.07 53.726 0.055 7.44 2.47 10.89
4/26/2022 6:15:00 PM 12.01 53.618 0.055 7.42 2.35 10.89
4/26/2022 6:30:00 PM 11.94 53.492 0.055 7.39 2.42 10.86
4/26/2022 6:45:00 PM 11.87 53.366 0.055 7.37 2.42 10.82
4/26/2022 7:00:00 PM 11.8 53.24 0.055 7.34 2.52 10.79
4/26/2022 7:15:00 PM 11.73 53.114 0.056 7.29 2.45 10.75
4/26/2022 7:30:00 PM 11.66 52.988 0.056 7.27 2.44 10.73
4/26/2022 7:45:00 PM 11.58 52.844 0.056 7.24 2.34 10.7
4/26/2022 8:00:00 PM 11.5 52.7 0.056 7.21 2.42 10.66
4/26/2022 8:15:00 PM 11.42 52.556 0.056 7.18 2.51 10.63
4/26/2022 8:30:00 PM 11.34 52.412 0.056 7.17 2.58 10.61
4/26/2022 8:45:00 PM 11.24 52.232 0.056 7.15 2.6 10.59
4/26/2022 9:00:00 PM 11.15 52.07 0.056 7.13 2.51 10.59
4/26/2022 9:15:00 PM 11.07 51.926 0.056 7.13 2.69 10.6
4/26/2022 9:30:00 PM 10.97 51.746 0.056 7.11 2.69 10.61
4/26/2022 9:45:00 PM 10.89 51.602 0.056 7.1 2.67 10.64
4/26/2022 10:00:00 PM 10.8 51.44 0.056 7.1 2.7 10.65
4/26/2022 10:15:00 PM 10.72 51.296 0.056 7.11 2.7 10.66
4/26/2022 10:30:00 PM 10.64 51.152 0.056 7.09 2.71 10.68
4/26/2022 10:45:00 PM 10.56 51.008 0.056 7.1 2.76 10.7
4/26/2022 11:00:00 PM 10.47 50.846 0.057 7.08 2.74 10.73
4/26/2022 11:15:00 PM 10.38 50.684 0.057 7.09 2.67 10.76
4/26/2022 11:30:00 PM 10.3 50.54 0.057 7.08 2.68 10.78
4/26/2022 11:45:00 PM 10.22 50.396 0.057 7.08 2.84 10.8
4/27/2022 12:00:00 AM 10.14 50.252 0.057 7.08 2.69 10.81
4/27/2022 12:15:00 AM 10.06 50.108 0.057 7.07 2.77 10.83
4/27/2022 12:30:00 AM 9.99 49.982 0.057 7.07 2.72 10.85
4/27/2022 12:45:00 AM 9.89 49.802 0.057 7.08 2.69 10.88
4/27/2022 1:00:00 AM 9.82 49.676 0.057 7.07 2.64 10.91
4/27/2022 1:15:00 AM 9.73 49.514 0.057 7.07 2.63 10.93
4/27/2022 1:30:00 AM 9.64 49.352 0.057 7.07 2.86 10.96
4/27/2022 1:45:00 AM 9.57 49.226 0.057 7.07 2.6 10.97
4/27/2022 2:00:00 AM 9.48 49.064 0.057 7.07 2.58 10.99
4/27/2022 2:15:00 AM 9.41 48.938 0.057 7.06 2.73 11.01
4/27/2022 2:30:00 AM 9.34 48.812 0.057 7.08 2.58 11.03
4/27/2022 2:45:00 AM 9.26 48.668 0.057 7.08 2.69 11.06
4/27/2022 3:00:00 AM 9.18 48.524 0.057 7.05 2.6 11.08
4/27/2022 3:15:00 AM 9.1 48.38 0.057 7.06 2.66 11.11
4/27/2022 3:30:00 AM 9.03 48.254 0.057 7.07 2.61 11.13
4/27/2022 3:45:00 AM 8.94 48.092 0.057 7.07 2.6 11.15
4/27/2022 4:00:00 AM 8.85 47.93 0.057 7.07 2.57 11.17
4/27/2022 4:15:00 AM 8.79 47.822 0.057 7.06 2.55 11.18
4/27/2022 4:30:00 AM 8.73 47.714 0.057 7.06 2.61 11.19
4/27/2022 4:45:00 AM 8.61 47.498 0.057 7.06 2.58 11.22
4/27/2022 5:00:00 AM 8.57 47.426 0.057 7.06 2.64 11.24
4/27/2022 5:15:00 AM 8.52 47.336 0.057 7.07 2.48 11.26
4/27/2022 5:30:00 AM 8.46 47.228 0.057 7.06 2.5 11.29
4/27/2022 5:45:00 AM 8.42 47.156 0.057 7.06 2.42 11.31
4/27/2022 6:00:00 AM 8.37 47.066 0.057 7.07 2.44 11.32
4/27/2022 6:15:00 AM 8.31 46.958 0.057 7.06 2.53 11.35
4/27/2022 6:30:00 AM 8.25 46.85 0.057 7.08 2.48 11.38
4/27/2022 6:45:00 AM 8.19 46.742 0.057 7.08 2.44 11.42
4/27/2022 7:00:00 AM 8.12 46.616 0.057 7.09 2.35 11.48
4/27/2022 7:15:00 AM 8.05 46.49 0.057 7.1 2.3 11.51
4/27/2022 7:30:00 AM 7.99 46.382 0.057 7.11 2.25 11.55
4/27/2022 7:45:00 AM 7.93 46.274 0.057 7.12 2.32 11.6
4/27/2022 8:00:00 AM 7.87 46.166 0.057 7.13 2.27 11.65
4/27/2022 8:15:00 AM 7.83 46.094 0.057 7.15 2.18 11.7
4/27/2022 8:30:00 AM 7.79 46.022 0.057 7.15 2.19 11.73
4/27/2022 8:45:00 AM 7.77 45.986 0.057 7.18 2.25 11.84
4/27/2022 9:00:00 AM 7.75 45.95 0.057 7.2 2.11 11.91
4/27/2022 9:15:00 AM 7.72 45.896 0.057 7.22 2.11 11.96
4/27/2022 9:30:00 AM 7.79 46.022 0.057 7.26 2.14 12.03
4/27/2022 9:45:00 AM 7.88 46.184 0.057 7.27 2.15 12.06
4/27/2022 10:00:00 AM 7.93 46.274 0.057 7.3 2.12 12.07
4/27/2022 10:15:00 AM 7.93 46.274 0.057 7.31 2.04 12.05
4/27/2022 10:30:00 AM 7.9 46.22 0.057 7.32 1.98 12.05
4/27/2022 10:45:00 AM 8.03 46.454 0.057 7.33 2.02 12.06
4/27/2022 11:00:00 AM 8.03 46.454 0.057 7.33 2.01 12.06
4/27/2022 11:15:00 AM 8.14 46.652 0.057 7.36 2 12.06
4/27/2022 11:30:00 AM 8.15 46.67 0.056 7.37 2.01 12.07
4/27/2022 11:45:00 AM 8.18 46.724 0.056 7.37 2.04 12.07
4/27/2022 12:00:00 PM 8.17 46.706 0.056 7.36 1.9 12.04
4/27/2022 12:15:00 PM 8.15 46.67 0.056 7.37 2 12.04
4/27/2022 12:30:00 PM 8.17 46.706 0.056 7.38 1.96 12.06
4/27/2022 12:45:00 PM 8.17 46.706 0.056 7.38 1.98 12.06
4/27/2022 1:00:00 PM 8.1 46.58 0.056 7.37 1.95 12.03
4/27/2022 1:15:00 PM 8.13 46.634 0.056 7.38 1.91 12.05
4/27/2022 1:30:00 PM 8.2 46.76 0.056 7.39 1.94 12.06
4/27/2022 1:45:00 PM 8.23 46.814 0.056 7.39 1.93 12.05
4/27/2022 2:00:00 PM 8.26 46.868 0.056 7.41 1.94 12.05
4/27/2022 2:15:00 PM 8.26 46.868 0.056 7.39 1.98 12.03
4/27/2022 2:30:00 PM 8.22 46.796 0.056 7.39 1.9 12.01
4/27/2022 2:45:00 PM 8.21 46.778 0.056 7.38 1.9 12
4/27/2022 3:00:00 PM 8.18 46.724 0.056 7.37 1.93 12
4/27/2022 3:15:00 PM 8.23 46.814 0.056 7.41 1.89 12.02
4/27/2022 3:30:00 PM 8.29 46.922 0.056 7.4 1.93 12.01
4/27/2022 3:45:00 PM 8.2 46.76 0.056 7.37 1.93 11.98
4/27/2022 4:00:00 PM 8.24 46.832 0.056 7.38 1.88 12.01
4/27/2022 4:15:00 PM 8.19 46.742 0.056 7.37 1.93 11.99
4/27/2022 4:30:00 PM 8.16 46.688 0.056 7.36 1.98 11.97
4/27/2022 4:45:00 PM 8.11 46.598 0.056 7.35 1.93 11.96
4/27/2022 5:00:00 PM 8.07 46.526 0.056 7.35 1.97 11.98
4/27/2022 5:15:00 PM 8.05 46.49 0.056 7.35 1.94 11.99
4/27/2022 5:30:00 PM 8 46.4 0.056 7.34 1.93 11.97
4/27/2022 5:45:00 PM 7.98 46.364 0.056 7.34 1.99 12
4/27/2022 6:00:00 PM 7.92 46.256 0.056 7.33 1.93 11.97
4/27/2022 6:15:00 PM 7.85 46.13 0.056 7.3 1.95 11.96
4/27/2022 6:30:00 PM 7.8 46.04 0.056 7.29 1.94 11.96
4/27/2022 6:45:00 PM 7.72 45.896 0.056 7.28 2.01 11.91
4/27/2022 7:00:00 PM 7.65 45.77 0.056 7.25 1.95 11.9
4/27/2022 7:15:00 PM 7.56 45.608 0.056 7.22 1.95 11.85
4/27/2022 7:30:00 PM 7.49 45.482 0.056 7.19 1.93 11.82
4/27/2022 7:45:00 PM 7.4 45.32 0.056 7.18 1.92 11.8
4/27/2022 8:00:00 PM 7.31 45.158 0.057 7.14 2.02 11.79
4/27/2022 8:15:00 PM 7.24 45.032 0.057 7.13 2.06 11.78
4/27/2022 8:30:00 PM 7.16 44.888 0.057 7.12 2.03 11.78
4/27/2022 8:45:00 PM 7.08 44.744 0.057 7.11 2.06 11.78
4/27/2022 9:00:00 PM 7 44.6 0.057 7.11 2.03 11.79
4/27/2022 9:15:00 PM 6.92 44.456 0.057 7.1 2.07 11.8
4/27/2022 9:30:00 PM 6.86 44.348 0.057 7.08 2.02 11.81
4/27/2022 9:45:00 PM 6.79 44.222 0.057 7.08 2.08 11.83
4/27/2022 10:00:00 PM 6.71 44.078 0.057 7.08 2.08 11.86
4/27/2022 10:15:00 PM 6.64 43.952 0.057 7.07 2.14 11.88
4/27/2022 10:30:00 PM 6.57 43.826 0.057 7.05 2.15 11.9
4/27/2022 10:45:00 PM 6.51 43.718 0.057 7.07 2.14 11.92
4/27/2022 11:00:00 PM 6.44 43.592 0.057 7.06 2.09 11.94
4/27/2022 11:15:00 PM 6.39 43.502 0.057 7.06 2.16 11.96
4/27/2022 11:30:00 PM 6.32 43.376 0.057 7.06 2.12 11.97
4/27/2022 11:45:00 PM 6.26 43.268 0.057 7.07 2.12 11.99
4/28/2022 12:00:00 AM 6.21 43.178 0.057 7.05 2.08 12.01
4/28/2022 12:15:00 AM 6.14 43.052 0.057 7.06 2.1 12.03
4/28/2022 12:30:00 AM 6.09 42.962 0.057 7.06 2.09 12.06
4/28/2022 12:45:00 AM 6.03 42.854 0.057 7.06 2.02 12.09
4/28/2022 1:00:00 AM 5.97 42.746 0.057 7.07 2.04 12.1
4/28/2022 1:15:00 AM 5.91 42.638 0.057 7.04 2.08 12.12
4/28/2022 1:30:00 AM 5.86 42.548 0.057 7.05 1.99 12.14
4/28/2022 1:45:00 AM 5.81 42.458 0.058 7.06 1.99 12.16
4/28/2022 2:00:00 AM 5.76 42.368 0.058 7.03 2.05 12.17
4/28/2022 2:15:00 AM 5.71 42.278 0.058 7.06 1.95 12.19
4/28/2022 2:30:00 AM 5.67 42.206 0.058 7.05 2.04 12.2
4/28/2022 2:45:00 AM 5.63 42.134 0.058 7.05 2.03 12.2
4/28/2022 3:00:00 AM 5.59 42.062 0.058 7.06 2.01 12.22
4/28/2022 3:15:00 AM 5.55 41.99 0.058 7.05 1.97 12.24
4/28/2022 3:30:00 AM 5.51 41.918 0.058 7.06 1.93 12.25
4/28/2022 3:45:00 AM 5.47 41.846 0.058 7.05 1.97 12.26
4/28/2022 4:00:00 AM 5.44 41.792 0.058 7.05 1.94 12.28
4/28/2022 4:15:00 AM 5.4 41.72 0.058 7.06 1.96 12.29
4/28/2022 4:30:00 AM 5.37 41.666 0.058 7.05 1.97 12.3
4/28/2022 4:45:00 AM 5.34 41.612 0.058 7.07 1.94 12.33
4/28/2022 5:00:00 AM 5.3 41.54 0.058 7.06 1.98 12.33
4/28/2022 5:15:00 AM 5.27 41.486 0.058 7.05 1.92 12.34
4/28/2022 5:30:00 AM 5.24 41.432 0.058 7.06 1.99 12.36
4/28/2022 5:45:00 AM 5.2 41.36 0.058 7.07 1.91 12.37
4/28/2022 6:00:00 AM 5.16 41.288 0.058 7.05 1.89 12.39
4/28/2022 6:15:00 AM 5.14 41.252 0.058 7.07 1.93 12.39
4/28/2022 6:30:00 AM 5.11 41.198 0.058 7.05 1.89 12.42
4/28/2022 6:45:00 AM 5.08 41.144 0.058 7.07 1.79 12.46
4/28/2022 7:00:00 AM 5.05 41.09 0.058 7.09 1.86 12.55
4/28/2022 7:15:00 AM 5.03 41.054 0.058 7.11 1.81 12.63
4/28/2022 7:30:00 AM 5.02 41.036 0.058 7.14 1.83 12.71
4/28/2022 7:45:00 AM 5 41 0.058 7.15 1.78 12.76
4/28/2022 8:00:00 AM 5 41 0.058 7.19 1.8 12.82
4/28/2022 8:15:00 AM 5.03 41.054 0.058 7.18 1.74 12.86
4/28/2022 8:30:00 AM 5.07 41.126 0.057 7.22 1.73 12.91
4/28/2022 8:45:00 AM 5.11 41.198 0.057 7.23 1.75 12.92
4/28/2022 9:00:00 AM 5.17 41.306 0.057 7.24 1.7 12.94
4/28/2022 9:15:00 AM 5.24 41.432 0.057 7.25 1.74 12.95
4/28/2022 9:30:00 AM 5.3 41.54 0.057 7.26 1.71 12.95
4/28/2022 9:45:00 AM 5.39 41.702 0.057 7.27 1.69 12.94
4/28/2022 10:00:00 AM 5.51 41.918 0.057 7.28 1.72 12.92
4/28/2022 10:15:00 AM 5.66 42.188 0.057 7.28 1.67 12.89
4/28/2022 10:30:00 AM 5.87 42.566 0.057 7.3 1.64 12.86
4/28/2022 10:45:00 AM 6.09 42.962 0.057 7.29 1.66 12.81
4/28/2022 11:00:00 AM 6.34 43.412 0.057 7.31 1.64 12.75
4/28/2022 11:15:00 AM 6.57 43.826 0.057 7.32 1.63 12.7
4/28/2022 11:30:00 AM 6.83 44.294 0.057 7.32 1.62 12.61
4/28/2022 11:45:00 AM 7.11 44.798 0.057 7.32 1.59 12.56
4/28/2022 12:00:00 PM 7.38 45.284 0.057 7.33 1.61 12.48
4/28/2022 12:15:00 PM 7.67 45.806 0.057 7.34 1.62 12.43
4/28/2022 12:30:00 PM 7.96 46.328 0.057 7.34 1.55 12.34
4/28/2022 12:45:00 PM 8.27 46.886 0.057 7.33 1.64 12.27
4/28/2022 1:00:00 PM 8.57 47.426 0.057 7.34 1.6 12.2
4/28/2022 1:15:00 PM 8.87 47.966 0.057 7.35 1.63 12.11
4/28/2022 1:30:00 PM 9.17 48.506 0.057 7.37 1.59 12.04
4/28/2022 1:45:00 PM 9.49 49.082 0.057 7.36 1.63 11.95
4/28/2022 2:00:00 PM 9.81 49.658 0.057 7.38 1.61 11.86
4/28/2022 2:15:00 PM 10.11 50.198 0.057 7.39 1.6 11.77
4/28/2022 2:30:00 PM 10.39 50.702 0.057 7.39 1.66 11.69
4/28/2022 2:45:00 PM 10.68 51.224 0.057 7.42 1.61 11.58
4/28/2022 3:00:00 PM 10.96 51.728 0.057 7.42 1.63 11.51
4/28/2022 3:15:00 PM 11.21 52.178 0.057 7.43 1.69 11.43
4/28/2022 3:30:00 PM 11.43 52.574 0.057 7.44 1.62 11.35
4/28/2022 3:45:00 PM 11.63 52.934 0.057 7.45 1.77 11.29
4/28/2022 4:00:00 PM 11.79 53.222 0.057 7.46 1.74 11.22
4/28/2022 4:15:00 PM 11.91 53.438 0.057 7.47 1.61 11.16
4/28/2022 4:30:00 PM 11.98 53.564 0.057 7.47 1.74 11.1
4/28/2022 4:45:00 PM 12.03 53.654 0.057 7.46 1.73 11.07
4/28/2022 5:00:00 PM 12.04 53.672 0.057 7.47 1.77 11.03
4/28/2022 5:15:00 PM 11.98 53.564 0.057 7.46 1.76 11.01
4/28/2022 5:30:00 PM 11.89 53.402 0.057 7.44 1.8 10.98
4/28/2022 5:45:00 PM 11.79 53.222 0.057 7.43 1.79 10.97
4/28/2022 6:00:00 PM 11.67 53.006 0.057 7.4 1.84 10.96
4/28/2022 6:15:00 PM 11.58 52.844 0.057 7.39 1.76 10.95
4/28/2022 6:30:00 PM 11.45 52.61 0.057 7.37 1.87 10.93
4/28/2022 6:45:00 PM 11.3 52.34 0.057 7.34 1.82 10.9
4/28/2022 7:00:00 PM 11.14 52.052 0.057 7.31 1.91 10.92
4/28/2022 7:15:00 PM 10.96 51.728 0.057 7.29 1.86 10.93
4/28/2022 7:30:00 PM 10.77 51.386 0.058 7.26 1.91 10.94
4/28/2022 7:45:00 PM 10.58 51.044 0.058 7.24 1.99 10.94
4/28/2022 8:00:00 PM 10.37 50.666 0.058 7.22 1.97 10.95
4/28/2022 8:15:00 PM 10.16 50.288 0.058 7.19 2.02 10.96
4/28/2022 8:30:00 PM 9.98 49.964 0.058 7.16 1.97 10.96
4/28/2022 8:45:00 PM 9.8 49.64 0.058 7.15 2.02 10.98
4/28/2022 9:00:00 PM 9.62 49.316 0.058 7.14 2.03 11.02
4/28/2022 9:15:00 PM 9.42 48.956 0.058 7.11 2.1 11.05
4/28/2022 9:30:00 PM 9.24 48.632 0.058 7.11 2.05 11.09
4/28/2022 9:45:00 PM 9.05 48.29 0.058 7.09 2.09 11.14
4/28/2022 10:00:00 PM 8.88 47.984 0.058 7.09 2.12 11.18
4/28/2022 10:15:00 PM 8.72 47.696 0.058 7.09 2.12 11.22
4/28/2022 10:30:00 PM 8.57 47.426 0.058 7.08 2.15 11.26
4/28/2022 10:45:00 PM 8.42 47.156 0.058 7.08 2.15 11.31
4/28/2022 11:00:00 PM 8.29 46.922 0.058 7.08 2.21 11.35
4/28/2022 11:15:00 PM 8.15 46.67 0.058 7.08 2.19 11.37
4/28/2022 11:30:00 PM 8.02 46.436 0.058 7.08 2.16 11.42
4/28/2022 11:45:00 PM 7.89 46.202 0.058 7.09 2.12 11.46
4/29/2022 12:00:00 AM 7.76 45.968 0.058 7.07 2.13 11.51
4/29/2022 12:15:00 AM 7.63 45.734 0.058 7.06 2.16 11.55
4/29/2022 12:30:00 AM 7.5 45.5 0.058 7.06 2.1 11.57
4/29/2022 12:45:00 AM 7.38 45.284 0.058 7.06 2.11 11.61
4/29/2022 1:00:00 AM 7.25 45.05 0.059 7.06 2.13 11.65
4/29/2022 1:15:00 AM 7.13 44.834 0.059 7.06 2.06 11.69
4/29/2022 1:30:00 AM 7.01 44.618 0.059 7.06 2.1 11.73
4/29/2022 1:45:00 AM 6.89 44.402 0.059 7.06 2.08 11.76
4/29/2022 2:00:00 AM 6.78 44.204 0.059 7.06 2.1 11.8
4/29/2022 2:15:00 AM 6.67 44.006 0.059 7.07 2.06 11.84
4/29/2022 2:30:00 AM 6.56 43.808 0.059 7.06 2 11.88
4/29/2022 2:45:00 AM 6.45 43.61 0.059 7.06 2.04 11.91
4/29/2022 3:00:00 AM 6.34 43.412 0.059 7.06 2.06 11.94
4/29/2022 3:15:00 AM 6.24 43.232 0.059 7.06 2.02 11.97
4/29/2022 3:30:00 AM 6.13 43.034 0.059 7.06 2.01 12
4/29/2022 3:45:00 AM 6.04 42.872 0.059 7.05 1.99 12.04
4/29/2022 4:00:00 AM 5.94 42.692 0.059 7.05 2.02 12.07
4/29/2022 4:15:00 AM 5.84 42.512 0.059 7.06 2.14 12.11
4/29/2022 4:30:00 AM 5.75 42.35 0.059 7.06 2.08 12.14
4/29/2022 4:45:00 AM 5.65 42.17 0.059 7.03 2.04 12.16
4/29/2022 5:00:00 AM 5.55 41.99 0.059 7.04 1.96 12.19
4/29/2022 5:15:00 AM 5.46 41.828 0.059 7.04 2 12.23
4/29/2022 5:30:00 AM 5.37 41.666 0.059 7.06 1.97 12.26
4/29/2022 5:45:00 AM 5.28 41.504 0.059 7.04 1.98 12.3
4/29/2022 6:00:00 AM 5.18 41.324 0.059 7.05 1.91 12.33
4/29/2022 6:15:00 AM 5.09 41.162 0.06 7.05 1.85 12.36
4/29/2022 6:30:00 AM 5.01 41.018 0.059 7.07 1.87 12.41
4/29/2022 6:45:00 AM 4.93 40.874 0.059 7.07 1.82 12.49
4/29/2022 7:00:00 AM 4.85 40.73 0.059 7.09 1.85 12.57
4/29/2022 7:15:00 AM 4.78 40.604 0.059 7.09 1.83 12.65
4/29/2022 7:30:00 AM 4.73 40.514 0.059 7.11 1.82 12.74
4/29/2022 7:45:00 AM 4.69 40.442 0.059 7.14 1.72 12.82
4/29/2022 8:00:00 AM 4.67 40.406 0.059 7.15 1.75 12.89
4/29/2022 8:15:00 AM 4.68 40.424 0.059 7.18 1.73 12.93
4/29/2022 8:30:00 AM 4.7 40.46 0.059 7.2 1.75 12.99
4/29/2022 8:45:00 AM 4.75 40.55 0.059 7.2 1.67 13.03
4/29/2022 9:00:00 AM 4.8 40.64 0.059 7.22 1.68 13.04
4/29/2022 9:15:00 AM 4.87 40.766 0.059 7.23 1.72 13.06
4/29/2022 9:30:00 AM 4.96 40.928 0.059 7.23 1.66 13.06
4/29/2022 9:45:00 AM 5.07 41.126 0.059 7.26 1.62 13.07
4/29/2022 10:00:00 AM 5.23 41.414 0.059 7.27 1.63 13.06
4/29/2022 10:15:00 AM 5.42 41.756 0.058 7.28 1.62 13.03
4/29/2022 10:30:00 AM 5.64 42.152 0.058 7.3 1.57 12.97
4/29/2022 10:45:00 AM 5.92 42.656 0.058 7.3 1.58 12.93
4/29/2022 11:00:00 AM 6.2 43.16 0.058 7.31 1.59 12.84
4/29/2022 11:15:00 AM 6.49 43.682 0.058 7.33 1.57 12.78
4/29/2022 11:30:00 AM 6.8 44.24 0.058 7.33 1.53 12.69
4/29/2022 11:45:00 AM 7.11 44.798 0.058 7.35 1.54 12.62
4/29/2022 12:00:00 PM 7.44 45.392 0.058 7.35 1.55 12.52
4/29/2022 12:15:00 PM 7.77 45.986 0.058 7.37 1.6 12.46
4/29/2022 12:30:00 PM 8.1 46.58 0.058 7.37 1.52 12.37
4/29/2022 12:45:00 PM 8.44 47.192 0.058 7.37 1.6 12.3
4/29/2022 1:00:00 PM 8.79 47.822 0.058 7.39 1.56 12.2
4/29/2022 1:15:00 PM 9.14 48.452 0.058 7.39 1.51 12.12
4/29/2022 1:30:00 PM 9.48 49.064 0.058 7.41 1.54 12.01
4/29/2022 1:45:00 PM 9.83 49.694 0.058 7.42 1.53 11.93
4/29/2022 2:00:00 PM 10.17 50.306 0.058 7.42 1.52 11.83
4/29/2022 2:15:00 PM 10.5 50.9 0.058 7.44 1.57 11.74
4/29/2022 2:30:00 PM 10.83 51.494 0.058 7.45 1.58 11.65
4/29/2022 2:45:00 PM 11.14 52.052 0.059 7.47 1.57 11.56
4/29/2022 3:00:00 PM 11.45 52.61 0.059 7.48 1.56 11.46
4/29/2022 3:15:00 PM 11.73 53.114 0.059 7.49 1.72 11.37
4/29/2022 3:30:00 PM 11.97 53.546 0.058 7.5 1.62 11.27
4/29/2022 3:45:00 PM 12.2 53.96 0.058 7.51 1.58 11.21
4/29/2022 4:00:00 PM 12.39 54.302 0.058 7.52 1.64 11.14
4/29/2022 4:15:00 PM 12.54 54.572 0.058 7.52 1.59 11.06
4/29/2022 4:30:00 PM 12.64 54.752 0.058 7.53 1.89 11.01
4/29/2022 4:45:00 PM 12.72 54.896 0.058 7.53 1.67 10.96
4/29/2022 5:00:00 PM 12.76 54.968 0.058 7.53 3.82 10.91
4/29/2022 5:15:00 PM 12.74 54.932 0.058 7.52 3.61 10.89
4/29/2022 5:30:00 PM 12.7 54.86 0.058 7.5 1.66 10.84
4/29/2022 5:45:00 PM 12.62 54.716 0.058 7.49 3.11 10.8
4/29/2022 6:00:00 PM 12.53 54.554 0.058 7.46 3.48 10.77
4/29/2022 6:15:00 PM 12.44 54.392 0.058 7.43 3.99 10.74
4/29/2022 6:30:00 PM 12.36 54.248 0.058 7.4 2.76 10.72
4/29/2022 6:45:00 PM 12.24 54.032 0.058 7.36 2.03 10.68
4/29/2022 7:00:00 PM 12.11 53.798 0.058 7.33 2.47 10.67
4/29/2022 7:15:00 PM 11.96 53.528 0.058 7.32 1.95 10.66
4/29/2022 7:30:00 PM 11.8 53.24 0.058 7.3 6.93 10.67
4/29/2022 7:45:00 PM 11.6 52.88 0.058 7.26 1.85 10.67
4/29/2022 8:00:00 PM 11.4 52.52 0.058 7.24 1.8 10.67
4/29/2022 8:15:00 PM 11.19 52.142 0.058 7.21 2.05 10.65
4/29/2022 8:30:00 PM 11 51.8 0.058 7.18 2.28 10.67
4/29/2022 8:45:00 PM 10.82 51.476 0.059 7.18 3.89 10.68
4/29/2022 9:00:00 PM 10.64 51.152 0.059 7.15 1.96 10.69
4/29/2022 9:15:00 PM 10.46 50.828 0.059 7.14 1.95 10.73
4/29/2022 9:30:00 PM 10.27 50.486 0.059 7.12 1.9 10.77
4/29/2022 9:45:00 PM 10.09 50.162 0.059 7.12 1.91 10.81
4/29/2022 10:00:00 PM 9.91 49.838 0.059 7.11 2.01 10.85
4/29/2022 10:15:00 PM 9.75 49.55 0.059 7.11 2.05 10.9
4/29/2022 10:30:00 PM 9.59 49.262 0.059 7.1 1.99 10.94
4/29/2022 10:45:00 PM 9.45 49.01 0.059 7.1 2.06 10.98
4/29/2022 11:00:00 PM 9.3 48.74 0.059 7.09 2.09 11.02
4/29/2022 11:15:00 PM 9.15 48.47 0.059 7.09 2.06 11.07
4/29/2022 11:30:00 PM 9.01 48.218 0.059 7.1 2.04 11.12
4/29/2022 11:45:00 PM 8.87 47.966 0.059 7.09 2.02 11.15
4/30/2022 12:00:00 AM 8.74 47.732 0.059 7.09 2 11.19
4/30/2022 12:15:00 AM 8.6 47.48 0.06 7.08 1.98 11.24
4/30/2022 12:30:00 AM 8.47 47.246 0.06 7.08 1.99 11.28
4/30/2022 12:45:00 AM 8.34 47.012 0.06 7.07 2.06 11.32
4/30/2022 1:00:00 AM 8.21 46.778 0.06 7.08 2 11.35
4/30/2022 1:15:00 AM 8.08 46.544 0.06 7.08 1.97 11.38
4/30/2022 1:30:00 AM 7.96 46.328 0.06 7.06 1.93 11.43
4/30/2022 1:45:00 AM 7.84 46.112 0.06 7.07 1.92 11.47
4/30/2022 2:00:00 AM 7.71 45.878 0.06 7.07 2.09 11.51
4/30/2022 2:15:00 AM 7.59 45.662 0.06 7.08 1.97 11.54
4/30/2022 2:30:00 AM 7.48 45.464 0.06 7.08 2.03 11.57
4/30/2022 2:45:00 AM 7.37 45.266 0.06 7.08 1.92 11.59
4/30/2022 3:00:00 AM 7.26 45.068 0.06 7.07 1.99 11.64
4/30/2022 3:15:00 AM 7.15 44.87 0.06 7.07 1.95 11.67
4/30/2022 3:30:00 AM 7.04 44.672 0.06 7.07 1.94 11.71
4/30/2022 3:45:00 AM 6.93 44.474 0.06 7.07 1.93 11.73
4/30/2022 4:00:00 AM 6.83 44.294 0.06 7.07 1.91 11.77
4/30/2022 4:15:00 AM 6.73 44.114 0.06 7.07 1.93 11.81
4/30/2022 4:30:00 AM 6.63 43.934 0.06 7.07 1.93 11.85
4/30/2022 4:45:00 AM 6.53 43.754 0.061 7.07 1.98 11.88
4/30/2022 5:00:00 AM 6.43 43.574 0.061 7.06 1.88 11.9
4/30/2022 5:15:00 AM 6.33 43.394 0.061 7.07 1.89 11.93
4/30/2022 5:30:00 AM 6.24 43.232 0.061 7.07 1.87 11.96
4/30/2022 5:45:00 AM 6.14 43.052 0.06 7.06 1.82 11.99
4/30/2022 6:00:00 AM 6.05 42.89 0.06 7.08 1.79 12.02
4/30/2022 6:15:00 AM 5.96 42.728 0.06 7.08 1.77 12.07
4/30/2022 6:30:00 AM 5.87 42.566 0.06 7.09 1.86 12.13
4/30/2022 6:45:00 AM 5.79 42.422 0.06 7.1 1.75 12.2
4/30/2022 7:00:00 AM 5.71 42.278 0.06 7.11 1.71 12.27
4/30/2022 7:15:00 AM 5.64 42.152 0.06 7.13 1.73 12.36
4/30/2022 7:30:00 AM 5.58 42.044 0.06 7.13 1.74 12.44
4/30/2022 7:45:00 AM 5.54 41.972 0.06 7.16 1.72 12.52
4/30/2022 8:00:00 AM 5.53 41.954 0.06 7.18 1.68 12.6
4/30/2022 8:15:00 AM 5.54 41.972 0.06 7.2 1.66 12.65
4/30/2022 8:30:00 AM 5.57 42.026 0.06 7.22 1.62 12.7
4/30/2022 8:45:00 AM 5.61 42.098 0.06 7.23 1.71 12.74
4/30/2022 9:00:00 AM 5.67 42.206 0.06 7.25 1.64 12.76
4/30/2022 9:15:00 AM 5.75 42.35 0.06 7.28 1.55 12.8
4/30/2022 9:30:00 AM 5.85 42.53 0.06 7.29 1.61 12.79
4/30/2022 9:45:00 AM 5.97 42.746 0.06 7.29 1.64 12.79
4/30/2022 10:00:00 AM 6.13 43.034 0.06 7.32 1.72 12.77
4/30/2022 10:15:00 AM 6.33 43.394 0.059 7.32 1.6 12.74
4/30/2022 10:30:00 AM 6.57 43.826 0.059 7.34 1.6 12.7
4/30/2022 10:45:00 AM 6.87 44.366 0.059 7.35 1.59 12.62
4/30/2022 11:00:00 AM 7.19 44.942 0.059 7.37 1.51 12.55
4/30/2022 11:15:00 AM 7.49 45.482 0.059 7.39 1.5 12.47
4/30/2022 11:30:00 AM 7.82 46.076 0.059 7.4 1.57 12.42
4/30/2022 11:45:00 AM 8.16 46.688 0.059 7.4 1.67 12.32
4/30/2022 12:00:00 PM 8.49 47.282 0.059 7.42 1.47 12.25
4/30/2022 12:15:00 PM 8.82 47.876 0.059 7.43 1.52 12.16
4/30/2022 12:30:00 PM 9.16 48.488 0.059 7.44 1.49 12.1
4/30/2022 12:45:00 PM 9.5 49.1 0.059 7.44 1.52 12.01
4/30/2022 1:00:00 PM 9.84 49.712 0.059 7.47 1.52 11.93
4/30/2022 1:15:00 PM 10.19 50.342 0.059 7.48 1.48 11.85
4/30/2022 1:30:00 PM 10.57 51.026 0.059 7.49 1.54 11.75
4/30/2022 1:45:00 PM 10.95 51.71 0.059 7.5 1.55 11.67
4/30/2022 2:00:00 PM 11.3 52.34 0.059 7.5 1.52 11.56
4/30/2022 2:15:00 PM 11.64 52.952 0.059 7.51 1.6 11.48
4/30/2022 2:30:00 PM 11.97 53.546 0.059 7.53 1.59 11.38
4/30/2022 2:45:00 PM 12.31 54.158 0.059 7.54 1.56 11.29
4/30/2022 3:00:00 PM 12.64 54.752 0.059 7.57 1.52 11.18
4/30/2022 3:15:00 PM 12.93 55.274 0.059 7.57 1.52 11.1
4/30/2022 3:30:00 PM 13.2 55.76 0.059 7.59 1.59 11.02
4/30/2022 3:45:00 PM 13.42 56.156 0.059 7.61 1.56 10.96
4/30/2022 4:00:00 PM 13.58 56.444 0.059 7.61 1.6 10.87
4/30/2022 4:15:00 PM 13.7 56.66 0.059 7.62 1.54 10.8
4/30/2022 4:30:00 PM 13.8 56.84 0.059 7.62 1.54 10.75
4/30/2022 4:45:00 PM 13.84 56.912 0.059 7.61 1.72 10.7
4/30/2022 5:00:00 PM 13.86 56.948 0.059 7.62 1.59 10.67
4/30/2022 5:15:00 PM 13.88 56.984 0.059 7.63 1.62 10.65
4/30/2022 5:30:00 PM 13.86 56.948 0.059 7.61 1.65 10.63
4/30/2022 5:45:00 PM 13.86 56.948 0.059 7.6 1.65 10.61
4/30/2022 6:00:00 PM 13.82 56.876 0.059 7.58 1.66 10.57
4/30/2022 6:15:00 PM 13.76 56.768 0.059 7.53 1.64 10.53
4/30/2022 6:30:00 PM 13.68 56.624 0.059 7.5 1.66 10.5
4/30/2022 6:45:00 PM 13.59 56.462 0.059 7.46 1.72 10.47
4/30/2022 7:00:00 PM 13.47 56.246 0.059 7.41 1.76 10.43
4/30/2022 7:15:00 PM 13.31 55.958 0.059 7.37 1.77 10.39
4/30/2022 7:30:00 PM 13.14 55.652 0.059 7.34 1.71 10.37
4/30/2022 7:45:00 PM 12.97 55.346 0.059 7.29 1.85 10.35
4/30/2022 8:00:00 PM 12.79 55.022 0.06 7.27 1.81 10.32
4/30/2022 8:15:00 PM 12.6 54.68 0.061 7.23 1.87 10.28
4/30/2022 8:30:00 PM 12.4 54.32 0.061 7.21 1.9 10.28
4/30/2022 8:45:00 PM 12.21 53.978 0.061 7.19 1.98 10.29
4/30/2022 9:00:00 PM 12.02 53.636 0.06 7.16 1.9 10.3
4/30/2022 9:15:00 PM 11.85 53.33 0.06 7.15 1.91 10.31
4/30/2022 9:30:00 PM 11.67 53.006 0.06 7.13 1.97 10.36
4/30/2022 9:45:00 PM 11.5 52.7 0.06 7.12 2.04 10.39
4/30/2022 10:00:00 PM 11.32 52.376 0.06 7.11 2.02 10.42
4/30/2022 10:15:00 PM 11.16 52.088 0.06 7.11 2.02 10.47
4/30/2022 10:30:00 PM 11 51.8 0.06 7.1 2.11 10.51
4/30/2022 10:45:00 PM 10.85 51.53 0.06 7.11 1.99 10.55
4/30/2022 11:00:00 PM 10.7 51.26 0.061 7.11 2.14 10.58
4/30/2022 11:15:00 PM 10.55 50.99 0.061 7.1 2.14 10.61
4/30/2022 11:30:00 PM 10.4 50.72 0.061 7.09 2.02 10.66
4/30/2022 11:45:00 PM 10.26 50.468 0.061 7.11 2.08 10.71
5/1/2022 12:00:00 AM 10.11 50.198 0.061 7.11 2 10.74
5/1/2022 12:15:00 AM 9.97 49.946 0.061 7.09 2.05 10.78
5/1/2022 12:30:00 AM 9.83 49.694 0.061 7.09 2.05 10.83
5/1/2022 12:45:00 AM 9.69 49.442 0.061 7.09 2.06 10.87
5/1/2022 1:00:00 AM 9.56 49.208 0.061 7.09 2.11 10.91
5/1/2022 1:15:00 AM 9.43 48.974 0.061 7.09 2.06 10.94
5/1/2022 1:30:00 AM 9.31 48.758 0.061 7.1 2.05 10.98
5/1/2022 1:45:00 AM 9.18 48.524 0.061 7.1 2.08 11.02
5/1/2022 2:00:00 AM 9.06 48.308 0.061 7.1 1.97 11.06
5/1/2022 2:15:00 AM 8.94 48.092 0.061 7.09 2.12 11.1
5/1/2022 2:30:00 AM 8.82 47.876 0.061 7.09 1.99 11.13
5/1/2022 2:45:00 AM 8.71 47.678 0.061 7.09 2.08 11.16
5/1/2022 3:00:00 AM 8.61 47.498 0.061 7.1 2.05 11.2
5/1/2022 3:15:00 AM 8.51 47.318 0.061 7.09 2.01 11.23
5/1/2022 3:30:00 AM 8.41 47.138 0.061 7.09 1.95 11.26
5/1/2022 3:45:00 AM 8.32 46.976 0.061 7.08 2.01 11.29
5/1/2022 4:00:00 AM 8.23 46.814 0.061 7.09 1.87 11.31
5/1/2022 4:15:00 AM 8.14 46.652 0.061 7.09 1.96 11.33
5/1/2022 4:30:00 AM 8.06 46.508 0.061 7.1 1.96 11.36
5/1/2022 4:45:00 AM 7.99 46.382 0.061 7.09 1.96 11.38
5/1/2022 5:00:00 AM 7.92 46.256 0.061 7.08 1.92 11.42
5/1/2022 5:15:00 AM 7.86 46.148 0.061 7.09 1.95 11.44
5/1/2022 5:30:00 AM 7.79 46.022 0.061 7.08 1.96 11.46
5/1/2022 5:45:00 AM 7.73 45.914 0.061 7.09 1.94 11.48
5/1/2022 6:00:00 AM 7.67 45.806 0.061 7.09 1.9 11.5
5/1/2022 6:15:00 AM 7.61 45.698 0.061 7.11 1.89 11.52
5/1/2022 6:30:00 AM 7.55 45.59 0.061 7.11 1.81 11.57
5/1/2022 6:45:00 AM 7.49 45.482 0.061 7.12 1.8 11.62
5/1/2022 7:00:00 AM 7.45 45.41 0.061 7.14 1.77 11.72
5/1/2022 7:15:00 AM 7.43 45.374 0.061 7.16 1.83 11.81
5/1/2022 7:30:00 AM 7.42 45.356 0.061 7.19 1.74 11.9
5/1/2022 7:45:00 AM 7.42 45.356 0.06 7.21 1.84 11.96
5/1/2022 8:00:00 AM 7.42 45.356 0.06 7.22 1.72 12
5/1/2022 8:15:00 AM 7.42 45.356 0.06 7.24 1.71 12.04
5/1/2022 8:30:00 AM 7.44 45.392 0.06 7.27 1.69 12.08
5/1/2022 8:45:00 AM 7.47 45.446 0.06 7.29 1.7 12.12
5/1/2022 9:00:00 AM 7.54 45.572 0.06 7.31 1.66 12.16
5/1/2022 9:15:00 AM 7.64 45.752 0.06 7.34 1.64 12.2
5/1/2022 9:30:00 AM 7.71 45.878 0.06 7.36 1.58 12.22
5/1/2022 9:45:00 AM 7.78 46.004 0.06 7.37 1.64 12.21
5/1/2022 10:00:00 AM 7.87 46.166 0.061 7.4 1.64 12.2
5/1/2022 10:15:00 AM 7.99 46.382 0.061 7.42 1.6 12.19
5/1/2022 10:30:00 AM 8.11 46.598 0.061 7.45 1.59 12.16
5/1/2022 10:45:00 AM 8.19 46.742 0.061 7.43 1.64 12.1
5/1/2022 11:00:00 AM 8.25 46.85 0.06 7.43 1.61 12.08
5/1/2022 11:15:00 AM 8.32 46.976 0.06 7.45 1.58 12.07
5/1/2022 11:30:00 AM 8.41 47.138 0.06 7.48 1.65 12.06
5/1/2022 11:45:00 AM 8.49 47.282 0.06 7.48 1.58 12.04
5/1/2022 12:00:00 PM 8.49 47.282 0.06 7.46 1.59 11.98
5/1/2022 12:15:00 PM 8.5 47.3 0.06 7.43 1.56 11.93
5/1/2022 12:30:00 PM 8.53 47.354 0.06 7.43 1.58 11.89
5/1/2022 12:45:00 PM 8.55 47.39 0.06 7.41 1.57 11.85
5/1/2022 1:00:00 PM 8.59 47.462 0.06 7.41 1.67 11.83
5/1/2022 1:15:00 PM 8.61 47.498 0.06 7.4 1.58 11.8
5/1/2022 1:30:00 PM 8.64 47.552 0.06 7.4 1.64 11.79
5/1/2022 1:45:00 PM 8.68 47.624 0.059 7.4 1.68 11.78
5/1/2022 2:00:00 PM 8.71 47.678 0.059 7.4 1.7 11.78
5/1/2022 2:15:00 PM 8.79 47.822 0.059 7.43 1.72 11.82
5/1/2022 2:30:00 PM 8.89 48.002 0.059 7.47 1.69 11.86
5/1/2022 2:45:00 PM 8.97 48.146 0.059 7.48 1.69 11.85
5/1/2022 3:00:00 PM 9.01 48.218 0.059 7.48 1.58 11.81
5/1/2022 3:15:00 PM 9.04 48.272 0.059 7.46 1.68 11.77
5/1/2022 3:30:00 PM 9.07 48.326 0.059 7.46 1.64 11.74
5/1/2022 3:45:00 PM 9.1 48.38 0.059 7.43 1.81 11.7
5/1/2022 4:00:00 PM 9.15 48.47 0.059 7.44 1.76 11.71
5/1/2022 4:15:00 PM 9.19 48.542 0.059 7.45 1.76 11.7
5/1/2022 4:30:00 PM 9.19 48.542 0.059 7.42 1.75 11.64
5/1/2022 4:45:00 PM 9.2 48.56 0.059 7.4 1.92 11.6
5/1/2022 5:00:00 PM 9.2 48.56 0.059 7.37 1.78 11.56
5/1/2022 5:15:00 PM 9.21 48.578 0.059 7.38 1.73 11.55
5/1/2022 5:30:00 PM 9.22 48.596 0.059 7.37 1.82 11.54
5/1/2022 5:45:00 PM 9.24 48.632 0.059 7.36 1.79 11.54
5/1/2022 6:00:00 PM 9.25 48.65 0.059 7.37 1.8 11.54
5/1/2022 6:15:00 PM 9.29 48.722 0.059 7.38 1.83 11.56
5/1/2022 6:30:00 PM 9.32 48.776 0.059 7.39 1.85 11.56
5/1/2022 6:45:00 PM 9.32 48.776 0.059 7.36 2.28 11.5
5/1/2022 7:00:00 PM 9.32 48.776 0.059 7.35 2.04 11.45
5/1/2022 7:15:00 PM 9.33 48.794 0.059 7.32 2.18 11.4
5/1/2022 7:30:00 PM 9.33 48.794 0.059 7.28 2.2 11.31
5/1/2022 7:45:00 PM 9.32 48.776 0.059 7.26 2.2 11.25
5/1/2022 8:00:00 PM 9.31 48.758 0.059 7.22 2.15 11.19
5/1/2022 8:15:00 PM 9.3 48.74 0.059 7.2 2.27 11.15
5/1/2022 8:30:00 PM 9.28 48.704 0.059 7.18 2.2 11.12
5/1/2022 8:45:00 PM 9.27 48.686 0.059 7.16 2.12 11.09
5/1/2022 9:00:00 PM 9.26 48.668 0.059 7.15 2.22 11.07
5/1/2022 9:15:00 PM 9.25 48.65 0.059 7.14 2.23 11.06
5/1/2022 9:30:00 PM 9.24 48.632 0.059 7.14 2.2 11.05
5/1/2022 9:45:00 PM 9.22 48.596 0.06 7.13 2.41 11.05
5/1/2022 10:00:00 PM 9.21 48.578 0.06 7.11 2.58 11.05
5/1/2022 10:15:00 PM 9.19 48.542 0.06 7.1 2.76 11.05
5/1/2022 10:30:00 PM 9.18 48.524 0.06 7.12 2.72 11.05
5/1/2022 10:45:00 PM 9.18 48.524 0.06 7.11 2.65 11.05
5/1/2022 11:00:00 PM 9.18 48.524 0.06 7.1 2.62 11.05
5/1/2022 11:15:00 PM 9.18 48.524 0.06 7.11 2.49 11.05
5/1/2022 11:30:00 PM 9.18 48.524 0.06 7.1 2.37 11.05
5/1/2022 11:45:00 PM 9.17 48.506 0.061 7.11 2.3 11.05
5/2/2022 12:00:00 AM 9.16 48.488 0.062 7.11 2.33 11.05
5/2/2022 12:15:00 AM 9.17 48.506 0.061 7.1 2.35 11.06
5/2/2022 12:30:00 AM 9.16 48.488 0.061 7.1 2.2 11.06
5/2/2022 12:45:00 AM 9.15 48.47 0.06 7.09 2.38 11.06
5/2/2022 1:00:00 AM 9.15 48.47 0.06 7.09 2.38 11.06
5/2/2022 1:15:00 AM 9.13 48.434 0.06 7.09 2.28 11.06
5/2/2022 1:30:00 AM 9.12 48.416 0.06 7.09 2.33 11.06
5/2/2022 1:45:00 AM 9.12 48.416 0.06 7.09 2.36 11.06
5/2/2022 2:00:00 AM 9.11 48.398 0.06 7.09 2.28 11.05
5/2/2022 2:15:00 AM 9.11 48.398 0.06 7.08 2.38 11.06
5/2/2022 2:30:00 AM 9.11 48.398 0.06 7.08 2.37 11.06
5/2/2022 2:45:00 AM 9.1 48.38 0.06 7.07 2.41 11.06
5/2/2022 3:00:00 AM 9.1 48.38 0.06 7.08 2.5 11.06
5/2/2022 3:15:00 AM 9.1 48.38 0.061 7.07 2.47 11.06
5/2/2022 3:30:00 AM 9.09 48.362 0.061 7.07 2.5 11.06
5/2/2022 3:45:00 AM 9.09 48.362 0.061 7.07 2.53 11.07
5/2/2022 4:00:00 AM 9.08 48.344 0.061 7.06 2.56 11.07
5/2/2022 4:15:00 AM 9.08 48.344 0.061 7.06 2.73 11.08
5/2/2022 4:30:00 AM 9.07 48.326 0.061 7.07 3.08 11.08
5/2/2022 4:45:00 AM 9.06 48.308 0.061 7.06 3.44 11.08
5/2/2022 5:00:00 AM 9.06 48.308 0.06 7.05 3.63 11.09
5/2/2022 5:15:00 AM 9.05 48.29 0.06 7.06 3.43 11.09
5/2/2022 5:30:00 AM 9.05 48.29 0.06 7.05 3.42 11.09
5/2/2022 5:45:00 AM 9.04 48.272 0.06 7.06 3.23 11.09
5/2/2022 6:00:00 AM 9.04 48.272 0.06 7.06 3.17 11.1
5/2/2022 6:15:00 AM 9.04 48.272 0.06 7.07 3.01 11.1
5/2/2022 6:30:00 AM 9.04 48.272 0.06 7.07 3.1 11.11
5/2/2022 6:45:00 AM 9.04 48.272 0.06 7.07 3.05 11.12
5/2/2022 7:00:00 AM 9.04 48.272 0.06 7.08 3.18 11.18
5/2/2022 7:15:00 AM 9.05 48.29 0.06 7.1 3.15 11.27
5/2/2022 7:30:00 AM 9.06 48.308 0.06 7.13 3.23 11.32
5/2/2022 7:45:00 AM 9.07 48.326 0.06 7.14 3.14 11.35
5/2/2022 8:00:00 AM 9.11 48.398 0.06 7.17 3.08 11.44
5/2/2022 8:15:00 AM 9.14 48.452 0.06 7.2 2.91 11.5
5/2/2022 8:30:00 AM 9.23 48.614 0.06 7.23 2.89 11.56
5/2/2022 8:45:00 AM 9.29 48.722 0.06 7.26 2.87 11.58
5/2/2022 9:00:00 AM 9.42 48.956 0.06 7.3 2.79 11.61
5/2/2022 9:15:00 AM 9.5 49.1 0.061 7.34 2.67 11.62
5/2/2022 9:30:00 AM 9.57 49.226 0.061 7.36 2.72 11.63
5/2/2022 9:45:00 AM 9.6 49.28 0.061 7.37 2.64 11.61
5/2/2022 10:00:00 AM 9.62 49.316 0.061 7.39 2.63 11.59
5/2/2022 10:15:00 AM 9.67 49.406 0.061 7.4 2.6 11.59
5/2/2022 10:30:00 AM 9.67 49.406 0.061 7.36 2.56 11.48
5/2/2022 10:45:00 AM 9.66 49.388 0.061 7.34 2.48 11.43
5/2/2022 11:00:00 AM 9.63 49.334 0.061 7.32 2.43 11.4
5/2/2022 11:15:00 AM 9.63 49.334 0.061 7.35 2.43 11.44
5/2/2022 11:30:00 AM 9.68 49.424 0.061 7.38 2.46 11.52
5/2/2022 11:45:00 AM 9.81 49.658 0.061 7.44 2.38 11.58
5/2/2022 12:00:00 PM 10.08 50.144 0.061 7.47 2.36 11.6
5/2/2022 12:15:00 PM 10.23 50.414 0.061 7.48 2.32 11.58
5/2/2022 12:30:00 PM 10.35 50.63 0.061 7.51 2.33 11.56
5/2/2022 12:45:00 PM 10.52 50.936 0.061 7.53 2.31 11.53
5/2/2022 1:00:00 PM 10.53 50.954 0.061 7.53 2.23 11.5
5/2/2022 1:15:00 PM 10.62 51.116 0.061 7.55 2.28 11.49
5/2/2022 1:30:00 PM 10.87 51.566 0.061 7.58 2.2 11.49
5/2/2022 1:45:00 PM 10.95 51.71 0.061 7.59 2.2 11.47
5/2/2022 2:00:00 PM 11.04 51.872 0.061 7.61 2.15 11.45
5/2/2022 2:15:00 PM 11.1 51.98 0.061 7.61 2.17 11.41
5/2/2022 2:30:00 PM 11.16 52.088 0.061 7.62 2.12 11.39
5/2/2022 2:45:00 PM 11.22 52.196 0.061 7.62 2.19 11.36
5/2/2022 3:00:00 PM 11.33 52.394 0.061 7.66 2.05 11.36
5/2/2022 3:15:00 PM 11.46 52.628 0.061 7.66 2.04 11.36
5/2/2022 3:30:00 PM 11.5 52.7 0.061 7.67 2.06 11.33
5/2/2022 3:45:00 PM 11.59 52.862 0.061 7.67 2.04 11.32
5/2/2022 4:00:00 PM 11.64 52.952 0.061 7.66 2.07 11.28
5/2/2022 4:15:00 PM 11.65 52.97 0.061 7.63 2.04 11.23
5/2/2022 4:30:00 PM 11.69 53.042 0.061 7.63 2.05 11.2
5/2/2022 4:45:00 PM 11.75 53.15 0.061 7.63 2.05 11.18
5/2/2022 5:00:00 PM 11.76 53.168 0.061 7.6 2.01 11.12
5/2/2022 5:15:00 PM 11.77 53.186 0.061 7.57 2.01 11.08
5/2/2022 5:30:00 PM 11.77 53.186 0.061 7.55 2.06 11.05
5/2/2022 5:45:00 PM 11.76 53.168 0.061 7.52 3.4 11.02
5/2/2022 6:00:00 PM 11.75 53.15 0.061 7.5 2.06 11
5/2/2022 6:15:00 PM 11.72 53.096 0.061 7.47 2.01 10.95
5/2/2022 6:30:00 PM 11.7 53.06 0.061 7.43 2.09 10.93
5/2/2022 6:45:00 PM 11.67 53.006 0.061 7.41 2.04 10.9
5/2/2022 7:00:00 PM 11.63 52.934 0.061 7.39 2.07 10.84
5/2/2022 7:15:00 PM 11.59 52.862 0.061 7.34 2.01 10.79
5/2/2022 7:30:00 PM 11.54 52.772 0.061 7.31 2.04 10.73
5/2/2022 7:45:00 PM 11.49 52.682 0.061 7.28 2 10.69
5/2/2022 8:00:00 PM 11.42 52.556 0.061 7.25 2.06 10.66
5/2/2022 8:15:00 PM 11.33 52.394 0.061 7.22 2.11 10.63
5/2/2022 8:30:00 PM 11.23 52.214 0.061 7.2 2.1 10.6
5/2/2022 8:45:00 PM 11.14 52.052 0.061 7.18 2.1 10.58
5/2/2022 9:00:00 PM 11.04 51.872 0.062 7.17 2.21 10.59
5/2/2022 9:15:00 PM 10.95 51.71 0.062 7.16 2.16 10.59
5/2/2022 9:30:00 PM 10.85 51.53 0.062 7.14 2.22 10.6
5/2/2022 9:45:00 PM 10.76 51.368 0.062 7.13 2.23 10.61
5/2/2022 10:00:00 PM 10.66 51.188 0.062 7.12 2.18 10.62
5/2/2022 10:15:00 PM 10.57 51.026 0.062 7.11 2.19 10.65
5/2/2022 10:30:00 PM 10.48 50.864 0.062 7.12 2.18 10.68
5/2/2022 10:45:00 PM 10.39 50.702 0.062 7.11 2.22 10.7
5/2/2022 11:00:00 PM 10.3 50.54 0.062 7.11 2.26 10.73
5/2/2022 11:15:00 PM 10.21 50.378 0.062 7.1 2.23 10.75
5/2/2022 11:30:00 PM 10.12 50.216 0.062 7.1 2.27 10.77
5/2/2022 11:45:00 PM 10.03 50.054 0.062 7.09 2.22 10.79
5/3/2022 12:00:00 AM 9.94 49.892 0.062 7.09 2.27 10.81
5/3/2022 12:15:00 AM 9.85 49.73 0.062 7.1 2.24 10.84
5/3/2022 12:30:00 AM 9.76 49.568 0.062 7.1 2.17 10.87
5/3/2022 12:45:00 AM 9.68 49.424 0.062 7.1 2.28 10.9
5/3/2022 1:00:00 AM 9.59 49.262 0.062 7.09 2.36 10.93
5/3/2022 1:15:00 AM 9.5 49.1 0.062 7.09 2.17 10.95
5/3/2022 1:30:00 AM 9.41 48.938 0.063 7.1 2.16 10.97
5/3/2022 1:45:00 AM 9.33 48.794 0.063 7.08 2.19 11
5/3/2022 2:00:00 AM 9.24 48.632 0.063 7.08 2.18 11.03
5/3/2022 2:15:00 AM 9.16 48.488 0.063 7.08 2.14 11.06
5/3/2022 2:30:00 AM 9.09 48.362 0.063 7.1 2.09 11.08
5/3/2022 2:45:00 AM 9.01 48.218 0.063 7.1 2.19 11.11
5/3/2022 3:00:00 AM 8.93 48.074 0.063 7.08 2.21 11.13
5/3/2022 3:15:00 AM 8.86 47.948 0.063 7.09 2.23 11.15
5/3/2022 3:30:00 AM 8.8 47.84 0.063 7.09 2.17 11.16
5/3/2022 3:45:00 AM 8.74 47.732 0.063 7.09 2.16 11.19
5/3/2022 4:00:00 AM 8.68 47.624 0.063 7.08 2.09 11.21
5/3/2022 4:15:00 AM 8.62 47.516 0.063 7.09 2.1 11.23
5/3/2022 4:30:00 AM 8.56 47.408 0.064 7.08 2.03 11.25
5/3/2022 4:45:00 AM 8.5 47.3 0.064 7.09 2.09 11.28
5/3/2022 5:00:00 AM 8.45 47.21 0.063 7.08 2.03 11.3
5/3/2022 5:15:00 AM 8.4 47.12 0.063 7.09 2.07 11.31
5/3/2022 5:30:00 AM 8.35 47.03 0.063 7.08 2.05 11.33
5/3/2022 5:45:00 AM 8.3 46.94 0.063 7.09 2.04 11.34
5/3/2022 6:00:00 AM 8.26 46.868 0.063 7.09 2.05 11.36
5/3/2022 6:15:00 AM 8.22 46.796 0.063 7.1 1.96 11.37
5/3/2022 6:30:00 AM 8.18 46.724 0.063 7.11 1.92 11.42
5/3/2022 6:45:00 AM 8.14 46.652 0.063 7.12 1.92 11.46
5/3/2022 7:00:00 AM 8.11 46.598 0.062 7.13 1.96 11.54
5/3/2022 7:15:00 AM 8.09 46.562 0.062 7.16 1.91 11.63
5/3/2022 7:30:00 AM 8.08 46.544 0.062 7.19 1.93 11.7
5/3/2022 7:45:00 AM 8.07 46.526 0.062 7.2 1.91 11.79
5/3/2022 8:00:00 AM 8.08 46.544 0.062 7.23 1.84 11.86
5/3/2022 8:15:00 AM 8.09 46.562 0.062 7.28 1.8 11.93
5/3/2022 8:30:00 AM 8.13 46.634 0.062 7.3 1.84 11.99
5/3/2022 8:45:00 AM 8.18 46.724 0.062 7.33 1.75 12.04
5/3/2022 9:00:00 AM 8.24 46.832 0.062 7.37 1.85 12.08
5/3/2022 9:15:00 AM 8.32 46.976 0.061 7.39 1.79 12.1
5/3/2022 9:30:00 AM 8.44 47.192 0.061 7.41 1.78 12.11
5/3/2022 9:45:00 AM 8.54 47.372 0.061 7.44 1.73 12.1
5/3/2022 10:00:00 AM 8.64 47.552 0.061 7.46 1.75 12.09
5/3/2022 10:15:00 AM 8.75 47.75 0.061 7.47 1.74 12.06
5/3/2022 10:30:00 AM 8.9 48.02 0.061 7.5 1.71 12.05
5/3/2022 10:45:00 AM 9.05 48.29 0.061 7.52 1.71 12.02
5/3/2022 11:00:00 AM 9.22 48.596 0.061 7.52 1.73 11.98
5/3/2022 11:15:00 AM 9.43 48.974 0.061 7.56 1.71 11.94
5/3/2022 11:30:00 AM 9.57 49.226 0.061 7.57 1.7 11.91
5/3/2022 11:45:00 AM 9.74 49.532 0.061 7.6 1.69 11.88
5/3/2022 12:00:00 PM 9.96 49.928 0.061 7.61 1.75 11.83
5/3/2022 12:15:00 PM 10.14 50.252 0.061 7.62 1.72 11.78
5/3/2022 12:30:00 PM 10.27 50.486 0.061 7.62 1.71 11.74
5/3/2022 12:45:00 PM 10.43 50.774 0.061 7.64 1.71 11.69
5/3/2022 1:00:00 PM 10.55 50.99 0.061 7.65 1.74 11.63
5/3/2022 1:15:00 PM 10.66 51.188 0.061 7.65 1.7 11.58
5/3/2022 1:30:00 PM 10.72 51.296 0.061 7.64 1.69 11.53
5/3/2022 1:45:00 PM 10.77 51.386 0.061 7.62 1.69 11.49
5/3/2022 2:00:00 PM 10.88 51.584 0.061 7.65 1.72 11.49
5/3/2022 2:15:00 PM 10.98 51.764 0.061 7.66 1.76 11.47
5/3/2022 2:30:00 PM 11.04 51.872 0.06 7.65 1.71 11.43
5/3/2022 2:45:00 PM 11.12 52.016 0.06 7.67 1.72 11.41
5/3/2022 3:00:00 PM 11.18 52.124 0.06 7.66 1.71 11.38
5/3/2022 3:15:00 PM 11.26 52.268 0.06 7.66 1.7 11.35
5/3/2022 3:30:00 PM 11.32 52.376 0.06 7.66 1.68 11.32
5/3/2022 3:45:00 PM 11.38 52.484 0.06 7.67 1.72 11.3
5/3/2022 4:00:00 PM 11.45 52.61 0.06 7.66 1.68 11.28
5/3/2022 4:15:00 PM 11.49 52.682 0.06 7.65 1.8 11.25
5/3/2022 4:30:00 PM 11.53 52.754 0.06 7.65 1.73 11.23
5/3/2022 4:45:00 PM 11.58 52.844 0.06 7.65 1.76 11.22
5/3/2022 5:00:00 PM 11.67 53.006 0.06 7.67 1.79 11.22
5/3/2022 5:15:00 PM 11.74 53.132 0.06 7.66 1.71 11.2
5/3/2022 5:30:00 PM 11.78 53.204 0.06 7.65 1.74 11.15
5/3/2022 5:45:00 PM 11.83 53.294 0.06 7.63 1.76 11.12
5/3/2022 6:00:00 PM 11.89 53.402 0.06 7.64 1.71 11.09
5/3/2022 6:15:00 PM 11.93 53.474 0.06 7.62 1.67 11.05
5/3/2022 6:30:00 PM 11.95 53.51 0.06 7.57 1.77 10.98
5/3/2022 6:45:00 PM 11.95 53.51 0.06 7.52 1.77 10.91
5/3/2022 7:00:00 PM 11.95 53.51 0.06 7.48 1.76 10.86
5/3/2022 7:15:00 PM 11.95 53.51 0.06 7.41 1.78 10.73
5/3/2022 7:30:00 PM 11.92 53.456 0.06 7.35 1.82 10.62
5/3/2022 7:45:00 PM 11.89 53.402 0.06 7.3 1.84 10.53
5/3/2022 8:00:00 PM 11.87 53.366 0.06 7.25 1.95 10.46
5/3/2022 8:15:00 PM 11.82 53.276 0.061 7.22 1.93 10.42
5/3/2022 8:30:00 PM 11.78 53.204 0.061 7.21 2.02 10.39
5/3/2022 8:45:00 PM 11.75 53.15 0.061 7.17 2.15 10.37
5/3/2022 9:00:00 PM 11.72 53.096 0.062 7.17 2.17 10.35
5/3/2022 9:15:00 PM 11.68 53.024 0.063 7.16 2.24 10.34
5/3/2022 9:30:00 PM 11.65 52.97 0.062 7.15 2.22 10.34
5/3/2022 9:45:00 PM 11.61 52.898 0.062 7.13 2.53 10.34
5/3/2022 10:00:00 PM 11.57 52.826 0.062 7.12 2.64 10.34
5/3/2022 10:15:00 PM 11.55 52.79 0.061 7.11 2.8 10.35
5/3/2022 10:30:00 PM 11.54 52.772 0.061 7.11 2.81 10.37
5/3/2022 10:45:00 PM 11.52 52.736 0.061 7.11 2.94 10.37
5/3/2022 11:00:00 PM 11.49 52.682 0.061 7.11 3.11 10.37
5/3/2022 11:15:00 PM 11.45 52.61 0.061 7.13 3.25 10.38
5/3/2022 11:30:00 PM 11.41 52.538 0.061 7.12 3.31 10.38
5/3/2022 11:45:00 PM 11.38 52.484 0.061 7.1 3.4 10.38
5/4/2022 12:00:00 AM 11.34 52.412 0.061 7.09 3.55 10.39
5/4/2022 12:15:00 AM 11.3 52.34 0.062 7.09 3.64 10.4
5/4/2022 12:30:00 AM 11.28 52.304 0.062 7.1 4.15 10.4
5/4/2022 12:45:00 AM 11.25 52.25 0.061 7.08 4.87 10.41
5/4/2022 1:00:00 AM 11.22 52.196 0.061 7.07 5.4 10.42
5/4/2022 1:15:00 AM 11.2 52.16 0.061 7.08 5.2 10.43
5/4/2022 1:30:00 AM 11.18 52.124 0.061 7.07 4.83 10.44
5/4/2022 1:45:00 AM 11.16 52.088 0.061 7.06 4.4 10.44
5/4/2022 2:00:00 AM 11.13 52.034 0.061 7.06 4.28 10.46
5/4/2022 2:15:00 AM 11.1 51.98 0.061 7.07 4.01 10.46
5/4/2022 2:30:00 AM 11.07 51.926 0.061 7.07 4.15 10.48
5/4/2022 2:45:00 AM 11.06 51.908 0.061 7.07 4.3 10.48
5/4/2022 3:00:00 AM 11.04 51.872 0.061 7.07 4.65 10.49
5/4/2022 3:15:00 AM 11.03 51.854 0.061 7.08 4.75 10.5
5/4/2022 3:30:00 AM 11.02 51.836 0.061 7.08 4.52 10.49
5/4/2022 3:45:00 AM 11.02 51.836 0.061 7.07 4.14 10.5
5/4/2022 4:00:00 AM 11.01 51.818 0.061 7.08 3.96 10.51
5/4/2022 4:15:00 AM 11 51.8 0.061 7.08 3.72 10.51
5/4/2022 4:30:00 AM 10.99 51.782 0.061 7.09 3.64 10.51
5/4/2022 4:45:00 AM 10.97 51.746 0.061 7.1 3.51 10.52
5/4/2022 5:00:00 AM 10.96 51.728 0.062 7.09 3.36 10.52
5/4/2022 5:15:00 AM 10.93 51.674 0.062 7.1 3.22 10.53
5/4/2022 5:30:00 AM 10.91 51.638 0.062 7.1 3.28 10.54
5/4/2022 5:45:00 AM 10.89 51.602 0.062 7.09 3.12 10.54
5/4/2022 6:00:00 AM 10.87 51.566 0.062 7.09 3.14 10.55
5/4/2022 6:15:00 AM 10.85 51.53 0.062 7.09 3.1 10.56
5/4/2022 6:30:00 AM 10.83 51.494 0.062 7.08 3.15 10.57
5/4/2022 6:45:00 AM 10.82 51.476 0.062 7.09 3.09 10.58
5/4/2022 7:00:00 AM 10.82 51.476 0.062 7.11 3.01 10.61
5/4/2022 7:15:00 AM 10.81 51.458 0.062 7.11 2.98 10.66
5/4/2022 7:30:00 AM 10.82 51.476 0.062 7.13 2.94 10.72
5/4/2022 7:45:00 AM 10.85 51.53 0.062 7.17 2.96 10.84
5/4/2022 8:00:00 AM 10.86 51.548 0.062 7.2 2.99 10.88
5/4/2022 8:15:00 AM 10.87 51.566 0.062 7.21 2.92 10.91
5/4/2022 8:30:00 AM 10.89 51.602 0.062 7.23 3.05 10.94
5/4/2022 8:45:00 AM 10.91 51.638 0.062 7.25 3 10.96
5/4/2022 9:00:00 AM 10.92 51.656 0.062 7.26 2.93 10.97
5/4/2022 9:15:00 AM 10.92 51.656 0.062 7.26 2.97 10.94
5/4/2022 9:30:00 AM 10.93 51.674 0.062 7.26 3 10.96
5/4/2022 9:45:00 AM 10.94 51.692 0.062 7.28 3.04 11
5/4/2022 10:00:00 AM 10.95 51.71 0.062 7.29 2.93 11.01
5/4/2022 10:15:00 AM 10.98 51.764 0.062 7.32 2.93 11.06
5/4/2022 10:30:00 AM 11.05 51.89 0.062 7.37 2.96 11.13
5/4/2022 10:45:00 AM 11.09 51.962 0.062 7.4 2.95 11.16
5/4/2022 11:00:00 AM 11.21 52.178 0.062 7.44 2.92 11.21
5/4/2022 11:15:00 AM 11.43 52.574 0.062 7.48 2.98 11.23
5/4/2022 11:30:00 AM 11.62 52.916 0.062 7.52 3.13 11.23
5/4/2022 11:45:00 AM 12.02 53.636 0.062 7.54 3.11 11.19
5/4/2022 12:00:00 PM 12.33 54.194 0.062 7.55 3.02 11.15
5/4/2022 12:15:00 PM 12.4 54.32 0.062 7.54 2.93 11.04
5/4/2022 12:30:00 PM 12.49 54.482 0.062 7.51 2.95 10.95
5/4/2022 12:45:00 PM 12.59 54.662 0.062 7.54 2.87 10.94
5/4/2022 1:00:00 PM 12.65 54.77 0.062 7.56 2.87 10.95
5/4/2022 1:15:00 PM 12.62 54.716 0.062 7.55 3.01 10.91
5/4/2022 1:30:00 PM 12.67 54.806 0.062 7.58 2.87 10.94
5/4/2022 1:45:00 PM 12.69 54.842 0.062 7.57 2.79 10.9
5/4/2022 2:00:00 PM 12.74 54.932 0.062 7.56 2.76 10.88
5/4/2022 2:15:00 PM 12.88 55.184 0.062 7.58 2.66 10.87
5/4/2022 2:30:00 PM 13.02 55.436 0.062 7.59 2.7 10.82
5/4/2022 2:45:00 PM 13.11 55.598 0.062 7.58 2.73 10.8
5/4/2022 3:00:00 PM 13.18 55.724 0.062 7.58 2.69 10.76
5/4/2022 3:15:00 PM 13.24 55.832 0.062 7.56 2.75 10.72
5/4/2022 3:30:00 PM 13.28 55.904 0.062 7.56 2.74 10.7
5/4/2022 3:45:00 PM 13.31 55.958 0.062 7.53 2.77 10.65
5/4/2022 4:00:00 PM 13.32 55.976 0.062 7.51 2.63 10.62
5/4/2022 4:15:00 PM 13.33 55.994 0.062 7.51 2.63 10.63
5/4/2022 4:30:00 PM 13.37 56.066 0.063 7.53 2.66 10.66
5/4/2022 4:45:00 PM 13.39 56.102 0.062 7.54 2.65 10.65
5/4/2022 5:00:00 PM 13.43 56.174 0.062 7.54 2.6 10.66
5/4/2022 5:15:00 PM 13.42 56.156 0.062 7.52 2.63 10.61
5/4/2022 5:30:00 PM 13.4 56.12 0.062 7.49 2.71 10.58
5/4/2022 5:45:00 PM 13.37 56.066 0.062 7.46 2.73 10.57
5/4/2022 6:00:00 PM 13.32 55.976 0.062 7.43 2.62 10.51
5/4/2022 6:15:00 PM 13.25 55.85 0.062 7.38 2.62 10.45
5/4/2022 6:30:00 PM 13.17 55.706 0.062 7.37 2.6 10.44
5/4/2022 6:45:00 PM 13.08 55.544 0.062 7.34 2.67 10.44
5/4/2022 7:00:00 PM 12.99 55.382 0.062 7.32 2.72 10.44
5/4/2022 7:15:00 PM 12.9 55.22 0.062 7.3 3.13 10.42
5/4/2022 7:30:00 PM 12.81 55.058 0.062 7.27 2.66 10.39
5/4/2022 7:45:00 PM 12.73 54.914 0.062 7.25 2.61 10.36
5/4/2022 8:00:00 PM 12.64 54.752 0.062 7.23 2.62 10.33
5/4/2022 8:15:00 PM 12.56 54.608 0.062 7.21 2.69 10.31
5/4/2022 8:30:00 PM 12.48 54.464 0.062 7.2 2.75 10.29
5/4/2022 8:45:00 PM 12.4 54.32 0.062 7.17 2.69 10.29
5/4/2022 9:00:00 PM 12.33 54.194 0.062 7.15 2.81 10.29
5/4/2022 9:15:00 PM 12.26 54.068 0.062 7.14 2.91 10.3
5/4/2022 9:30:00 PM 12.2 53.96 0.062 7.13 2.85 10.3
5/4/2022 9:45:00 PM 12.13 53.834 0.062 7.12 2.97 10.31
5/4/2022 10:00:00 PM 12.07 53.726 0.062 7.12 2.85 10.32
5/4/2022 10:15:00 PM 12.01 53.618 0.062 7.11 2.96 10.32
5/4/2022 10:30:00 PM 11.95 53.51 0.062 7.11 3.04 10.33
5/4/2022 10:45:00 PM 11.9 53.42 0.062 7.11 2.89 10.35
5/4/2022 11:00:00 PM 11.84 53.312 0.062 7.11 2.88 10.36
5/4/2022 11:15:00 PM 11.79 53.222 0.062 7.1 2.95 10.39
5/4/2022 11:30:00 PM 11.73 53.114 0.062 7.1 2.81 10.41
5/4/2022 11:45:00 PM 11.68 53.024 0.062 7.09 2.87 10.42
5/5/2022 12:00:00 AM 11.63 52.934 0.062 7.1 2.94 10.43
5/5/2022 12:15:00 AM 11.58 52.844 0.062 7.09 2.89 10.45
5/5/2022 12:30:00 AM 11.53 52.754 0.062 7.1 2.9 10.47
5/5/2022 12:45:00 AM 11.48 52.664 0.062 7.09 2.89 10.48
5/5/2022 1:00:00 AM 11.43 52.574 0.062 7.09 2.91 10.49
5/5/2022 1:15:00 AM 11.37 52.466 0.062 7.08 2.85 10.51
5/5/2022 1:30:00 AM 11.32 52.376 0.062 7.09 2.82 10.51
5/5/2022 1:45:00 AM 11.27 52.286 0.062 7.09 2.88 10.52
5/5/2022 2:00:00 AM 11.2 52.16 0.062 7.08 2.83 10.55
5/5/2022 2:15:00 AM 11.12 52.016 0.062 7.09 2.8 10.57
5/5/2022 2:30:00 AM 11.05 51.89 0.062 7.08 2.85 10.59
5/5/2022 2:45:00 AM 11 51.8 0.062 7.07 2.93 10.61
5/5/2022 3:00:00 AM 10.95 51.71 0.062 7.07 2.84 10.63
5/5/2022 3:15:00 AM 10.88 51.584 0.062 7.07 2.86 10.64
5/5/2022 3:30:00 AM 10.81 51.458 0.062 7.07 2.79 10.66
5/5/2022 3:45:00 AM 10.73 51.314 0.062 7.09 2.84 10.66
5/5/2022 4:00:00 AM 10.66 51.188 0.062 7.08 2.78 10.68
5/5/2022 4:15:00 AM 10.58 51.044 0.062 7.08 2.82 10.7
5/5/2022 4:30:00 AM 10.5 50.9 0.062 7.08 2.85 10.73
5/5/2022 4:45:00 AM 10.42 50.756 0.062 7.08 2.78 10.75
5/5/2022 5:00:00 AM 10.33 50.594 0.062 7.08 2.65 10.78
5/5/2022 5:15:00 AM 10.25 50.45 0.062 7.07 2.78 10.8
5/5/2022 5:30:00 AM 10.17 50.306 0.062 7.08 2.79 10.82
5/5/2022 5:45:00 AM 10.09 50.162 0.062 7.07 2.77 10.83
5/5/2022 6:00:00 AM 10.01 50.018 0.062 7.07 2.81 10.85
5/5/2022 6:15:00 AM 9.97 49.946 0.062 7.07 2.7 10.88
5/5/2022 6:30:00 AM 9.93 49.874 0.062 7.09 2.73 10.93
5/5/2022 6:45:00 AM 9.91 49.838 0.062 7.11 2.62 10.99
5/5/2022 7:00:00 AM 9.89 49.802 0.061 7.13 2.64 11.07
5/5/2022 7:15:00 AM 9.88 49.784 0.061 7.15 2.58 11.16
5/5/2022 7:30:00 AM 9.88 49.784 0.061 7.18 2.55 11.23
5/5/2022 7:45:00 AM 9.88 49.784 0.061 7.21 2.47 11.3
5/5/2022 8:00:00 AM 9.9 49.82 0.061 7.24 2.48 11.38
5/5/2022 8:15:00 AM 9.92 49.856 0.061 7.26 2.43 11.44
5/5/2022 8:30:00 AM 9.94 49.892 0.061 7.3 2.44 11.48
5/5/2022 8:45:00 AM 9.97 49.946 0.06 7.33 2.49 11.51
5/5/2022 9:00:00 AM 10.01 50.018 0.06 7.34 2.37 11.55
5/5/2022 9:15:00 AM 10.05 50.09 0.06 7.4 2.37 11.57
5/5/2022 9:30:00 AM 10.09 50.162 0.06 7.42 2.41 11.59
5/5/2022 9:45:00 AM 10.16 50.288 0.06 7.43 2.37 11.61
5/5/2022 10:00:00 AM 10.25 50.45 0.06 7.45 2.3 11.61
5/5/2022 10:15:00 AM 10.4 50.72 0.06 7.48 2.41 11.6
5/5/2022 10:30:00 AM 10.55 50.99 0.06 7.5 2.36 11.58
5/5/2022 10:45:00 AM 10.69 51.242 0.06 7.52 2.41 11.55
5/5/2022 11:00:00 AM 10.9 51.62 0.06 7.54 2.35 11.54
5/5/2022 11:15:00 AM 11.11 51.998 0.06 7.54 2.37 11.49
5/5/2022 11:30:00 AM 11.32 52.376 0.06 7.57 2.29 11.45
5/5/2022 11:45:00 AM 11.52 52.736 0.059 7.57 2.31 11.42
5/5/2022 12:00:00 PM 11.71 53.078 0.059 7.59 2.32 11.38
5/5/2022 12:15:00 PM 11.91 53.438 0.059 7.6 2.28 11.32
5/5/2022 12:30:00 PM 12.16 53.888 0.059 7.61 2.3 11.3
5/5/2022 12:45:00 PM 12.39 54.302 0.059 7.61 2.36 11.25
5/5/2022 1:00:00 PM 12.64 54.752 0.059 7.64 2.3 11.19
5/5/2022 1:15:00 PM 12.92 55.256 0.059 7.66 2.23 11.14
5/5/2022 1:30:00 PM 13.19 55.742 0.06 7.65 2.35 11.08
5/5/2022 1:45:00 PM 13.47 56.246 0.06 7.66 2.25 11.03
5/5/2022 2:00:00 PM 13.73 56.714 0.06 7.68 2.29 10.95
5/5/2022 2:15:00 PM 14 57.2 0.059 7.68 2.36 10.89
5/5/2022 2:30:00 PM 14.15 57.47 0.059 7.7 2.3 10.82
5/5/2022 2:45:00 PM 14.4 57.92 0.059 7.71 2.39 10.76
5/5/2022 3:00:00 PM 14.64 58.352 0.059 7.73 2.35 10.69
5/5/2022 3:15:00 PM 14.85 58.73 0.058 7.72 2.31 10.63
5/5/2022 3:30:00 PM 15 59 0.058 7.73 2.34 10.57
5/5/2022 3:45:00 PM 15.14 59.252 0.058 7.74 2.35 10.51
5/5/2022 4:00:00 PM 15.24 59.432 0.058 7.74 2.34 10.48
5/5/2022 4:15:00 PM 15.24 59.432 0.058 7.72 2.42 10.44
5/5/2022 4:30:00 PM 15.26 59.468 0.058 7.72 8.38 10.4
5/5/2022 4:45:00 PM 15.31 59.558 0.058 7.72 2.4 10.38
5/5/2022 5:00:00 PM 15.34 59.612 0.058 7.69 2.5 10.35
5/5/2022 5:15:00 PM 15.31 59.558 0.058 7.67 2.32 10.3
5/5/2022 5:30:00 PM 15.27 59.486 0.058 7.63 2.42 10.27
5/5/2022 5:45:00 PM 15.22 59.396 0.058 7.62 2.43 10.26
5/5/2022 6:00:00 PM 15.16 59.288 0.058 7.6 2.48 10.24
5/5/2022 6:15:00 PM 15.07 59.126 0.058 7.56 2.62 10.22
5/5/2022 6:30:00 PM 14.97 58.946 0.058 7.51 2.54 10.2
5/5/2022 6:45:00 PM 14.86 58.748 0.058 7.47 2.61 10.16
5/5/2022 7:00:00 PM 14.74 58.532 0.058 7.41 2.62 10.12
5/5/2022 7:15:00 PM 14.63 58.334 0.058 7.37 2.48 10.07
5/5/2022 7:30:00 PM 14.5 58.1 0.058 7.33 2.92 10.01
5/5/2022 7:45:00 PM 14.37 57.866 0.058 7.28 3 9.98
5/5/2022 8:00:00 PM 14.25 57.65 0.058 7.25 2.64 9.95
5/5/2022 8:15:00 PM 14.14 57.452 0.058 7.2 2.58 9.92
5/5/2022 8:30:00 PM 14.04 57.272 0.058 7.17 2.69 9.89
5/5/2022 8:45:00 PM 13.94 57.092 0.058 7.16 2.81 9.86
5/5/2022 9:00:00 PM 13.84 56.912 0.058 7.14 2.78 9.86
5/5/2022 9:15:00 PM 13.74 56.732 0.058 7.12 2.94 9.87
5/5/2022 9:30:00 PM 13.65 56.57 0.059 7.12 2.78 9.88
5/5/2022 9:45:00 PM 13.56 56.408 0.059 7.09 2.9 9.9
5/5/2022 10:00:00 PM 13.47 56.246 0.059 7.09 2.92 9.91
5/5/2022 10:15:00 PM 13.38 56.084 0.059 7.09 2.85 9.92
5/5/2022 10:30:00 PM 13.29 55.922 0.059 7.08 2.98 9.94
5/5/2022 10:45:00 PM 13.2 55.76 0.059 7.08 2.91 9.96
5/5/2022 11:00:00 PM 13.11 55.598 0.059 7.08 3.02 9.98
5/5/2022 11:15:00 PM 13.02 55.436 0.059 7.07 2.97 10.01
5/5/2022 11:30:00 PM 12.94 55.292 0.059 7.07 3 10.03
5/5/2022 11:45:00 PM 12.87 55.166 0.059 7.06 3.02 10.05
5/6/2022 12:00:00 AM 12.8 55.04 0.059 7.07 2.91 10.06
5/6/2022 12:15:00 AM 12.73 54.914 0.059 7.07 3.03 10.08
5/6/2022 12:30:00 AM 12.66 54.788 0.059 7.06 2.92 10.1
5/6/2022 12:45:00 AM 12.6 54.68 0.059 7.06 2.96 10.11
5/6/2022 1:00:00 AM 12.53 54.554 0.059 7.05 3.06 10.14
5/6/2022 1:15:00 AM 12.47 54.446 0.059 7.05 2.94 10.16
5/6/2022 1:30:00 AM 12.4 54.32 0.059 7.06 3.01 10.17
5/6/2022 1:45:00 AM 12.33 54.194 0.059 7.06 2.95 10.19
5/6/2022 2:00:00 AM 12.25 54.05 0.059 7.06 3.06 10.21
5/6/2022 2:15:00 AM 12.18 53.924 0.059 7.07 3.11 10.23
5/6/2022 2:30:00 AM 12.11 53.798 0.059 7.08 3.08 10.25
5/6/2022 2:45:00 AM 12.04 53.672 0.059 7.07 3 10.27
5/6/2022 3:00:00 AM 11.97 53.546 0.059 7.08 3.16 10.27
5/6/2022 3:15:00 AM 11.9 53.42 0.059 7.08 3.04 10.29
5/6/2022 3:30:00 AM 11.83 53.294 0.058 7.07 3.06 10.31
5/6/2022 3:45:00 AM 11.76 53.168 0.058 7.07 3.11 10.34
5/6/2022 4:00:00 AM 11.69 53.042 0.058 7.09 3.21 10.36
5/6/2022 4:15:00 AM 11.63 52.934 0.058 7.07 3.12 10.37
5/6/2022 4:30:00 AM 11.57 52.826 0.058 7.06 3.15 10.4
5/6/2022 4:45:00 AM 11.51 52.718 0.058 7.07 3.11 10.4
5/6/2022 5:00:00 AM 11.44 52.592 0.058 7.07 3.13 10.43
5/6/2022 5:15:00 AM 11.38 52.484 0.058 7.09 3.21 10.43
5/6/2022 5:30:00 AM 11.33 52.394 0.058 7.08 3.14 10.45
5/6/2022 5:45:00 AM 11.27 52.286 0.058 7.08 3.16 10.45
5/6/2022 6:00:00 AM 11.21 52.178 0.058 7.08 3.17 10.47
5/6/2022 6:15:00 AM 11.16 52.088 0.058 7.07 3.06 10.5
5/6/2022 6:30:00 AM 11.11 51.998 0.058 7.08 3.22 10.52
5/6/2022 6:45:00 AM 11.06 51.908 0.058 7.09 3.05 10.55
5/6/2022 7:00:00 AM 11.01 51.818 0.059 7.09 3.05 10.57
5/6/2022 7:15:00 AM 10.96 51.728 0.059 7.1 3.13 10.61
5/6/2022 7:30:00 AM 10.92 51.656 0.058 7.11 3.21 10.66
5/6/2022 7:45:00 AM 10.88 51.584 0.058 7.12 3.29 10.72
5/6/2022 8:00:00 AM 10.85 51.53 0.058 7.14 3.22 10.77
5/6/2022 8:15:00 AM 10.82 51.476 0.058 7.15 3.4 10.79
5/6/2022 8:30:00 AM 10.79 51.422 0.058 7.16 3.23 10.82
5/6/2022 8:45:00 AM 10.76 51.368 0.058 7.17 3.23 10.83
5/6/2022 9:00:00 AM 10.73 51.314 0.058 7.17 3.17 10.84
5/6/2022 9:15:00 AM 10.7 51.26 0.058 7.18 3.2 10.89
5/6/2022 9:30:00 AM 10.68 51.224 0.057 7.19 3.22 10.92
5/6/2022 9:45:00 AM 10.66 51.188 0.057 7.2 3.28 10.97
5/6/2022 10:00:00 AM 10.65 51.17 0.057 7.24 3.47 11.02
5/6/2022 10:15:00 AM 10.65 51.17 0.057 7.25 3.51 11.08
5/6/2022 10:30:00 AM 10.65 51.17 0.057 7.28 3.86 11.1
5/6/2022 10:45:00 AM 10.66 51.188 0.057 7.31 4 11.14
5/6/2022 11:00:00 AM 10.66 51.188 0.057 7.32 4.15 11.16
5/6/2022 11:15:00 AM 10.67 51.206 0.057 7.33 4.46 11.17
5/6/2022 11:30:00 AM 10.68 51.224 0.057 7.35 4.44 11.18
5/6/2022 11:45:00 AM 10.68 51.224 0.057 7.35 4.67 11.19
5/6/2022 12:00:00 PM 10.69 51.242 0.057 7.37 4.66 11.19
5/6/2022 12:15:00 PM 10.7 51.26 0.057 7.37 4.73 11.2
5/6/2022 12:30:00 PM 10.7 51.26 0.057 7.38 5.21 11.18
5/6/2022 12:45:00 PM 10.7 51.26 0.057 7.36 5.74 11.17
5/6/2022 1:00:00 PM 10.7 51.26 0.057 7.36 6.1 11.15
5/6/2022 1:15:00 PM 10.69 51.242 0.057 7.36 6.94 11.14
5/6/2022 1:30:00 PM 10.69 51.242 0.057 7.36 7.69 11.13
5/6/2022 1:45:00 PM 10.7 51.26 0.057 7.36 7.64 11.15
5/6/2022 2:00:00 PM 10.71 51.278 0.057 7.38 7.66 11.14
5/6/2022 2:15:00 PM 10.71 51.278 0.057 7.38 8.23 11.13
5/6/2022 2:30:00 PM 10.71 51.278 0.057 7.37 8.25 11.12
5/6/2022 2:45:00 PM 10.71 51.278 0.057 7.37 8.16 11.11
5/6/2022 3:00:00 PM 10.7 51.26 0.057 7.35 8.88 11.08
5/6/2022 3:15:00 PM 10.7 51.26 0.057 7.34 8.61 11.07
5/6/2022 3:30:00 PM 10.69 51.242 0.058 7.32 9.45 11.06
5/6/2022 3:45:00 PM 10.69 51.242 0.058 7.31 9.92 11.06
5/6/2022 4:00:00 PM 10.68 51.224 0.058 7.32 10.49 11.04
5/6/2022 4:15:00 PM 10.66 51.188 0.058 7.3 11.28 11.01
5/6/2022 4:30:00 PM 10.65 51.17 0.058 7.29 11.4 11.01
5/6/2022 4:45:00 PM 10.65 51.17 0.058 7.28 12.32 11
5/6/2022 5:00:00 PM 10.64 51.152 0.059 7.28 12.91 10.99
5/6/2022 5:15:00 PM 10.64 51.152 0.059 7.26 13.06 10.97
5/6/2022 5:30:00 PM 10.63 51.134 0.059 7.25 13.76 10.93
5/6/2022 5:45:00 PM 10.64 51.152 0.059 7.24 14.28 10.93
5/6/2022 6:00:00 PM 10.63 51.134 0.059 7.23 14.35 10.92
5/6/2022 6:15:00 PM 10.63 51.134 0.059 7.22 14.6 10.89
5/6/2022 6:30:00 PM 10.62 51.116 0.059 7.21 15.38 10.85
5/6/2022 6:45:00 PM 10.6 51.08 0.06 7.19 15.59 10.82
5/6/2022 7:00:00 PM 10.58 51.044 0.06 7.17 16.49 10.81
5/6/2022 7:15:00 PM 10.56 51.008 0.06 7.15 16.81 10.79
5/6/2022 7:30:00 PM 10.54 50.972 0.06 7.14 17.26 10.77
5/6/2022 7:45:00 PM 10.52 50.936 0.059 7.12 17.44 10.75
5/6/2022 8:00:00 PM 10.49 50.882 0.059 7.12 17.4 10.74
5/6/2022 8:15:00 PM 10.46 50.828 0.059 7.11 17.1 10.73
5/6/2022 8:30:00 PM 10.44 50.792 0.059 7.09 17.27 10.72
5/6/2022 8:45:00 PM 10.41 50.738 0.059 7.09 17.59 10.71
5/6/2022 9:00:00 PM 10.38 50.684 0.059 7.09 17.06 10.71
5/6/2022 9:15:00 PM 10.36 50.648 0.058 7.08 17.08 10.72
5/6/2022 9:30:00 PM 10.33 50.594 0.058 7.06 16.98 10.72
5/6/2022 9:45:00 PM 10.31 50.558 0.059 7.06 16.69 10.73
5/6/2022 10:00:00 PM 10.28 50.504 0.059 7.05 16.45 10.73
5/6/2022 10:15:00 PM 10.26 50.468 0.058 7.05 16.16 10.74
5/6/2022 10:30:00 PM 10.23 50.414 0.058 7.05 15.89 10.74
5/6/2022 10:45:00 PM 10.21 50.378 0.058 7.05 15.88 10.75
5/6/2022 11:00:00 PM 10.18 50.324 0.058 7.05 16.23 10.76
5/6/2022 11:15:00 PM 10.14 50.252 0.058 7.05 16.31 10.77
5/6/2022 11:30:00 PM 10.11 50.198 0.058 7.04 16.22 10.77
5/6/2022 11:45:00 PM 10.08 50.144 0.058 7.03 16.12 10.77
5/7/2022 12:00:00 AM 10.05 50.09 0.058 7.04 16.25 10.78
5/7/2022 12:15:00 AM 10.02 50.036 0.057 7.04 16.54 10.78
5/7/2022 12:30:00 AM 9.99 49.982 0.057 7.04 17.08 10.79
5/7/2022 12:45:00 AM 9.96 49.928 0.057 7.03 17.26 10.8
5/7/2022 1:00:00 AM 9.93 49.874 0.057 7.03 17.8 10.81
5/7/2022 1:15:00 AM 9.9 49.82 0.057 7.03 18.33 10.82
5/7/2022 1:30:00 AM 9.86 49.748 0.057 7.03 18.75 10.83
5/7/2022 1:45:00 AM 9.83 49.694 0.056 7.03 18.71 10.84
5/7/2022 2:00:00 AM 9.8 49.64 0.056 7.02 19.83 10.85
5/7/2022 2:15:00 AM 9.77 49.586 0.056 7.01 21.14 10.85
5/7/2022 2:30:00 AM 9.75 49.55 0.056 7.01 22.04 10.85
5/7/2022 2:45:00 AM 9.72 49.496 0.056 7.01 22.7 10.86
5/7/2022 3:00:00 AM 9.69 49.442 0.056 7.01 24.52 10.87
5/7/2022 3:15:00 AM 9.66 49.388 0.056 7.01 24.23 10.87
5/7/2022 3:30:00 AM 9.64 49.352 0.056 7 23.9 10.88
5/7/2022 3:45:00 AM 9.61 49.298 0.055 7 23.36 10.89
5/7/2022 4:00:00 AM 9.58 49.244 0.055 7 24.84 10.89
5/7/2022 4:15:00 AM 9.56 49.208 0.055 7.01 24.1 10.9
5/7/2022 4:30:00 AM 9.53 49.154 0.055 7 23.48 10.9
5/7/2022 4:45:00 AM 9.51 49.118 0.055 7 24.02 10.91
5/7/2022 5:00:00 AM 9.48 49.064 0.055 7 23.95 10.92
5/7/2022 5:15:00 AM 9.45 49.01 0.055 7 24.15 10.92
5/7/2022 5:30:00 AM 9.43 48.974 0.055 6.98 24.68 10.93
5/7/2022 5:45:00 AM 9.41 48.938 0.054 6.99 24.41 10.93
5/7/2022 6:00:00 AM 9.38 48.884 0.054 6.99 24.01 10.94
5/7/2022 6:15:00 AM 9.36 48.848 0.054 6.99 23.58 10.96
5/7/2022 6:30:00 AM 9.34 48.812 0.054 6.98 24 10.97
5/7/2022 6:45:00 AM 9.31 48.758 0.053 6.99 23.41 10.98
5/7/2022 7:00:00 AM 9.29 48.722 0.053 6.99 23.56 10.99
5/7/2022 7:15:00 AM 9.28 48.704 0.053 6.98 22.82 11
5/7/2022 7:30:00 AM 9.26 48.668 0.053 6.98 22.58 11.02
5/7/2022 7:45:00 AM 9.24 48.632 0.053 6.98 22.5 11.04
5/7/2022 8:00:00 AM 9.23 48.614 0.052 6.99 23 11.05
5/7/2022 8:15:00 AM 9.21 48.578 0.052 6.99 22.17 11.07
5/7/2022 8:30:00 AM 9.2 48.56 0.052 6.99 21.12 11.09
5/7/2022 8:45:00 AM 9.2 48.56 0.052 6.98 21.24 11.11
5/7/2022 9:00:00 AM 9.19 48.542 0.052 7.01 21.78 11.13
5/7/2022 9:15:00 AM 9.19 48.542 0.052 7.01 21.18 11.15
5/7/2022 9:30:00 AM 9.21 48.578 0.052 7.02 20.72 11.18
5/7/2022 9:45:00 AM 9.23 48.614 0.052 7.03 20.42 11.21
5/7/2022 10:00:00 AM 9.25 48.65 0.051 7.04 20.33 11.24
5/7/2022 10:15:00 AM 9.28 48.704 0.051 7.04 21.57 11.26
5/7/2022 10:30:00 AM 9.31 48.758 0.051 7.05 18.61 11.28
5/7/2022 10:45:00 AM 9.33 48.794 0.051 7.05 19.43 11.28
5/7/2022 11:00:00 AM 9.35 48.83 0.051 7.07 18.93 11.3
5/7/2022 11:15:00 AM 9.37 48.866 0.051 7.07 19.14 11.3
5/7/2022 11:30:00 AM 9.39 48.902 0.05 7.08 19.35 11.31
5/7/2022 11:45:00 AM 9.42 48.956 0.05 7.08 18.31 11.32
5/7/2022 12:00:00 PM 9.47 49.046 0.05 7.1 17.65 11.32
5/7/2022 12:15:00 PM 9.52 49.136 0.05 7.09 18.33 11.33
5/7/2022 12:30:00 PM 9.58 49.244 0.05 7.09 15.45 11.34
5/7/2022 12:45:00 PM 9.66 49.388 0.05 7.09 17.53 11.35
5/7/2022 1:00:00 PM 9.74 49.532 0.05 7.1 16.75 11.33
5/7/2022 1:15:00 PM 9.78 49.604 0.05 7.09 16.82 11.31
5/7/2022 1:30:00 PM 9.82 49.676 0.05 7.08 17.12 11.3
5/7/2022 1:45:00 PM 9.88 49.784 0.05 7.1 16.66 11.28
5/7/2022 2:00:00 PM 9.93 49.874 0.049 7.1 16.17 11.26
5/7/2022 2:15:00 PM 9.99 49.982 0.049 7.1 15.75 11.25
5/7/2022 2:30:00 PM 10.09 50.162 0.049 7.09 16.06 11.24
5/7/2022 2:45:00 PM 10.17 50.306 0.049 7.11 15.95 11.24
5/7/2022 3:00:00 PM 10.23 50.414 0.049 7.1 15.57 11.23
5/7/2022 3:15:00 PM 10.28 50.504 0.049 7.1 16.28 11.21
5/7/2022 3:30:00 PM 10.34 50.612 0.049 7.12 15.73 11.19
5/7/2022 3:45:00 PM 10.37 50.666 0.049 7.11 15.16 11.16
5/7/2022 4:00:00 PM 10.41 50.738 0.049 7.11 15.42 11.14
5/7/2022 4:15:00 PM 10.44 50.792 0.048 7.09 15.36 11.13
5/7/2022 4:30:00 PM 10.48 50.864 0.048 7.1 13.7 11.11
5/7/2022 4:45:00 PM 10.53 50.954 0.048 7.1 14.94 11.09
5/7/2022 5:00:00 PM 10.58 51.044 0.048 7.1 14.66 11.07
5/7/2022 5:15:00 PM 10.62 51.116 0.048 7.11 14.71 11.05
5/7/2022 5:30:00 PM 10.65 51.17 0.048 7.1 14.48 11.02
5/7/2022 5:45:00 PM 10.67 51.206 0.048 7.09 14.19 10.99
5/7/2022 6:00:00 PM 10.67 51.206 0.048 7.08 14.33 10.96
5/7/2022 6:15:00 PM 10.68 51.224 0.048 7.07 14 10.94
5/7/2022 6:30:00 PM 10.67 51.206 0.048 7.06 13.98 10.92
5/7/2022 6:45:00 PM 10.67 51.206 0.048 7.05 14.29 10.92
5/7/2022 7:00:00 PM 10.67 51.206 0.048 7.04 13.64 10.92
5/7/2022 7:15:00 PM 10.66 51.188 0.048 7.05 13.36 10.92
5/7/2022 7:30:00 PM 10.64 51.152 0.048 7.04 13.43 10.92
5/7/2022 7:45:00 PM 10.6 51.08 0.048 7.02 13.79 10.9
5/7/2022 8:00:00 PM 10.56 51.008 0.048 7.02 13.19 10.88
5/7/2022 8:15:00 PM 10.5 50.9 0.048 7 13.44 10.87
5/7/2022 8:30:00 PM 10.44 50.792 0.048 6.98 12.95 10.84
5/7/2022 8:45:00 PM 10.37 50.666 0.048 6.98 13.03 10.84
5/7/2022 9:00:00 PM 10.28 50.504 0.048 6.95 13.15 10.84
5/7/2022 9:15:00 PM 10.2 50.36 0.048 6.94 13.54 10.85
5/7/2022 9:30:00 PM 10.11 50.198 0.048 6.94 13.59 10.86
5/7/2022 9:45:00 PM 10.01 50.018 0.048 6.93 12.74 10.88
5/7/2022 10:00:00 PM 9.9 49.82 0.048 6.92 12.76 10.9
5/7/2022 10:15:00 PM 9.79 49.622 0.048 6.91 12.53 10.93
5/7/2022 10:30:00 PM 9.68 49.424 0.048 6.92 12.5 10.96
5/7/2022 10:45:00 PM 9.58 49.244 0.048 6.9 12.13 10.99
5/7/2022 11:00:00 PM 9.47 49.046 0.048 6.9 12.2 11.01
5/7/2022 11:15:00 PM 9.37 48.866 0.048 6.91 12.11 11.04
5/7/2022 11:30:00 PM 9.26 48.668 0.048 6.9 12.43 11.08
5/7/2022 11:45:00 PM 9.15 48.47 0.048 6.9 11.83 11.11
5/8/2022 12:00:00 AM 9.05 48.29 0.048 6.9 11.48 11.14
5/8/2022 12:15:00 AM 8.95 48.11 0.048 6.89 11.92 11.17
5/8/2022 12:30:00 AM 8.85 47.93 0.048 6.9 11.35 11.19
5/8/2022 12:45:00 AM 8.75 47.75 0.048 6.89 11.23 11.21
5/8/2022 1:00:00 AM 8.65 47.57 0.048 6.9 11.34 11.25
5/8/2022 1:15:00 AM 8.56 47.408 0.048 6.9 11.1 11.28
5/8/2022 1:30:00 AM 8.46 47.228 0.048 6.9 10.86 11.31
5/8/2022 1:45:00 AM 8.37 47.066 0.048 6.9 10.64 11.33
5/8/2022 2:00:00 AM 8.28 46.904 0.048 6.89 10.41 11.35
5/8/2022 2:15:00 AM 8.2 46.76 0.048 6.88 10.3 11.38
5/8/2022 2:30:00 AM 8.11 46.598 0.048 6.88 10.48 11.4
5/8/2022 2:45:00 AM 8.03 46.454 0.048 6.9 10.17 11.42
5/8/2022 3:00:00 AM 7.95 46.31 0.048 6.89 10.16 11.45
5/8/2022 3:15:00 AM 7.87 46.166 0.048 6.88 9.77 11.47
5/8/2022 3:30:00 AM 7.8 46.04 0.048 6.89 9.7 11.5
5/8/2022 3:45:00 AM 7.72 45.896 0.049 6.89 9.91 11.52
5/8/2022 4:00:00 AM 7.65 45.77 0.048 6.88 9.7 11.54
5/8/2022 4:15:00 AM 7.57 45.626 0.048 6.88 9.47 11.55
5/8/2022 4:30:00 AM 7.51 45.518 0.048 6.88 9.27 11.57
5/8/2022 4:45:00 AM 7.44 45.392 0.048 6.9 9.53 11.59
5/8/2022 5:00:00 AM 7.38 45.284 0.048 6.89 9.02 11.62
5/8/2022 5:15:00 AM 7.31 45.158 0.048 6.87 9.1 11.64
5/8/2022 5:30:00 AM 7.25 45.05 0.048 6.87 8.88 11.66
5/8/2022 5:45:00 AM 7.18 44.924 0.048 6.89 9.1 11.69
5/8/2022 6:00:00 AM 7.13 44.834 0.048 6.87 8.71 11.7
5/8/2022 6:15:00 AM 7.07 44.726 0.048 6.88 8.6 11.73
5/8/2022 6:30:00 AM 7.02 44.636 0.048 6.88 8.61 11.75
5/8/2022 6:45:00 AM 6.98 44.564 0.048 6.88 8.27 11.8
5/8/2022 7:00:00 AM 6.94 44.492 0.048 6.89 8.09 11.83
5/8/2022 7:15:00 AM 6.9 44.42 0.048 6.92 8.1 11.86
5/8/2022 7:30:00 AM 6.87 44.366 0.048 6.92 7.99 11.91
5/8/2022 7:45:00 AM 6.84 44.312 0.048 6.91 7.95 11.93
5/8/2022 8:00:00 AM 6.81 44.258 0.048 6.92 7.5 11.97
5/8/2022 8:15:00 AM 6.79 44.222 0.048 6.92 7.62 11.99
5/8/2022 8:30:00 AM 6.79 44.222 0.048 6.95 7.39 12.02
5/8/2022 8:45:00 AM 6.8 44.24 0.048 6.93 7.31 12.05
5/8/2022 9:00:00 AM 6.85 44.33 0.048 6.95 7.19 12.07
5/8/2022 9:15:00 AM 6.92 44.456 0.048 6.97 6.92 12.08
5/8/2022 9:30:00 AM 7.01 44.618 0.048 6.98 7.05 12.09
5/8/2022 9:45:00 AM 7.11 44.798 0.048 6.99 6.64 12.1
5/8/2022 10:00:00 AM 7.22 44.996 0.048 6.99 6.7 12.09
5/8/2022 10:15:00 AM 7.35 45.23 0.048 7 6.6 12.08
5/8/2022 10:30:00 AM 7.5 45.5 0.048 7.03 6.14 12.06
5/8/2022 10:45:00 AM 7.67 45.806 0.048 7.04 6.36 12.05
5/8/2022 11:00:00 AM 7.86 46.148 0.048 7.05 6.23 12.01
5/8/2022 11:15:00 AM 8.07 46.526 0.048 7.06 6.11 11.96
5/8/2022 11:30:00 AM 8.29 46.922 0.048 7.04 6 11.92
5/8/2022 11:45:00 AM 8.53 47.354 0.048 7.06 5.88 11.87
5/8/2022 12:00:00 PM 8.78 47.804 0.048 7.09 5.93 11.81
5/8/2022 12:15:00 PM 9.05 48.29 0.048 7.08 6.02 11.76
5/8/2022 12:30:00 PM 9.32 48.776 0.048 7.09 5.91 11.68
5/8/2022 12:45:00 PM 9.61 49.298 0.048 7.1 5.74 11.62
5/8/2022 1:00:00 PM 9.9 49.82 0.048 7.11 5.85 11.55
5/8/2022 1:15:00 PM 10.2 50.36 0.048 7.1 5.8 11.48
5/8/2022 1:30:00 PM 10.49 50.882 0.048 7.12 5.87 11.42
5/8/2022 1:45:00 PM 10.77 51.386 0.048 7.12 6.01 11.33
5/8/2022 2:00:00 PM 11.05 51.89 0.047 7.12 5.98 11.28
5/8/2022 2:15:00 PM 11.31 52.358 0.047 7.13 5.85 11.2
5/8/2022 2:30:00 PM 11.55 52.79 0.047 7.14 5.76 11.15
5/8/2022 2:45:00 PM 11.78 53.204 0.047 7.14 6.1 11.08
5/8/2022 3:00:00 PM 11.99 53.582 0.047 7.14 5.94 11.01
5/8/2022 3:15:00 PM 12.19 53.942 0.047 7.16 5.94 10.97
5/8/2022 3:30:00 PM 12.35 54.23 0.047 7.16 6 10.93
5/8/2022 3:45:00 PM 12.48 54.464 0.047 7.14 5.86 10.87
5/8/2022 4:00:00 PM 12.59 54.662 0.047 7.17 6.08 10.82
5/8/2022 4:15:00 PM 12.65 54.77 0.047 7.17 6.16 10.79
5/8/2022 4:30:00 PM 12.7 54.86 0.048 7.16 5.98 10.76
5/8/2022 4:45:00 PM 12.73 54.914 0.048 7.16 6.21 10.74
5/8/2022 5:00:00 PM 12.74 54.932 0.048 7.15 6.17 10.71
5/8/2022 5:15:00 PM 12.72 54.896 0.048 7.13 6.31 10.68
5/8/2022 5:30:00 PM 12.7 54.86 0.048 7.13 6.19 10.65
5/8/2022 5:45:00 PM 12.66 54.788 0.048 7.12 6.42 10.62
5/8/2022 6:00:00 PM 12.61 54.698 0.048 7.11 6.28 10.6
5/8/2022 6:15:00 PM 12.55 54.59 0.048 7.11 6.48 10.58
5/8/2022 6:30:00 PM 12.47 54.446 0.048 7.1 6.26 10.57
5/8/2022 6:45:00 PM 12.4 54.32 0.048 7.05 6.32 10.55
5/8/2022 7:00:00 PM 12.31 54.158 0.048 7.05 6.57 10.53
5/8/2022 7:15:00 PM 12.21 53.978 0.048 7.04 6.43 10.53
5/8/2022 7:30:00 PM 12.11 53.798 0.048 7.03 6.51 10.53
5/8/2022 7:45:00 PM 12 53.6 0.048 7.02 6.39 10.52
5/8/2022 8:00:00 PM 11.89 53.402 0.049 7 6.49 10.52
5/8/2022 8:15:00 PM 11.78 53.204 0.048 6.97 6.44 10.53
5/8/2022 8:30:00 PM 11.68 53.024 0.048 6.96 6.4 10.52
5/8/2022 8:45:00 PM 11.57 52.826 0.048 6.96 6.63 10.54
5/8/2022 9:00:00 PM 11.46 52.628 0.048 6.94 6.94 10.55
5/8/2022 9:15:00 PM 11.34 52.412 0.048 6.94 6.87 10.56
5/8/2022 9:30:00 PM 11.22 52.196 0.049 6.92 6.82 10.58
5/8/2022 9:45:00 PM 11.09 51.962 0.049 6.93 6.9 10.61
5/8/2022 10:00:00 PM 10.97 51.746 0.049 6.91 6.8 10.65
5/8/2022 10:15:00 PM 10.85 51.53 0.049 6.94 6.96 10.68
5/8/2022 10:30:00 PM 10.72 51.296 0.049 6.9 6.97 10.7
5/8/2022 10:45:00 PM 10.59 51.062 0.049 6.91 7.14 10.74
5/8/2022 11:00:00 PM 10.46 50.828 0.049 6.9 7.04 10.78
5/8/2022 11:15:00 PM 10.32 50.576 0.049 6.89 7.06 10.82
5/8/2022 11:30:00 PM 10.18 50.324 0.049 6.9 6.95 10.86
5/8/2022 11:45:00 PM 10.05 50.09 0.049 6.89 6.68 10.88
5/9/2022 12:00:00 AM 9.91 49.838 0.049 6.89 6.97 10.93
5/9/2022 12:15:00 AM 9.78 49.604 0.049 6.9 6.99 10.97
5/9/2022 12:30:00 AM 9.65 49.37 0.049 6.89 6.84 11.01
5/9/2022 12:45:00 AM 9.52 49.136 0.049 6.92 6.71 11.04
5/9/2022 1:00:00 AM 9.4 48.92 0.049 6.91 6.63 11.06
5/9/2022 1:15:00 AM 9.28 48.704 0.049 6.89 6.77 11.11
5/9/2022 1:30:00 AM 9.16 48.488 0.049 6.9 6.55 11.15
5/9/2022 1:45:00 AM 9.05 48.29 0.049 6.9 6.68 11.18
5/9/2022 2:00:00 AM 8.94 48.092 0.049 6.9 6.49 11.22
5/9/2022 2:15:00 AM 8.83 47.894 0.049 6.89 6.5 11.24
5/9/2022 2:30:00 AM 8.73 47.714 0.049 6.89 6.37 11.27
5/9/2022 2:45:00 AM 8.63 47.534 0.049 6.9 6.37 11.3
5/9/2022 3:00:00 AM 8.53 47.354 0.049 6.9 6.28 11.34
5/9/2022 3:15:00 AM 8.43 47.174 0.049 6.9 6.43 11.37
5/9/2022 3:30:00 AM 8.34 47.012 0.049 6.89 6.25 11.39
5/9/2022 3:45:00 AM 8.24 46.832 0.049 6.88 6.15 11.41
5/9/2022 4:00:00 AM 8.16 46.688 0.049 6.88 6.03 11.43
5/9/2022 4:15:00 AM 8.06 46.508 0.049 6.9 6.1 11.46
5/9/2022 4:30:00 AM 7.98 46.364 0.049 6.9 6.17 11.49
5/9/2022 4:45:00 AM 7.89 46.202 0.049 6.88 5.98 11.52
5/9/2022 5:00:00 AM 7.81 46.058 0.049 6.89 6.18 11.55
5/9/2022 5:15:00 AM 7.73 45.914 0.049 6.9 6.08 11.58
5/9/2022 5:30:00 AM 7.65 45.77 0.049 6.88 6.13 11.6
5/9/2022 5:45:00 AM 7.57 45.626 0.049 6.88 5.94 11.62
5/9/2022 6:00:00 AM 7.49 45.482 0.049 6.89 5.74 11.64
5/9/2022 6:15:00 AM 7.42 45.356 0.049 6.9 5.78 11.67
5/9/2022 6:30:00 AM 7.35 45.23 0.049 6.89 5.81 11.71
5/9/2022 6:45:00 AM 7.28 45.104 0.049 6.89 5.53 11.77
5/9/2022 7:00:00 AM 7.22 44.996 0.049 6.91 5.58 11.8
5/9/2022 7:15:00 AM 7.17 44.906 0.049 6.92 5.44 11.85
5/9/2022 7:30:00 AM 7.13 44.834 0.049 6.94 5.34 11.9
5/9/2022 7:45:00 AM 7.11 44.798 0.049 6.93 5.31 11.95
5/9/2022 8:00:00 AM 7.09 44.762 0.049 6.94 5.18 11.99
5/9/2022 8:15:00 AM 7.07 44.726 0.049 6.97 5.26 12.03
5/9/2022 8:30:00 AM 7.07 44.726 0.049 6.98 5.24 12.06
5/9/2022 8:45:00 AM 7.08 44.744 0.049 6.99 5.03 12.09
5/9/2022 9:00:00 AM 7.12 44.816 0.049 6.98 4.93 12.11
5/9/2022 9:15:00 AM 7.19 44.942 0.049 7 4.78 12.13
5/9/2022 9:30:00 AM 7.29 45.122 0.049 7.01 4.79 12.14
5/9/2022 9:45:00 AM 7.41 45.338 0.049 7.02 4.54 12.13
5/9/2022 10:00:00 AM 7.55 45.59 0.049 7.04 4.59 12.12
5/9/2022 10:15:00 AM 7.7 45.86 0.049 7.06 4.63 12.13
5/9/2022 10:30:00 AM 7.86 46.148 0.049 7.05 4.58 12.11
5/9/2022 10:45:00 AM 8.04 46.472 0.049 7.07 4.45 12.07
5/9/2022 11:00:00 AM 8.24 46.832 0.049 7.08 4.4 12.04
5/9/2022 11:15:00 AM 8.46 47.228 0.049 7.12 4.46 12.01
5/9/2022 11:30:00 AM 8.7 47.66 0.049 7.12 4.37 11.95
5/9/2022 11:45:00 AM 8.96 48.128 0.049 7.12 4.4 11.9
5/9/2022 12:00:00 PM 9.23 48.614 0.049 7.13 4.36 11.83
5/9/2022 12:15:00 PM 9.53 49.154 0.049 7.13 4.8 11.75
5/9/2022 12:30:00 PM 9.85 49.73 0.049 7.17 4.2 11.68
5/9/2022 12:45:00 PM 10.18 50.324 0.049 7.16 4.32 11.6
5/9/2022 1:00:00 PM 10.52 50.936 0.049 7.16 4.22 11.52
5/9/2022 1:15:00 PM 10.86 51.548 0.049 7.17 4.2 11.44
5/9/2022 1:30:00 PM 11.21 52.178 0.049 7.18 4.32 11.36
5/9/2022 1:45:00 PM 11.55 52.79 0.049 7.2 4.38 11.28
5/9/2022 2:00:00 PM 11.88 53.384 0.049 7.21 4.41 11.19
5/9/2022 2:15:00 PM 12.18 53.924 0.049 7.21 4.42 11.13
5/9/2022 2:30:00 PM 12.48 54.464 0.049 7.23 4.42 11.05
5/9/2022 2:45:00 PM 12.76 54.968 0.049 7.25 4.64 10.98
5/9/2022 3:00:00 PM 13.01 55.418 0.049 7.25 4.59 10.92
5/9/2022 3:15:00 PM 13.23 55.814 0.049 7.25 4.67 10.85
5/9/2022 3:30:00 PM 13.42 56.156 0.05 7.26 4.77 10.81
5/9/2022 3:45:00 PM 13.59 56.462 0.049 7.26 4.71 10.76
5/9/2022 4:00:00 PM 13.73 56.714 0.049 7.26 4.87 10.71
5/9/2022 4:15:00 PM 13.82 56.876 0.049 7.24 4.88 10.66
5/9/2022 4:30:00 PM 13.89 57.002 0.049 7.25 4.81 10.61
5/9/2022 4:45:00 PM 13.94 57.092 0.049 7.26 5.02 10.59
5/9/2022 5:00:00 PM 13.95 57.11 0.049 7.23 5.17 10.54
5/9/2022 5:15:00 PM 13.93 57.074 0.049 7.24 5.3 10.51
5/9/2022 5:30:00 PM 13.89 57.002 0.049 7.22 5.56 10.48
5/9/2022 5:45:00 PM 13.85 56.93 0.049 7.21 5.68 10.44
5/9/2022 6:00:00 PM 13.79 56.822 0.049 7.18 5.54 10.42
5/9/2022 6:15:00 PM 13.74 56.732 0.049 7.17 5.77 10.39
5/9/2022 6:30:00 PM 13.67 56.606 0.049 7.15 5.8 10.36
5/9/2022 6:45:00 PM 13.59 56.462 0.049 7.14 5.85 10.34
5/9/2022 7:00:00 PM 13.5 56.3 0.049 7.09 5.76 10.33
5/9/2022 7:15:00 PM 13.4 56.12 0.049 7.09 5.95 10.31
5/9/2022 7:30:00 PM 13.3 55.94 0.05 7.08 5.94 10.29
5/9/2022 7:45:00 PM 13.2 55.76 0.05 7.07 6 10.28
5/9/2022 8:00:00 PM 13.09 55.562 0.05 7.04 5.97 10.28
5/9/2022 8:15:00 PM 12.96 55.328 0.05 7.02 6.26 10.28
5/9/2022 8:30:00 PM 12.84 55.112 0.05 7.01 6.17 10.27
5/9/2022 8:45:00 PM 12.74 54.932 0.05 6.99 6.4 10.27
5/9/2022 9:00:00 PM 12.65 54.77 0.05 6.98 6.51 10.27
5/9/2022 9:15:00 PM 12.55 54.59 0.05 6.97 6.46 10.27
5/9/2022 9:30:00 PM 12.44 54.392 0.05 6.96 6.6 10.3
5/9/2022 9:45:00 PM 12.32 54.176 0.05 6.95 6.75 10.32
5/9/2022 10:00:00 PM 12.2 53.96 0.05 6.95 7.1 10.35
5/9/2022 10:15:00 PM 12.08 53.744 0.05 6.95 6.84 10.38
5/9/2022 10:30:00 PM 11.96 53.528 0.05 6.94 7.12 10.4
5/9/2022 10:45:00 PM 11.84 53.312 0.05 6.94 6.83 10.44
5/9/2022 11:00:00 PM 11.72 53.096 0.05 6.93 6.77 10.48
5/9/2022 11:15:00 PM 11.6 52.88 0.05 6.95 6.76 10.51
5/9/2022 11:30:00 PM 11.48 52.664 0.051 6.93 6.87 10.55
5/9/2022 11:45:00 PM 11.35 52.43 0.051 6.92 6.71 10.57
5/10/2022 12:00:00 AM 11.22 52.196 0.051 6.93 6.71 10.6
5/10/2022 12:15:00 AM 11.09 51.962 0.051 6.93 6.68 10.65
5/10/2022 12:30:00 AM 10.96 51.728 0.051 6.93 6.56 10.69
5/10/2022 12:45:00 AM 10.84 51.512 0.051 6.94 6.5 10.72
5/10/2022 1:00:00 AM 10.7 51.26 0.051 6.93 6.5 10.74
5/10/2022 1:15:00 AM 10.57 51.026 0.051 6.93 6.52 10.78
5/10/2022 1:30:00 AM 10.44 50.792 0.051 6.95 6.53 10.83
5/10/2022 1:45:00 AM 10.31 50.558 0.051 6.94 6.27 10.86
5/10/2022 2:00:00 AM 10.19 50.342 0.051 6.94 6.28 10.89
5/10/2022 2:15:00 AM 10.06 50.108 0.051 6.93 6.06 10.92
5/10/2022 2:30:00 AM 9.94 49.892 0.051 6.93 5.98 10.95
5/10/2022 2:45:00 AM 9.83 49.694 0.051 6.94 5.97 10.99
5/10/2022 3:00:00 AM 9.71 49.478 0.051 6.93 5.96 11.03
5/10/2022 3:15:00 AM 9.59 49.262 0.051 6.94 5.92 11.06
5/10/2022 3:30:00 AM 9.48 49.064 0.051 6.94 5.77 11.09
5/10/2022 3:45:00 AM 9.37 48.866 0.051 6.94 5.68 11.12
5/10/2022 4:00:00 AM 9.26 48.668 0.051 6.94 5.76 11.15
5/10/2022 4:15:00 AM 9.16 48.488 0.051 6.93 5.74 11.2
5/10/2022 4:30:00 AM 9.05 48.29 0.051 6.94 5.48 11.23
5/10/2022 4:45:00 AM 8.95 48.11 0.051 6.93 5.55 11.25
5/10/2022 5:00:00 AM 8.84 47.912 0.051 6.95 5.41 11.28
5/10/2022 5:15:00 AM 8.74 47.732 0.052 6.94 5.47 11.31
5/10/2022 5:30:00 AM 8.64 47.552 0.052 6.93 5.45 11.34
5/10/2022 5:45:00 AM 8.54 47.372 0.052 6.93 5.33 11.38
5/10/2022 6:00:00 AM 8.45 47.21 0.052 6.94 5.27 11.41
5/10/2022 6:15:00 AM 8.35 47.03 0.052 6.95 5.4 11.46
5/10/2022 6:30:00 AM 8.26 46.868 0.052 6.95 5.18 11.5
5/10/2022 6:45:00 AM 8.18 46.724 0.051 6.95 5.13 11.54
5/10/2022 7:00:00 AM 8.1 46.58 0.051 6.95 4.85 11.6
5/10/2022 7:15:00 AM 8.03 46.454 0.051 6.96 4.86 11.66
5/10/2022 7:30:00 AM 7.97 46.346 0.051 6.98 4.76 11.73
5/10/2022 7:45:00 AM 7.93 46.274 0.051 7 4.67 11.79
5/10/2022 8:00:00 AM 7.9 46.22 0.051 7.01 4.53 11.84
5/10/2022 8:15:00 AM 7.87 46.166 0.051 7.03 4.69 11.89
5/10/2022 8:30:00 AM 7.87 46.166 0.051 7.04 4.46 11.94
5/10/2022 8:45:00 AM 7.87 46.166 0.051 7.05 4.51 11.97
5/10/2022 9:00:00 AM 7.89 46.202 0.051 7.07 4.34 12
5/10/2022 9:15:00 AM 7.95 46.31 0.051 7.08 4.16 12.03
5/10/2022 9:30:00 AM 8.04 46.472 0.051 7.1 4.19 12.03
5/10/2022 9:45:00 AM 8.17 46.706 0.051 7.11 4.5 12.03
5/10/2022 10:00:00 AM 8.31 46.958 0.051 7.13 4.12 12.04
5/10/2022 10:15:00 AM 8.46 47.228 0.051 7.15 4.21 12.03
5/10/2022 10:30:00 AM 8.61 47.498 0.051 7.17 3.98 12
5/10/2022 10:45:00 AM 8.78 47.804 0.051 7.18 3.85 11.97
5/10/2022 11:00:00 AM 8.97 48.146 0.051 7.19 3.92 11.95
5/10/2022 11:15:00 AM 9.16 48.488 0.051 7.21 3.74 11.92
5/10/2022 11:30:00 AM 9.39 48.902 0.051 7.21 3.77 11.86
5/10/2022 11:45:00 AM 9.63 49.334 0.051 7.23 3.81 11.83
5/10/2022 12:00:00 PM 9.89 49.802 0.051 7.25 3.69 11.77
5/10/2022 12:15:00 PM 10.18 50.324 0.051 7.26 3.75 11.7
5/10/2022 12:30:00 PM 10.49 50.882 0.051 7.27 3.8 11.64
5/10/2022 12:45:00 PM 10.81 51.458 0.051 7.29 3.84 11.56
5/10/2022 1:00:00 PM 11.14 52.052 0.051 7.27 3.89 11.48
5/10/2022 1:15:00 PM 11.39 52.502 0.051 7.31 3.77 11.39
5/10/2022 1:30:00 PM 11.69 53.042 0.051 7.32 3.93 11.33
5/10/2022 1:45:00 PM 11.97 53.546 0.051 7.32 3.82 11.24
5/10/2022 2:00:00 PM 12.29 54.122 0.051 7.33 3.83 11.19
5/10/2022 2:15:00 PM 12.61 54.698 0.051 7.34 3.77 11.09
5/10/2022 2:30:00 PM 12.94 55.292 0.051 7.35 3.8 11.04
5/10/2022 2:45:00 PM 13.23 55.814 0.051 7.36 4.07 10.96
5/10/2022 3:00:00 PM 13.5 56.3 0.051 7.36 3.88 10.91
5/10/2022 3:15:00 PM 13.7 56.66 0.051 7.37 6.21 10.84
5/10/2022 3:30:00 PM 13.83 56.894 0.051 7.39 3.87 10.77
5/10/2022 3:45:00 PM 13.92 57.056 0.051 7.38 5.28 10.7
5/10/2022 4:00:00 PM 14.09 57.362 0.051 7.39 4.17 10.68
5/10/2022 4:15:00 PM 14.21 57.578 0.051 7.39 4.49 10.65
5/10/2022 4:30:00 PM 14.25 57.65 0.051 7.38 3.96 10.61
5/10/2022 4:45:00 PM 14.26 57.668 0.051 7.38 4.1 10.58
5/10/2022 5:00:00 PM 14.3 57.74 0.051 7.37 4.04 10.56
5/10/2022 5:15:00 PM 14.3 57.74 0.051 7.38 4.04 10.53
5/10/2022 5:30:00 PM 14.27 57.686 0.051 7.36 3.95 10.52
5/10/2022 5:45:00 PM 14.22 57.596 0.051 7.34 4.14 10.49
5/10/2022 6:00:00 PM 14.19 57.542 0.051 7.32 4.2 10.44
5/10/2022 6:15:00 PM 14.15 57.47 0.051 7.3 4.02 10.42
5/10/2022 6:30:00 PM 14.1 57.38 0.051 7.27 4.07 10.4
5/10/2022 6:45:00 PM 14.03 57.254 0.051 7.26 3.96 10.33
5/10/2022 7:00:00 PM 13.96 57.128 0.051 7.22 4.19 10.29
5/10/2022 7:15:00 PM 13.88 56.984 0.051 7.2 4.05 10.25
5/10/2022 7:30:00 PM 13.78 56.804 0.051 7.16 4.19 10.23
5/10/2022 7:45:00 PM 13.68 56.624 0.052 7.13 4.39 10.22
5/10/2022 8:00:00 PM 13.6 56.48 0.052 7.11 4.88 10.2
5/10/2022 8:15:00 PM 13.49 56.282 0.052 7.08 4.09 10.2
5/10/2022 8:30:00 PM 13.36 56.048 0.052 7.06 4.05 10.17
5/10/2022 8:45:00 PM 13.23 55.814 0.052 7.04 3.92 10.15
5/10/2022 9:00:00 PM 13.11 55.598 0.052 7.02 4.01 10.16
5/10/2022 9:15:00 PM 13 55.4 0.052 7.01 4.56 10.18
5/10/2022 9:30:00 PM 12.89 55.202 0.052 7 4.19 10.2
5/10/2022 9:45:00 PM 12.79 55.022 0.052 6.99 4.38 10.21
5/10/2022 10:00:00 PM 12.68 54.824 0.052 6.99 4.67 10.23
5/10/2022 10:15:00 PM 12.58 54.644 0.052 6.98 4.3 10.24
5/10/2022 10:30:00 PM 12.48 54.464 0.052 6.98 4.62 10.27
5/10/2022 10:45:00 PM 12.37 54.266 0.052 6.98 4.36 10.3
5/10/2022 11:00:00 PM 12.26 54.068 0.052 6.97 4.55 10.33
5/10/2022 11:15:00 PM 12.15 53.87 0.052 6.97 5.08 10.35
5/10/2022 11:30:00 PM 12.04 53.672 0.052 6.97 4.37 10.38
5/10/2022 11:45:00 PM 11.93 53.474 0.052 6.97 4.45 10.4
5/11/2022 12:00:00 AM 11.83 53.294 0.052 6.96 4.33 10.44
5/11/2022 12:15:00 AM 11.71 53.078 0.052 6.96 4.34 10.48
5/11/2022 12:30:00 AM 11.6 52.88 0.052 6.96 4.35 10.51
5/11/2022 12:45:00 AM 11.49 52.682 0.053 6.96 4.56 10.53
5/11/2022 1:00:00 AM 11.38 52.484 0.053 6.96 4.53 10.56
5/11/2022 1:15:00 AM 11.28 52.304 0.053 6.96 5.23 10.58
5/11/2022 1:30:00 AM 11.17 52.106 0.053 6.96 4.5 10.62
5/11/2022 1:45:00 AM 11.06 51.908 0.053 6.96 4.62 10.66
5/11/2022 2:00:00 AM 10.94 51.692 0.053 6.96 4.38 10.69
5/11/2022 2:15:00 AM 10.83 51.494 0.053 6.97 4.72 10.71
5/11/2022 2:30:00 AM 10.71 51.278 0.053 6.96 4.28 10.74
5/11/2022 2:45:00 AM 10.6 51.08 0.053 6.96 4.49 10.76
5/11/2022 3:00:00 AM 10.49 50.882 0.053 6.96 4.64 10.8
5/11/2022 3:15:00 AM 10.37 50.666 0.053 6.96 4.27 10.84
5/11/2022 3:30:00 AM 10.26 50.468 0.053 6.97 4.28 10.87
5/11/2022 3:45:00 AM 10.15 50.27 0.053 6.97 4.27 10.9
5/11/2022 4:00:00 AM 10.04 50.072 0.053 6.96 4.2 10.92
5/11/2022 4:15:00 AM 9.93 49.874 0.053 6.96 4.12 10.95
5/11/2022 4:30:00 AM 9.83 49.694 0.053 6.96 4.21 10.98
5/11/2022 4:45:00 AM 9.72 49.496 0.053 6.96 4.17 11.02
5/11/2022 5:00:00 AM 9.62 49.316 0.054 6.96 4.26 11.04
5/11/2022 5:15:00 AM 9.52 49.136 0.054 6.97 4.1 11.06
5/11/2022 5:30:00 AM 9.42 48.956 0.054 6.97 4.15 11.08
5/11/2022 5:45:00 AM 9.32 48.776 0.053 6.97 4.1 11.11
5/11/2022 6:00:00 AM 9.23 48.614 0.053 6.97 4.08 11.15
5/11/2022 6:15:00 AM 9.13 48.434 0.053 6.97 4.02 11.2
5/11/2022 6:30:00 AM 9.05 48.29 0.053 6.98 4.07 11.25
5/11/2022 6:45:00 AM 8.96 48.128 0.053 6.99 3.95 11.31
5/11/2022 7:00:00 AM 8.89 48.002 0.053 7 3.84 11.37
5/11/2022 7:15:00 AM 8.82 47.876 0.053 7.01 3.8 11.42
5/11/2022 7:30:00 AM 8.77 47.786 0.053 7.03 3.74 11.48
5/11/2022 7:45:00 AM 8.74 47.732 0.053 7.04 3.77 11.55
5/11/2022 8:00:00 AM 8.71 47.678 0.053 7.06 3.6 11.61
5/11/2022 8:15:00 AM 8.7 47.66 0.053 7.07 3.59 11.66
5/11/2022 8:30:00 AM 8.69 47.642 0.053 7.09 3.52 11.69
5/11/2022 8:45:00 AM 8.7 47.66 0.053 7.1 3.7 11.73
5/11/2022 9:00:00 AM 8.73 47.714 0.053 7.12 3.41 11.76
5/11/2022 9:15:00 AM 8.79 47.822 0.053 7.14 3.6 11.78
5/11/2022 9:30:00 AM 8.89 48.002 0.053 7.15 3.27 11.81
5/11/2022 9:45:00 AM 9.03 48.254 0.053 7.17 3.25 11.82
5/11/2022 10:00:00 AM 9.2 48.56 0.053 7.19 3.18 11.82
5/11/2022 10:15:00 AM 9.38 48.884 0.053 7.21 3.27 11.79
5/11/2022 10:30:00 AM 9.57 49.226 0.053 7.22 3.29 11.78
5/11/2022 10:45:00 AM 9.77 49.586 0.053 7.24 3.22 11.75
5/11/2022 11:00:00 AM 10 50 0.053 7.26 3.27 11.71
5/11/2022 11:15:00 AM 10.24 50.432 0.053 7.27 3.11 11.68
5/11/2022 11:30:00 AM 10.5 50.9 0.053 7.29 3.31 11.62
5/11/2022 11:45:00 AM 10.78 51.404 0.053 7.3 3.2 11.56
5/11/2022 12:00:00 PM 11.07 51.926 0.053 7.32 3.05 11.52
5/11/2022 12:15:00 PM 11.38 52.484 0.053 7.33 3.15 11.43
5/11/2022 12:30:00 PM 11.72 53.096 0.053 7.34 3.04 11.37
5/11/2022 12:45:00 PM 12.06 53.708 0.053 7.36 3.14 11.29
5/11/2022 1:00:00 PM 12.43 54.374 0.053 7.37 3.32 11.21
5/11/2022 1:15:00 PM 12.8 55.04 0.053 7.39 3.13 11.13
5/11/2022 1:30:00 PM 13.2 55.76 0.053 7.4 3.04 11.05
5/11/2022 1:45:00 PM 13.6 56.48 0.053 7.42 3.21 10.97
5/11/2022 2:00:00 PM 13.98 57.164 0.052 7.44 3.16 10.87
5/11/2022 2:15:00 PM 14.35 57.83 0.052 7.45 3.58 10.8
5/11/2022 2:30:00 PM 14.71 58.478 0.052 7.46 3.29 10.7
5/11/2022 2:45:00 PM 15.04 59.072 0.052 7.48 3.14 10.62
5/11/2022 3:00:00 PM 15.34 59.612 0.052 7.49 3.21 10.53
5/11/2022 3:15:00 PM 15.6 60.08 0.052 7.5 3.21 10.46
5/11/2022 3:30:00 PM 15.83 60.494 0.052 7.51 3.35 10.39
5/11/2022 3:45:00 PM 16.03 60.854 0.052 7.52 3.07 10.35
5/11/2022 4:00:00 PM 16.18 61.124 0.052 7.52 3.23 10.28
5/11/2022 4:15:00 PM 16.29 61.322 0.052 7.51 3.38 10.23
5/11/2022 4:30:00 PM 16.37 61.466 0.052 7.51 3.27 10.18
5/11/2022 4:45:00 PM 16.41 61.538 0.052 7.5 3.21 10.13
5/11/2022 5:00:00 PM 16.4 61.52 0.053 7.48 3.3 10.1
5/11/2022 5:15:00 PM 16.34 61.412 0.053 7.46 3.19 10.08
5/11/2022 5:30:00 PM 16.28 61.304 0.053 7.45 3.33 10.07
5/11/2022 5:45:00 PM 16.19 61.142 0.053 7.42 3.18 10.02
5/11/2022 6:00:00 PM 16.09 60.962 0.053 7.37 3.26 9.97
5/11/2022 6:15:00 PM 15.98 60.764 0.053 7.33 3.37 9.94
5/11/2022 6:30:00 PM 15.86 60.548 0.053 7.3 3.32 9.9
5/11/2022 6:45:00 PM 15.71 60.278 0.053 7.26 3.34 9.86
5/11/2022 7:00:00 PM 15.57 60.026 0.053 7.23 3.44 9.87
5/11/2022 7:15:00 PM 15.43 59.774 0.053 7.2 3.34 9.85
5/11/2022 7:30:00 PM 15.29 59.522 0.053 7.19 3.44 9.86
5/11/2022 7:45:00 PM 15.14 59.252 0.053 7.15 3.56 9.83
5/11/2022 8:00:00 PM 15 59 0.053 7.13 3.5 9.83
5/11/2022 8:15:00 PM 14.87 58.766 0.053 7.12 3.73 9.82
5/11/2022 8:30:00 PM 14.74 58.532 0.053 7.09 3.44 9.82
5/11/2022 8:45:00 PM 14.61 58.298 0.054 7.07 3.5 9.81
5/11/2022 9:00:00 PM 14.48 58.064 0.054 7.06 3.6 9.8
5/11/2022 9:15:00 PM 14.35 57.83 0.054 7.05 3.43 9.83
5/11/2022 9:30:00 PM 14.24 57.632 0.054 7.03 3.73 9.85
5/11/2022 9:45:00 PM 14.12 57.416 0.054 7.02 3.68 9.86
5/11/2022 10:00:00 PM 14 57.2 0.054 7.02 3.96 9.89
5/11/2022 10:15:00 PM 13.89 57.002 0.054 7.01 3.77 9.9
5/11/2022 10:30:00 PM 13.76 56.768 0.054 7 3.71 9.93
5/11/2022 10:45:00 PM 13.64 56.552 0.054 7 3.64 9.96
5/11/2022 11:00:00 PM 13.51 56.318 0.054 7 3.86 9.99
5/11/2022 11:15:00 PM 13.38 56.084 0.054 7 3.86 10.03
5/11/2022 11:30:00 PM 13.26 55.868 0.054 7 3.79 10.04
5/11/2022 11:45:00 PM 13.13 55.634 0.054 7 3.92 10.07
5/12/2022 12:00:00 AM 13.01 55.418 0.054 7 3.68 10.12
5/12/2022 12:15:00 AM 12.9 55.22 0.054 6.99 3.81 10.14
5/12/2022 12:30:00 AM 12.79 55.022 0.054 7 3.61 10.17
5/12/2022 12:45:00 AM 12.67 54.806 0.055 7 3.7 10.19
5/12/2022 1:00:00 AM 12.56 54.608 0.055 7 3.96 10.21
5/12/2022 1:15:00 AM 12.44 54.392 0.055 7 3.77 10.24
5/12/2022 1:30:00 AM 12.33 54.194 0.055 6.99 3.69 10.28
5/12/2022 1:45:00 AM 12.21 53.978 0.055 6.99 3.76 10.31
5/12/2022 2:00:00 AM 12.09 53.762 0.055 7 3.69 10.34
5/12/2022 2:15:00 AM 11.98 53.564 0.055 7 3.59 10.36
5/12/2022 2:30:00 AM 11.86 53.348 0.056 6.99 3.78 10.39
5/12/2022 2:45:00 AM 11.75 53.15 0.056 7 3.56 10.42
5/12/2022 3:00:00 AM 11.64 52.952 0.056 6.99 3.53 10.45
5/12/2022 3:15:00 AM 11.52 52.736 0.055 7 3.63 10.49
5/12/2022 3:30:00 AM 11.41 52.538 0.055 6.99 3.65 10.52
5/12/2022 3:45:00 AM 11.3 52.34 0.055 7 3.46 10.53
5/12/2022 4:00:00 AM 11.18 52.124 0.055 6.99 3.61 10.56
5/12/2022 4:15:00 AM 11.07 51.926 0.055 7 3.95 10.6
5/12/2022 4:30:00 AM 10.96 51.728 0.055 7 3.6 10.63
5/12/2022 4:45:00 AM 10.85 51.53 0.055 7 3.71 10.67
5/12/2022 5:00:00 AM 10.74 51.332 0.055 7 3.67 10.69
5/12/2022 5:15:00 AM 10.64 51.152 0.055 7 3.66 10.71
5/12/2022 5:30:00 AM 10.53 50.954 0.055 7 3.6 10.75
5/12/2022 5:45:00 AM 10.43 50.774 0.055 6.99 3.47 10.79
5/12/2022 6:00:00 AM 10.33 50.594 0.055 7 3.49 10.82
5/12/2022 6:15:00 AM 10.23 50.414 0.055 7 3.2 10.87
5/12/2022 6:30:00 AM 10.13 50.234 0.055 7.01 3.51 10.93
5/12/2022 6:45:00 AM 10.05 50.09 0.055 7.03 3.33 10.99
5/12/2022 7:00:00 AM 9.98 49.964 0.055 7.04 3.34 11.08
5/12/2022 7:15:00 AM 9.92 49.856 0.055 7.06 3.32 11.17
5/12/2022 7:30:00 AM 9.86 49.748 0.055 7.08 3.04 11.26
5/12/2022 7:45:00 AM 9.83 49.694 0.055 7.11 3.08 11.33
5/12/2022 8:00:00 AM 9.81 49.658 0.055 7.13 2.96 11.4
5/12/2022 8:15:00 AM 9.8 49.64 0.055 7.16 2.96 11.46
5/12/2022 8:30:00 AM 9.79 49.622 0.055 7.18 3.11 11.51
5/12/2022 8:45:00 AM 9.81 49.658 0.055 7.2 2.86 11.55
5/12/2022 9:00:00 AM 9.84 49.712 0.055 7.22 2.84 11.58
5/12/2022 9:15:00 AM 9.9 49.82 0.055 7.24 2.8 11.6
5/12/2022 9:30:00 AM 9.99 49.982 0.055 7.26 2.83 11.61
5/12/2022 9:45:00 AM 10.11 50.198 0.055 7.29 2.73 11.62
5/12/2022 10:00:00 AM 10.27 50.486 0.054 7.31 2.91 11.63
5/12/2022 10:15:00 AM 10.45 50.81 0.054 7.34 2.81 11.62
5/12/2022 10:30:00 AM 10.64 51.152 0.054 7.36 2.91 11.59
5/12/2022 10:45:00 AM 10.85 51.53 0.054 7.38 2.78 11.58
5/12/2022 11:00:00 AM 11.07 51.926 0.054 7.41 2.68 11.54
5/12/2022 11:15:00 AM 11.31 52.358 0.054 7.43 2.74 11.5
5/12/2022 11:30:00 AM 11.57 52.826 0.054 7.44 2.76 11.47
5/12/2022 11:45:00 AM 11.84 53.312 0.054 7.46 2.78 11.41
5/12/2022 12:00:00 PM 12.13 53.834 0.054 7.49 2.8 11.35
5/12/2022 12:15:00 PM 12.44 54.392 0.054 7.51 2.76 11.3
5/12/2022 12:30:00 PM 12.76 54.968 0.054 7.52 2.73 11.23
5/12/2022 12:45:00 PM 13.08 55.544 0.054 7.54 2.72 11.18
5/12/2022 1:00:00 PM 13.41 56.138 0.054 7.56 2.88 11.09
5/12/2022 1:15:00 PM 13.76 56.768 0.054 7.57 2.76 11.01
5/12/2022 1:30:00 PM 14.12 57.416 0.054 7.58 2.6 10.93
5/12/2022 1:45:00 PM 14.49 58.082 0.054 7.6 2.66 10.84
5/12/2022 2:00:00 PM 14.86 58.748 0.054 7.61 2.65 10.76
5/12/2022 2:15:00 PM 15.23 59.414 0.054 7.63 2.81 10.67
5/12/2022 2:30:00 PM 15.57 60.026 0.054 7.64 2.7 10.59
5/12/2022 2:45:00 PM 15.91 60.638 0.054 7.65 2.74 10.5
5/12/2022 3:00:00 PM 16.22 61.196 0.054 7.67 2.59 10.43
5/12/2022 3:15:00 PM 16.51 61.718 0.054 7.68 2.81 10.34
5/12/2022 3:30:00 PM 16.75 62.15 0.054 7.68 2.61 10.28
5/12/2022 3:45:00 PM 16.98 62.564 0.054 7.69 2.83 10.2
5/12/2022 4:00:00 PM 17.15 62.87 0.054 7.69 2.58 10.14
5/12/2022 4:15:00 PM 17.28 63.104 0.054 7.68 2.82 10.08
5/12/2022 4:30:00 PM 17.39 63.302 0.054 7.67 2.85 10.02
5/12/2022 4:45:00 PM 17.45 63.41 0.054 7.65 2.75 9.99
5/12/2022 5:00:00 PM 17.47 63.446 0.055 7.62 2.78 9.92
5/12/2022 5:15:00 PM 17.47 63.446 0.055 7.6 2.7 9.89
5/12/2022 5:30:00 PM 17.43 63.374 0.055 7.56 2.76 9.84
5/12/2022 5:45:00 PM 17.37 63.266 0.055 7.52 3.25 9.79
5/12/2022 6:00:00 PM 17.3 63.14 0.055 7.47 3.1 9.75
5/12/2022 6:15:00 PM 17.23 63.014 0.054 7.43 3.15 9.71
5/12/2022 6:30:00 PM 17.15 62.87 0.054 7.4 3.03 9.67
5/12/2022 6:45:00 PM 17.06 62.708 0.054 7.37 2.87 9.65
5/12/2022 7:00:00 PM 16.95 62.51 0.054 7.34 2.81 9.63
5/12/2022 7:15:00 PM 16.84 62.312 0.055 7.31 3.08 9.61
5/12/2022 7:30:00 PM 16.72 62.096 0.055 7.28 2.73 9.59
5/12/2022 7:45:00 PM 16.59 61.862 0.055 7.26 2.97 9.56
5/12/2022 8:00:00 PM 16.46 61.628 0.055 7.23 2.73 9.53
5/12/2022 8:15:00 PM 16.34 61.412 0.055 7.2 2.78 9.5
5/12/2022 8:30:00 PM 16.22 61.196 0.056 7.17 2.95 9.48
5/12/2022 8:45:00 PM 16.1 60.98 0.056 7.14 2.96 9.46
5/12/2022 9:00:00 PM 15.98 60.764 0.056 7.12 2.95 9.45
5/12/2022 9:15:00 PM 15.85 60.53 0.056 7.11 3.15 9.45
5/12/2022 9:30:00 PM 15.72 60.296 0.056 7.09 3.12 9.46
5/12/2022 9:45:00 PM 15.6 60.08 0.056 7.07 3.14 9.48
5/12/2022 10:00:00 PM 15.49 59.882 0.056 7.06 3.21 9.51
5/12/2022 10:15:00 PM 15.38 59.684 0.056 7.05 3.23 9.52
5/12/2022 10:30:00 PM 15.28 59.504 0.056 7.04 3.26 9.54
5/12/2022 10:45:00 PM 15.18 59.324 0.056 7.04 3.4 9.55
5/12/2022 11:00:00 PM 15.08 59.144 0.056 7.02 3.2 9.57
5/12/2022 11:15:00 PM 14.98 58.964 0.056 7.02 3.28 9.61
5/12/2022 11:30:00 PM 14.89 58.802 0.056 7.02 3.36 9.63
5/12/2022 11:45:00 PM 14.8 58.64 0.056 7.02 3.49 9.66
5/13/2022 12:00:00 AM 14.71 58.478 0.056 7.02 3.36 9.69
5/13/2022 12:15:00 AM 14.62 58.316 0.056 7.01 3.32 9.7
5/13/2022 12:30:00 AM 14.53 58.154 0.056 7.01 3.3 9.73
5/13/2022 12:45:00 AM 14.45 58.01 0.056 7.01 3.24 9.75
5/13/2022 1:00:00 AM 14.36 57.848 0.056 7.01 3.25 9.78
5/13/2022 1:15:00 AM 14.27 57.686 0.056 7.01 3.54 9.8
5/13/2022 1:30:00 AM 14.19 57.542 0.056 7.02 3.31 9.82
5/13/2022 1:45:00 AM 14.1 57.38 0.056 7.01 3.2 9.85
5/13/2022 2:00:00 AM 14.01 57.218 0.056 7.01 3.31 9.86
5/13/2022 2:15:00 AM 13.92 57.056 0.056 7.01 3.24 9.87
5/13/2022 2:30:00 AM 13.84 56.912 0.056 7.01 3.49 9.88
5/13/2022 2:45:00 AM 13.75 56.75 0.056 7.01 3.3 9.91
5/13/2022 3:00:00 AM 13.67 56.606 0.057 7 3.13 9.94
5/13/2022 3:15:00 AM 13.6 56.48 0.057 7.01 3.16 9.96
5/13/2022 3:30:00 AM 13.54 56.372 0.057 7.01 3.35 9.98
5/13/2022 3:45:00 AM 13.47 56.246 0.057 7.01 3.37 10
5/13/2022 4:00:00 AM 13.42 56.156 0.057 7.02 3.3 10
5/13/2022 4:15:00 AM 13.36 56.048 0.057 7.01 3.21 10.02
5/13/2022 4:30:00 AM 13.29 55.922 0.057 7.02 3.19 10.03
5/13/2022 4:45:00 AM 13.21 55.778 0.057 7.02 3 10.05
5/13/2022 5:00:00 AM 13.14 55.652 0.057 7.02 3.14 10.06
5/13/2022 5:15:00 AM 13.06 55.508 0.057 7.02 3.2 10.08
5/13/2022 5:30:00 AM 12.97 55.346 0.057 7.02 3.09 10.1
5/13/2022 5:45:00 AM 12.89 55.202 0.057 7.02 3.11 10.12
5/13/2022 6:00:00 AM 12.81 55.058 0.057 7.02 3.17 10.16
5/13/2022 6:15:00 AM 12.74 54.932 0.057 7.03 3.04 10.2
5/13/2022 6:30:00 AM 12.67 54.806 0.057 7.03 3.05 10.25
5/13/2022 6:45:00 AM 12.61 54.698 0.057 7.06 3.02 10.32
5/13/2022 7:00:00 AM 12.58 54.644 0.057 7.06 2.87 10.39
5/13/2022 7:15:00 AM 12.54 54.572 0.057 7.08 2.86 10.44
5/13/2022 7:30:00 AM 12.52 54.536 0.057 7.11 2.74 10.53
5/13/2022 7:45:00 AM 12.52 54.536 0.057 7.14 2.68 10.66
5/13/2022 8:00:00 AM 12.54 54.572 0.057 7.18 2.82 10.75
5/13/2022 8:15:00 AM 12.56 54.608 0.057 7.22 2.69 10.82
5/13/2022 8:30:00 AM 12.59 54.662 0.056 7.25 2.66 10.87
5/13/2022 8:45:00 AM 12.62 54.716 0.056 7.29 2.71 10.9
5/13/2022 9:00:00 AM 12.67 54.806 0.056 7.32 2.69 10.96
5/13/2022 9:15:00 AM 12.76 54.968 0.056 7.36 2.67 11.01
5/13/2022 9:30:00 AM 12.86 55.148 0.056 7.4 2.64 11.03
5/13/2022 9:45:00 AM 12.96 55.328 0.056 7.45 2.73 11.03
5/13/2022 10:00:00 AM 13.11 55.598 0.056 7.49 2.49 11.04
5/13/2022 10:15:00 AM 13.19 55.742 0.056 7.52 2.54 11.01
5/13/2022 10:30:00 AM 13.29 55.922 0.056 7.55 2.48 11.01
5/13/2022 10:45:00 AM 13.38 56.084 0.056 7.58 2.61 11.01
5/13/2022 11:00:00 AM 13.43 56.174 0.056 7.59 2.57 10.98
5/13/2022 11:15:00 AM 13.5 56.3 0.056 7.6 2.58 10.97
5/13/2022 11:30:00 AM 13.63 56.534 0.056 7.64 2.6 10.96
5/13/2022 11:45:00 AM 13.72 56.696 0.056 7.65 2.57 10.95
5/13/2022 12:00:00 PM 13.88 56.984 0.056 7.68 2.6 10.93
5/13/2022 12:15:00 PM 14 57.2 0.056 7.7 2.45 10.92
5/13/2022 12:30:00 PM 14.2 57.56 0.056 7.73 2.58 10.9
5/13/2022 12:45:00 PM 14.47 58.046 0.056 7.76 2.49 10.86
5/13/2022 1:00:00 PM 14.67 58.406 0.056 7.76 2.52 10.79
5/13/2022 1:15:00 PM 14.97 58.946 0.057 7.79 2.58 10.75
5/13/2022 1:30:00 PM 15.12 59.216 0.057 7.8 2.49 10.69
5/13/2022 1:45:00 PM 15.28 59.504 0.056 7.81 2.42 10.65
5/13/2022 2:00:00 PM 15.32 59.576 0.056 7.8 2.57 10.59
5/13/2022 2:15:00 PM 15.72 60.296 0.056 7.83 2.41 10.55
5/13/2022 2:30:00 PM 16.05 60.89 0.056 7.83 2.42 10.49
5/13/2022 2:45:00 PM 16.24 61.232 0.056 7.83 2.64 10.45
5/13/2022 3:00:00 PM 16.31 61.358 0.056 7.82 2.45 10.39
5/13/2022 3:15:00 PM 16.05 60.89 0.056 7.78 2.56 10.37
5/13/2022 3:30:00 PM 15.91 60.638 0.056 7.75 2.42 10.34
5/13/2022 3:45:00 PM 15.87 60.566 0.056 7.72 2.38 10.32
5/13/2022 4:00:00 PM 16.03 60.854 0.056 7.76 2.4 10.34
5/13/2022 4:15:00 PM 16.07 60.926 0.056 7.71 2.43 10.26
5/13/2022 4:30:00 PM 16.29 61.322 0.056 7.74 2.45 10.26
5/13/2022 4:45:00 PM 16.55 61.79 0.056 7.78 2.48 10.23
5/13/2022 5:00:00 PM 16.54 61.772 0.056 7.7 2.45 10.11
5/13/2022 5:15:00 PM 16.53 61.754 0.056 7.67 2.4 10.09
5/13/2022 5:30:00 PM 16.52 61.736 0.056 7.67 2.64 10.08
5/13/2022 5:45:00 PM 16.43 61.574 0.056 7.61 2.66 10.02
5/13/2022 6:00:00 PM 16.39 61.502 0.056 7.58 2.48 10
5/13/2022 6:15:00 PM 16.39 61.502 0.056 7.57 2.44 10.01
5/13/2022 6:30:00 PM 16.34 61.412 0.056 7.54 2.55 9.98
5/13/2022 6:45:00 PM 16.26 61.268 0.056 7.49 2.44 9.92
5/13/2022 7:00:00 PM 16.19 61.142 0.056 7.44 2.32 9.88
5/13/2022 7:15:00 PM 16.16 61.088 0.056 7.41 2.38 9.84
5/13/2022 7:30:00 PM 16.1 60.98 0.056 7.38 2.36 9.8
5/13/2022 7:45:00 PM 16.03 60.854 0.056 7.34 2.42 9.75
5/13/2022 8:00:00 PM 15.96 60.728 0.056 7.31 2.47 9.72
5/13/2022 8:15:00 PM 15.91 60.638 0.056 7.3 2.42 9.72
5/13/2022 8:30:00 PM 15.89 60.602 0.056 7.26 2.53 9.63
5/13/2022 8:45:00 PM 15.87 60.566 0.057 7.23 2.78 9.55
5/13/2022 9:00:00 PM 15.83 60.494 0.057 7.19 2.53 9.5
5/13/2022 9:15:00 PM 15.77 60.386 0.057 7.17 2.86 9.47
5/13/2022 9:30:00 PM 15.7 60.26 0.057 7.15 2.79 9.46
5/13/2022 9:45:00 PM 15.62 60.116 0.057 7.13 2.73 9.45
5/13/2022 10:00:00 PM 15.55 59.99 0.057 7.12 2.72 9.46
5/13/2022 10:15:00 PM 15.47 59.846 0.057 7.11 2.77 9.47
5/13/2022 10:30:00 PM 15.38 59.684 0.058 7.1 2.91 9.48
5/13/2022 10:45:00 PM 15.29 59.522 0.058 7.09 2.92 9.5
5/13/2022 11:00:00 PM 15.2 59.36 0.058 7.08 2.81 9.51
5/13/2022 11:15:00 PM 15.13 59.234 0.058 7.07 2.8 9.52
5/13/2022 11:30:00 PM 15.06 59.108 0.058 7.06 2.85 9.54
5/13/2022 11:45:00 PM 15.01 59.018 0.058 7.06 2.72 9.56
5/14/2022 12:00:00 AM 14.95 58.91 0.058 7.06 2.81 9.57
5/14/2022 12:15:00 AM 14.91 58.838 0.058 7.05 2.91 9.59
5/14/2022 12:30:00 AM 14.87 58.766 0.058 7.04 2.93 9.59
5/14/2022 12:45:00 AM 14.82 58.676 0.058 7.05 2.91 9.61
5/14/2022 1:00:00 AM 14.78 58.604 0.058 7.04 2.87 9.62
5/14/2022 1:15:00 AM 14.73 58.514 0.058 7.04 3.08 9.63
5/14/2022 1:30:00 AM 14.68 58.424 0.058 7.04 2.9 9.64
5/14/2022 1:45:00 AM 14.64 58.352 0.058 7.04 2.93 9.65
5/14/2022 2:00:00 AM 14.59 58.262 0.058 7.04 2.76 9.66
5/14/2022 2:15:00 AM 14.52 58.136 0.058 7.02 3.04 9.66
5/14/2022 2:30:00 AM 14.46 58.028 0.058 7.03 3.12 9.69
5/14/2022 2:45:00 AM 14.39 57.902 0.058 7.03 2.86 9.7
5/14/2022 3:00:00 AM 14.33 57.794 0.058 7.03 2.76 9.73
5/14/2022 3:15:00 AM 14.26 57.668 0.058 7.02 2.92 9.74
5/14/2022 3:30:00 AM 14.19 57.542 0.058 7.02 2.98 9.75
5/14/2022 3:45:00 AM 14.12 57.416 0.058 7.02 2.94 9.77
5/14/2022 4:00:00 AM 14.06 57.308 0.058 7.01 3.09 9.78
5/14/2022 4:15:00 AM 14 57.2 0.058 7.02 2.77 9.79
5/14/2022 4:30:00 AM 13.93 57.074 0.058 7.01 2.89 9.8
5/14/2022 4:45:00 AM 13.87 56.966 0.058 7.02 2.89 9.82
5/14/2022 5:00:00 AM 13.81 56.858 0.058 7.02 2.86 9.83
5/14/2022 5:15:00 AM 13.75 56.75 0.059 7.01 2.96 9.84
5/14/2022 5:30:00 AM 13.69 56.642 0.059 7.02 2.88 9.86
5/14/2022 5:45:00 AM 13.63 56.534 0.059 7.03 2.86 9.87
5/14/2022 6:00:00 AM 13.59 56.462 0.059 7.03 2.64 9.9
5/14/2022 6:15:00 AM 13.55 56.39 0.059 7.03 2.8 9.93
5/14/2022 6:30:00 AM 13.51 56.318 0.059 7.05 2.74 9.98
5/14/2022 6:45:00 AM 13.46 56.228 0.059 7.06 2.62 10.04
5/14/2022 7:00:00 AM 13.44 56.192 0.059 7.08 2.7 10.09
5/14/2022 7:15:00 AM 13.42 56.156 0.059 7.1 2.6 10.14
5/14/2022 7:30:00 AM 13.41 56.138 0.059 7.12 2.53 10.21
5/14/2022 7:45:00 AM 13.4 56.12 0.06 7.16 2.62 10.32
5/14/2022 8:00:00 AM 13.41 56.138 0.06 7.19 2.47 10.42
5/14/2022 8:15:00 AM 13.44 56.192 0.059 7.24 2.57 10.53
5/14/2022 8:30:00 AM 13.48 56.264 0.059 7.29 2.53 10.6
5/14/2022 8:45:00 AM 13.53 56.354 0.058 7.33 2.45 10.67
5/14/2022 9:00:00 AM 13.61 56.498 0.058 7.39 2.53 10.73
5/14/2022 9:15:00 AM 13.65 56.57 0.058 7.42 2.39 10.76
5/14/2022 9:30:00 AM 13.79 56.822 0.058 7.49 2.35 10.79
5/14/2022 9:45:00 AM 13.91 57.038 0.058 7.54 2.35 10.8
5/14/2022 10:00:00 AM 14.05 57.29 0.058 7.6 2.5 10.82
5/14/2022 10:15:00 AM 14.23 57.614 0.058 7.64 2.41 10.82
5/14/2022 10:30:00 AM 14.35 57.83 0.058 7.67 2.44 10.78
5/14/2022 10:45:00 AM 14.43 57.974 0.058 7.69 2.33 10.74
5/14/2022 11:00:00 AM 14.54 58.172 0.058 7.72 2.39 10.69
5/14/2022 11:15:00 AM 14.72 58.496 0.058 7.76 2.31 10.7
5/14/2022 11:30:00 AM 14.95 58.91 0.057 7.8 2.51 10.67
5/14/2022 11:45:00 AM 15.13 59.234 0.057 7.83 2.43 10.63
5/14/2022 12:00:00 PM 15.36 59.648 0.057 7.87 2.41 10.6
5/14/2022 12:15:00 PM 15.45 59.81 0.057 7.87 2.46 10.56
5/14/2022 12:30:00 PM 15.65 60.17 0.057 7.91 2.39 10.53
5/14/2022 12:45:00 PM 15.98 60.764 0.057 7.96 2.52 10.47
5/14/2022 1:00:00 PM 16.15 61.07 0.057 7.98 2.3 10.43
5/14/2022 1:15:00 PM 16.13 61.034 0.057 7.87 2.37 10.3
5/14/2022 1:30:00 PM 16.18 61.124 0.057 7.88 2.42 10.32
5/14/2022 1:45:00 PM 16.44 61.592 0.057 7.95 2.32 10.34
5/14/2022 2:00:00 PM 16.6 61.88 0.057 7.94 2.37 10.27
5/14/2022 2:15:00 PM 16.53 61.754 0.057 7.87 2.37 10.2
5/14/2022 2:30:00 PM 16.51 61.718 0.057 7.85 2.3 10.17
5/14/2022 2:45:00 PM 16.61 61.898 0.057 7.9 2.38 10.18
5/14/2022 3:00:00 PM 16.68 62.024 0.058 7.88 2.43 10.12
5/14/2022 3:15:00 PM 16.72 62.096 0.058 7.83 2.27 10.06
5/14/2022 3:30:00 PM 16.76 62.168 0.057 7.83 2.24 10.05
5/14/2022 3:45:00 PM 16.83 62.294 0.057 7.88 2.31 10.09
5/14/2022 4:00:00 PM 16.98 62.564 0.057 7.97 2.44 10.11
5/14/2022 4:15:00 PM 17.04 62.672 0.057 7.98 2.34 10.1
5/14/2022 4:30:00 PM 17.11 62.798 0.057 8.03 2.35 10.08
5/14/2022 4:45:00 PM 17.15 62.87 0.057 7.97 2.41 10.01
5/14/2022 5:00:00 PM 17.19 62.942 0.057 7.88 2.28 9.92
5/14/2022 5:15:00 PM 17.18 62.924 0.058 7.8 2.4 9.85
5/14/2022 5:30:00 PM 17.14 62.852 0.058 7.73 2.26 9.81
5/14/2022 5:45:00 PM 17.15 62.87 0.058 7.76 2.38 9.86
5/14/2022 6:00:00 PM 17.12 62.816 0.057 7.75 2.34 9.85
5/14/2022 6:15:00 PM 17.02 62.636 0.058 7.64 2.47 9.75
5/14/2022 6:30:00 PM 16.94 62.492 0.058 7.58 2.21 9.71
5/14/2022 6:45:00 PM 16.92 62.456 0.058 7.56 2.35 9.73
5/14/2022 7:00:00 PM 16.9 62.42 0.058 7.56 2.35 9.74
5/14/2022 7:15:00 PM 16.86 62.348 0.058 7.54 2.33 9.71
5/14/2022 7:30:00 PM 16.77 62.186 0.058 7.45 2.42 9.61
5/14/2022 7:45:00 PM 16.66 61.988 0.058 7.4 2.36 9.53
5/14/2022 8:00:00 PM 16.56 61.808 0.058 7.34 2.33 9.46
5/14/2022 8:15:00 PM 16.45 61.61 0.058 7.29 2.49 9.39
5/14/2022 8:30:00 PM 16.36 61.448 0.059 7.25 2.44 9.34
5/14/2022 8:45:00 PM 16.27 61.286 0.059 7.21 2.63 9.31
5/14/2022 9:00:00 PM 16.19 61.142 0.059 7.19 2.55 9.29
5/14/2022 9:15:00 PM 16.11 60.998 0.059 7.18 2.63 9.28
5/14/2022 9:30:00 PM 16.01 60.818 0.059 7.15 2.72 9.28
5/14/2022 9:45:00 PM 15.92 60.656 0.059 7.14 2.56 9.28
5/14/2022 10:00:00 PM 15.82 60.476 0.059 7.13 2.71 9.29
5/14/2022 10:15:00 PM 15.73 60.314 0.06 7.12 2.67 9.29
5/14/2022 10:30:00 PM 15.65 60.17 0.061 7.11 2.79 9.32
5/14/2022 10:45:00 PM 15.56 60.008 0.061 7.11 2.75 9.34
5/14/2022 11:00:00 PM 15.48 59.864 0.06 7.1 2.6 9.36
5/14/2022 11:15:00 PM 15.4 59.72 0.06 7.1 2.99 9.38
5/14/2022 11:30:00 PM 15.32 59.576 0.06 7.09 2.68 9.39
5/14/2022 11:45:00 PM 15.24 59.432 0.06 7.09 2.87 9.41
5/15/2022 12:00:00 AM 15.17 59.306 0.06 7.09 2.78 9.41
5/15/2022 12:15:00 AM 15.11 59.198 0.06 7.08 2.74 9.43
5/15/2022 12:30:00 AM 15.05 59.09 0.06 7.07 2.78 9.45
5/15/2022 12:45:00 AM 14.99 58.982 0.06 7.07 2.74 9.47
5/15/2022 1:00:00 AM 14.94 58.892 0.06 7.07 2.83 9.49
5/15/2022 1:15:00 AM 14.89 58.802 0.059 7.07 2.76 9.5
5/15/2022 1:30:00 AM 14.85 58.73 0.06 7.07 2.79 9.5
5/15/2022 1:45:00 AM 14.8 58.64 0.06 7.07 2.99 9.51
5/15/2022 2:00:00 AM 14.75 58.55 0.06 7.07 3.14 9.51
5/15/2022 2:15:00 AM 14.69 58.442 0.06 7.06 2.82 9.53
5/15/2022 2:30:00 AM 14.63 58.334 0.06 7.06 2.72 9.54
5/15/2022 2:45:00 AM 14.56 58.208 0.06 7.06 2.87 9.55
5/15/2022 3:00:00 AM 14.51 58.118 0.06 7.05 3.14 9.56
5/15/2022 3:15:00 AM 14.46 58.028 0.06 7.05 2.82 9.58
5/15/2022 3:30:00 AM 14.41 57.938 0.06 7.05 3.05 9.6
5/15/2022 3:45:00 AM 14.36 57.848 0.06 7.04 3.12 9.62
5/15/2022 4:00:00 AM 14.32 57.776 0.059 7.04 3.29 9.63
5/15/2022 4:15:00 AM 14.28 57.704 0.059 7.06 3.41 9.65
5/15/2022 4:30:00 AM 14.24 57.632 0.059 7.05 3.26 9.66
5/15/2022 4:45:00 AM 14.19 57.542 0.059 7.06 3.53 9.66
5/15/2022 5:00:00 AM 14.15 57.47 0.058 7.05 3.66 9.68
5/15/2022 5:15:00 AM 14.11 57.398 0.058 7.06 3.58 9.68
5/15/2022 5:30:00 AM 14.06 57.308 0.058 7.06 3.66 9.69
5/15/2022 5:45:00 AM 14.02 57.236 0.058 7.06 3.89 9.69
5/15/2022 6:00:00 AM 13.98 57.164 0.058 7.06 4.03 9.7
5/15/2022 6:15:00 AM 13.93 57.074 0.058 7.06 4.15 9.72
5/15/2022 6:30:00 AM 13.89 57.002 0.058 7.07 4.25 9.76
5/15/2022 6:45:00 AM 13.86 56.948 0.058 7.09 4.53 9.8
5/15/2022 7:00:00 AM 13.84 56.912 0.058 7.1 4.47 9.85
5/15/2022 7:15:00 AM 13.82 56.876 0.058 7.13 4.31 9.9
5/15/2022 7:30:00 AM 13.81 56.858 0.058 7.15 4 10.01
5/15/2022 7:45:00 AM 13.82 56.876 0.058 7.19 3.99 10.12
5/15/2022 8:00:00 AM 13.85 56.93 0.059 7.23 3.94 10.22
5/15/2022 8:15:00 AM 13.88 56.984 0.059 7.28 3.8 10.32
5/15/2022 8:30:00 AM 13.92 57.056 0.059 7.32 3.63 10.38
5/15/2022 8:45:00 AM 13.97 57.146 0.059 7.36 3.63 10.46
5/15/2022 9:00:00 AM 14.06 57.308 0.059 7.43 3.51 10.55
5/15/2022 9:15:00 AM 14.2 57.56 0.059 7.51 3.48 10.61
5/15/2022 9:30:00 AM 14.37 57.866 0.059 7.57 3.56 10.65
5/15/2022 9:45:00 AM 14.46 58.028 0.059 7.62 3.46 10.64
5/15/2022 10:00:00 AM 14.5 58.1 0.059 7.64 3.26 10.63
5/15/2022 10:15:00 AM 14.67 58.406 0.059 7.69 3.6 10.65
5/15/2022 10:30:00 AM 14.82 58.676 0.059 7.71 3.44 10.62
5/15/2022 10:45:00 AM 15.06 59.108 0.059 7.76 3.52 10.6
5/15/2022 11:00:00 AM 15.28 59.504 0.059 7.8 3.28 10.59
5/15/2022 11:15:00 AM 15.52 59.936 0.059 7.84 3.3 10.57
5/15/2022 11:30:00 AM 15.82 60.476 0.059 7.89 3.24 10.52
5/15/2022 11:45:00 AM 16.21 61.178 0.059 7.96 3.03 10.49
5/15/2022 12:00:00 PM 16.56 61.808 0.059 8.01 2.92 10.41
5/15/2022 12:15:00 PM 16.81 62.258 0.059 8.02 3.05 10.35
5/15/2022 12:30:00 PM 17.19 62.942 0.06 8.08 3.09 10.28
5/15/2022 12:45:00 PM 17.12 62.816 0.061 7.95 3.06 10.14
5/15/2022 1:00:00 PM 17.24 63.032 0.06 8.01 2.93 10.16
5/15/2022 1:15:00 PM 17.53 63.554 0.06 8.06 2.99 10.17
5/15/2022 1:30:00 PM 17.62 63.716 0.06 8.11 2.97 10.16
5/15/2022 1:45:00 PM 17.62 63.716 0.06 8.1 2.73 10.09
5/15/2022 2:00:00 PM 17.76 63.968 0.059 8.11 2.76 10.06
5/15/2022 2:15:00 PM 18.12 64.616 0.059 8.18 2.63 10.06
5/15/2022 2:30:00 PM 18.13 64.634 0.059 8.11 2.67 9.96
5/15/2022 2:45:00 PM 18.49 65.282 0.059 8.2 2.59 9.97
5/15/2022 3:00:00 PM 18.7 65.66 0.059 8.23 2.64 9.93
5/15/2022 3:15:00 PM 18.9 66.02 0.059 8.25 2.64 9.86
5/15/2022 3:30:00 PM 19.19 66.542 0.059 8.3 2.59 9.81
5/15/2022 3:45:00 PM 19.54 67.172 0.059 8.37 2.5 9.78
5/15/2022 4:00:00 PM 19.74 67.532 0.059 8.39 2.57 9.71
5/15/2022 4:15:00 PM 19.86 67.748 0.059 8.38 2.55 9.65
5/15/2022 4:30:00 PM 19.86 67.748 0.059 8.29 2.51 9.54
5/15/2022 4:45:00 PM 19.83 67.694 0.059 8.26 2.44 9.52
5/15/2022 5:00:00 PM 19.71 67.478 0.059 8.24 2.56 9.53
5/15/2022 5:15:00 PM 19.47 67.046 0.059 8.16 2.52 9.54
5/15/2022 5:30:00 PM 19.16 66.488 0.059 8.06 2.55 9.52
5/15/2022 5:45:00 PM 18.91 66.038 0.06 7.95 2.46 9.5
5/15/2022 6:00:00 PM 18.68 65.624 0.06 7.86 2.45 9.5
5/15/2022 6:15:00 PM 18.46 65.228 0.06 7.77 2.5 9.47
5/15/2022 6:30:00 PM 18.29 64.922 0.06 7.68 2.29 9.45
5/15/2022 6:45:00 PM 18.16 64.688 0.06 7.63 2.39 9.46
5/15/2022 7:00:00 PM 18.06 64.508 0.06 7.6 2.37 9.45
5/15/2022 7:15:00 PM 17.96 64.328 0.06 7.54 2.45 9.41
5/15/2022 7:30:00 PM 17.86 64.148 0.06 7.47 2.38 9.32
5/15/2022 7:45:00 PM 17.76 63.968 0.06 7.42 2.4 9.26
5/15/2022 8:00:00 PM 17.66 63.788 0.06 7.37 3.19 9.23
5/15/2022 8:15:00 PM 17.53 63.554 0.06 7.33 2.72 9.19
5/15/2022 8:30:00 PM 17.4 63.32 0.061 7.28 2.44 9.14
5/15/2022 8:45:00 PM 17.27 63.086 0.061 7.23 2.73 9.08
5/15/2022 9:00:00 PM 17.17 62.906 0.061 7.21 2.63 9.04
5/15/2022 9:15:00 PM 17.07 62.726 0.061 7.19 2.72 9.02
5/15/2022 9:30:00 PM 16.96 62.528 0.061 7.18 2.73 9.02
5/15/2022 9:45:00 PM 16.86 62.348 0.061 7.16 2.75 9.03
5/15/2022 10:00:00 PM 16.75 62.15 0.061 7.14 2.75 9.04
5/15/2022 10:15:00 PM 16.65 61.97 0.062 7.14 2.77 9.06
5/15/2022 10:30:00 PM 16.54 61.772 0.062 7.13 2.85 9.07
5/15/2022 10:45:00 PM 16.43 61.574 0.062 7.12 2.82 9.08
5/15/2022 11:00:00 PM 16.31 61.358 0.062 7.11 2.73 9.11
5/15/2022 11:15:00 PM 16.2 61.16 0.062 7.11 2.93 9.14
5/15/2022 11:30:00 PM 16.09 60.962 0.062 7.11 2.86 9.17
5/15/2022 11:45:00 PM 15.98 60.764 0.062 7.1 2.85 9.19
5/16/2022 12:00:00 AM 15.88 60.584 0.062 7.1 2.78 9.21
5/16/2022 12:15:00 AM 15.77 60.386 0.062 7.11 2.83 9.24
5/16/2022 12:30:00 AM 15.67 60.206 0.062 7.1 2.76 9.25
5/16/2022 12:45:00 AM 15.56 60.008 0.062 7.1 4.88 9.28
5/16/2022 1:00:00 AM 15.46 59.828 0.062 7.09 2.8 9.31
5/16/2022 1:15:00 AM 15.36 59.648 0.062 7.09 2.82 9.33
5/16/2022 1:30:00 AM 15.26 59.468 0.062 7.1 2.77 9.35
5/16/2022 1:45:00 AM 15.17 59.306 0.062 7.1 2.91 9.38
5/16/2022 2:00:00 AM 15.08 59.144 0.062 7.1 2.99 9.39
5/16/2022 2:15:00 AM 14.99 58.982 0.062 7.09 2.78 9.41
5/16/2022 2:30:00 AM 14.93 58.874 0.062 7.09 2.8 9.42
5/16/2022 2:45:00 AM 14.87 58.766 0.062 7.09 2.94 9.44
5/16/2022 3:00:00 AM 14.82 58.676 0.062 7.1 2.77 9.45
5/16/2022 3:15:00 AM 14.77 58.586 0.062 7.1 2.84 9.47
5/16/2022 3:30:00 AM 14.72 58.496 0.062 7.1 2.88 9.48
5/16/2022 3:45:00 AM 14.67 58.406 0.062 7.1 2.67 9.49
5/16/2022 4:00:00 AM 14.63 58.334 0.062 7.09 2.88 9.5
5/16/2022 4:15:00 AM 14.58 58.244 0.062 7.1 2.83 9.52
5/16/2022 4:30:00 AM 14.53 58.154 0.062 7.1 2.78 9.53
5/16/2022 4:45:00 AM 14.49 58.082 0.062 7.1 2.77 9.53
5/16/2022 5:00:00 AM 14.43 57.974 0.062 7.11 2.92 9.55
5/16/2022 5:15:00 AM 14.38 57.884 0.062 7.1 2.76 9.56
5/16/2022 5:30:00 AM 14.33 57.794 0.062 7.1 3.09 9.56
5/16/2022 5:45:00 AM 14.28 57.704 0.062 7.1 2.82 9.58
5/16/2022 6:00:00 AM 14.23 57.614 0.062 7.11 2.75 9.6
5/16/2022 6:15:00 AM 14.19 57.542 0.062 7.12 2.62 9.64
5/16/2022 6:30:00 AM 14.15 57.47 0.062 7.14 2.69 9.71
5/16/2022 6:45:00 AM 14.11 57.398 0.062 7.15 2.63 9.77
5/16/2022 7:00:00 AM 14.09 57.362 0.062 7.17 2.52 9.85
5/16/2022 7:15:00 AM 14.06 57.308 0.062 7.21 2.44 9.97
5/16/2022 7:30:00 AM 14.05 57.29 0.062 7.24 2.4 10.09
5/16/2022 7:45:00 AM 14.04 57.272 0.062 7.28 2.47 10.18
5/16/2022 8:00:00 AM 14.06 57.308 0.062 7.34 2.42 10.31
5/16/2022 8:15:00 AM 14.09 57.362 0.062 7.4 2.44 10.43
5/16/2022 8:30:00 AM 14.12 57.416 0.063 7.46 2.4 10.5
5/16/2022 8:45:00 AM 14.15 57.47 0.064 7.51 2.4 10.54
5/16/2022 9:00:00 AM 14.18 57.524 0.063 7.57 2.41 10.59
5/16/2022 9:15:00 AM 14.18 57.524 0.062 7.54 2.46 10.47
5/16/2022 9:30:00 AM 14.17 57.506 0.062 7.51 2.33 10.42
5/16/2022 9:45:00 AM 14.16 57.488 0.061 7.47 2.28 10.31
5/16/2022 10:00:00 AM 14.15 57.47 0.061 7.45 2.29 10.3
5/16/2022 10:15:00 AM 14.14 57.452 0.061 7.43 2.36